Darstellungsparameter: Aktuell verwendete Einstellungen:
Skalierung der Graphiken ... ?
xyx+y,   Skalierungsfaktor:      Skalierung: Modus: x, Faktor: 1
Darstellungszeitraum ... ?
Vom - - bis: - -   Zeitraum: 02.03.2005 - 29.03.2005
Min/Max/Avg-Anzeige ... ?
Zeige MMA aktuell
Zeige MMA Monat
Zeige MMA alles
Zeige --A aktuell
Zeige --A Monat
Zeige --A alles
Keine MMA-Anzeige
MMA:
Average (ber die Originaldaten)
MMA-Basis: 23.02.2003 - 30.09.2020
Quicknavigation für Darstellung... ?
Tage:      1T, 2T, 3T, 5T -1T -2T -3T -5T +1T +2T +3T +5T
Wochen: 1W, 2W, 3W -1W -2W -3W +1W +2W +3W
Monate: 1M, 3M, 6M -1M -3M -6M +1M +3M +6M
Jahre:    1J, 3J, 5J, 10J -1J -3J -5J -10J +1J +3J +5J +10J
Nutze für die Darstellung ... ?
Originaldaten oder Mittelwerte auf ...
Stundenbasis Tagesbasis Wochenbasis
Monatsbasis Jahresbasis      Datenbasis: Original-Daten
Darstellen als:
Statistik (Auto) Statistik J:M      Darstellung:
Zur Graphik,    zurück zur Übersicht aller Sensoren.
 
Tabellarische Datenbersicht: ?
 
Sensor: Nr:Datum:Temp:Abs-Feuchte:Windchill:Wind:
Aussen-T/F 1 02-03-2005 00:07:12 -5.4 C 1.36 g/m*3 -5.4 C 0 km/h
2 02-03-2005 00:27:12 -5.4 C 1.32 g/m*3 -5.4 C 0 km/h
3 02-03-2005 00:47:12 -5.3 C 1.33 g/m*3 -5.3 C 0 km/h
4 02-03-2005 01:07:12 -5.8 C 1.35 g/m*3 -5.8 C 0 km/h
5 02-03-2005 01:27:12 -6.5 C 1.4 g/m*3 -6.5 C 0 km/h
6 02-03-2005 01:47:12 -6.7 C 1.44 g/m*3 -6.7 C 0 km/h
7 02-03-2005 02:07:12 -6.6 C 1.52 g/m*3 -6.6 C 0 km/h
8 02-03-2005 02:27:12 -6 C 1.55 g/m*3 -6 C 0 km/h
9 02-03-2005 02:47:12 -5.8 C 1.57 g/m*3 -5.8 C 0 km/h
10 02-03-2005 03:07:12 -5.4 C 1.52 g/m*3 -5.4 C 0 km/h
11 02-03-2005 03:27:12 -5.3 C 1.53 g/m*3 -5.3 C 0 km/h
12 02-03-2005 03:47:12 -5.2 C 1.48 g/m*3 -5.2 C 0 km/h
13 02-03-2005 04:07:13 -5 C 1.5 g/m*3 -5 C 0 km/h
14 02-03-2005 04:27:13 -5 C 1.57 g/m*3 -5 C 0 km/h
15 02-03-2005 04:47:13 -5 C 1.57 g/m*3 -5 C 0 km/h
16 02-03-2005 05:07:13 -4.9 C 1.61 g/m*3 -4.9 C 0 km/h
17 02-03-2005 05:27:13 -4.9 C 1.65 g/m*3 -4.9 C 0 km/h
18 02-03-2005 05:47:13 -5.2 C 1.58 g/m*3 -5.2 C 0 km/h
19 02-03-2005 06:07:13 -5.6 C 1.56 g/m*3 -5.6 C 0 km/h
20 02-03-2005 06:27:13 -6 C 1.58 g/m*3 -6 C 0 km/h
21 02-03-2005 06:47:13 -6.1 C 1.6 g/m*3 -6.1 C 0 km/h
22 02-03-2005 07:07:13 -6.4 C 1.57 g/m*3 -6.4 C 0 km/h
23 02-03-2005 07:27:13 -6.2 C 1.62 g/m*3 -6.2 C 0 km/h
24 02-03-2005 07:47:13 -5.8 C 1.64 g/m*3 -5.8 C 0 km/h
25 02-03-2005 08:07:13 -5.2 C 1.75 g/m*3 -5.2 C 0 km/h
Sensor: Nr:Datum:Temp:Abs-Feuchte:Windchill:Wind:
Aussen-T/F 26 02-03-2005 08:27:13 -4.5 C 1.84 g/m*3 -4.5 C 0 km/h
27 02-03-2005 08:47:13 -3.5 C 1.74 g/m*3 -3.5 C 0 km/h
28 02-03-2005 09:07:13 -3 C 1.65 g/m*3 -3 C 0 km/h
29 02-03-2005 09:27:13 -2.3 C 1.65 g/m*3 -2.3 C 0 km/h
30 02-03-2005 09:47:13 -1.7 C 1.68 g/m*3 -1.7 C 0 km/h
31 02-03-2005 10:07:13 -0.8 C 1.83 g/m*3 -0.8 C 0 km/h
32 02-03-2005 10:27:13 -0.4 C 1.65 g/m*3 -0.4 C 0 km/h
33 02-03-2005 10:47:14 0.3 C 1.73 g/m*3 0.3 C 0 km/h
34 02-03-2005 11:07:14 0 C 1.55 g/m*3 0 C 0 km/h
35 02-03-2005 11:27:14 0.1 C 1.51 g/m*3 0.1 C 0 km/h
36 02-03-2005 11:47:14 0.5 C 1.6 g/m*3 0.5 C 0 km/h
37 02-03-2005 12:07:14 0.9 C 1.6 g/m*3 0.9 C 0 km/h
38 02-03-2005 12:27:14 1.3 C 1.59 g/m*3 1.3 C 0 km/h
39 02-03-2005 12:47:14 2.3 C 1.7 g/m*3 2.3 C 0 km/h
40 02-03-2005 13:07:14 2.3 C 1.7 g/m*3 2.3 C 0 km/h
41 02-03-2005 13:27:14 2.8 C 1.76 g/m*3 2.8 C 0 km/h
42 02-03-2005 13:47:14 3.8 C 1.63 g/m*3 3.8 C 0 km/h
43 02-03-2005 14:07:14 4.5 C 1.51 g/m*3 4.5 C 0 km/h
44 02-03-2005 14:27:14 3.9 C 1.26 g/m*3 3.9 C 0 km/h
45 02-03-2005 14:47:14 3.9 C 1.26 g/m*3 3.9 C 0 km/h
46 02-03-2005 15:07:14 2.8 C 1.17 g/m*3 2.8 C 0 km/h
47 02-03-2005 15:27:14 3.1 C 1.2 g/m*3 3.1 C 0 km/h
48 02-03-2005 15:47:14 3.6 C 1.24 g/m*3 3.6 C 0 km/h
49 02-03-2005 16:07:14 3.6 C 1.42 g/m*3 3.6 C 0 km/h
50 02-03-2005 16:27:14 3.5 C 1.6 g/m*3 3.5 C 0 km/h
Sensor: Nr:Datum:Temp:Abs-Feuchte:Windchill:Wind:
Aussen-T/F 51 02-03-2005 16:47:14 3.5 C 1.6 g/m*3 3.5 C 0 km/h
52 02-03-2005 17:07:14 2.7 C 1.75 g/m*3 2.7 C 0 km/h
53 02-03-2005 17:27:14 2 C 1.83 g/m*3 2 C 0 km/h
54 02-03-2005 17:47:15 1.5 C 1.93 g/m*3 1.5 C 0 km/h
55 02-03-2005 18:07:15 1 C 1.92 g/m*3 1 C 0 km/h
56 02-03-2005 18:27:15 0.7 C 2.14 g/m*3 0.7 C 0 km/h
57 02-03-2005 18:47:15 0.4 C 2.04 g/m*3 0.4 C 0 km/h
58 02-03-2005 19:07:15 0.4 C 2.09 g/m*3 0.4 C 0 km/h
59 02-03-2005 19:27:15 0.4 C 2.09 g/m*3 0.4 C 0 km/h
60 02-03-2005 19:47:15 0.3 C 2.13 g/m*3 0.3 C 0 km/h
61 02-03-2005 20:07:15 0.3 C 2.08 g/m*3 0.3 C 0 km/h
62 02-03-2005 20:27:15 0.3 C 2.08 g/m*3 0.3 C 0 km/h
63 02-03-2005 20:47:15 0.3 C 2.08 g/m*3 0.3 C 0 km/h
64 02-03-2005 21:07:15 0.1 C 2.1 g/m*3 0.1 C 0 km/h
65 02-03-2005 21:27:15 0.3 C 2.13 g/m*3 0.3 C 0 km/h
66 02-03-2005 21:47:15 0 C 2.13 g/m*3 0 C 0 km/h
67 02-03-2005 22:07:15 -0.3 C 2.14 g/m*3 -0.3 C 0 km/h
68 02-03-2005 22:27:15 -0.5 C 2.15 g/m*3 -0.5 C 0 km/h
69 02-03-2005 22:47:15 -1.2 C 2.27 g/m*3 -1.2 C 0 km/h
70 02-03-2005 23:07:15 -1.6 C 2.3 g/m*3 -1.6 C 0 km/h
71 02-03-2005 23:27:15 -1.7 C 2.37 g/m*3 -1.7 C 0 km/h
72 02-03-2005 23:47:15 -1.8 C 2.35 g/m*3 -1.8 C 0 km/h
73 03-03-2005 00:07:15 -1.7 C 2.32 g/m*3 -1.7 C 0 km/h
74 03-03-2005 00:27:16 -1.6 C 2.34 g/m*3 -1.6 C 0 km/h
75 03-03-2005 00:47:16 -1.4 C 2.24 g/m*3 -1.4 C 0 km/h
Sensor: Nr:Datum:Temp:Abs-Feuchte:Windchill:Wind:
Aussen-T/F 76 03-03-2005 01:07:16 -1.6 C 2.25 g/m*3 -1.6 C 0 km/h
77 03-03-2005 01:27:16 -1.8 C 2.31 g/m*3 -1.8 C 0 km/h
78 03-03-2005 01:47:16 -2 C 2.23 g/m*3 -2 C 0 km/h
79 03-03-2005 02:07:16 -2.5 C 2.24 g/m*3 -2.5 C 0 km/h
80 03-03-2005 02:27:16 -2.5 C 2.24 g/m*3 -2.5 C 0 km/h
81 03-03-2005 02:47:16 -2.7 C 2.25 g/m*3 -2.7 C 0 km/h
82 03-03-2005 03:07:16 -2.7 C 2.21 g/m*3 -2.7 C 0 km/h
83 03-03-2005 03:27:16 -2.8 C 2.19 g/m*3 -2.8 C 0 km/h
84 03-03-2005 03:47:16 -3.2 C 2.13 g/m*3 -3.2 C 0 km/h
85 03-03-2005 04:07:16 -3.3 C 2.11 g/m*3 -3.3 C 0 km/h
86 03-03-2005 04:27:16 -3.5 C 2.09 g/m*3 -3.5 C 0 km/h
87 03-03-2005 04:47:16 -3.8 C 2 g/m*3 -3.8 C 0 km/h
88 03-03-2005 05:07:16 -4 C 1.87 g/m*3 -4 C 0 km/h
89 03-03-2005 05:27:16 -4.4 C 1.96 g/m*3 -4.4 C 0 km/h
90 03-03-2005 05:47:16 -4.6 C 1.96 g/m*3 -4.6 C 0 km/h
91 03-03-2005 06:07:16 -4.6 C 1.89 g/m*3 -4.6 C 0 km/h
92 03-03-2005 06:27:16 -4.7 C 1.91 g/m*3 -4.7 C 0 km/h
93 03-03-2005 06:47:16 -4.8 C 1.93 g/m*3 -4.8 C 0 km/h
94 03-03-2005 07:07:17 -4.9 C 1.95 g/m*3 -4.9 C 0 km/h
95 03-03-2005 07:27:17 -5 C 1.94 g/m*3 -5 C 0 km/h
96 03-03-2005 07:47:17 -4.9 C 1.95 g/m*3 -4.9 C 0 km/h
97 03-03-2005 08:07:17 -4.8 C 1.97 g/m*3 -4.8 C 0 km/h
98 03-03-2005 08:27:17 -4 C 2.09 g/m*3 -4 C 0 km/h
99 03-03-2005 08:47:17 -3.1 C 2.07 g/m*3 -3.1 C 0 km/h
100 03-03-2005 09:07:17 -2.6 C 2.06 g/m*3 -2.6 C 0 km/h
Sensor: Nr:Datum:Temp:Abs-Feuchte:Windchill:Wind:
Aussen-T/F 101 03-03-2005 09:27:17 -1.7 C 2.07 g/m*3 -1.7 C 0 km/h
102 03-03-2005 09:47:17 -0.9 C 1.96 g/m*3 -0.9 C 0 km/h
103 03-03-2005 10:07:17 -0.2 C 1.86 g/m*3 -0.2 C 0 km/h
104 03-03-2005 10:27:17 0.2 C 1.92 g/m*3 0.2 C 0 km/h
105 03-03-2005 10:47:17 1 C 1.97 g/m*3 1 C 0 km/h
106 03-03-2005 11:07:17 1.2 C 1.84 g/m*3 1.2 C 0 km/h
107 03-03-2005 11:27:17 1.7 C 1.91 g/m*3 1.7 C 0 km/h
108 03-03-2005 11:47:17 2.1 C 1.68 g/m*3 2.1 C 0 km/h
109 03-03-2005 12:07:17 2.7 C 1.81 g/m*3 2.7 C 0 km/h
110 03-03-2005 12:27:17 3.2 C 1.81 g/m*3 3.2 C 0 km/h
111 03-03-2005 12:47:17 4 C 1.78 g/m*3 4 C 0 km/h
112 03-03-2005 13:07:17 4.3 C 1.69 g/m*3 4.3 C 0 km/h
113 03-03-2005 13:27:17 4.9 C 1.69 g/m*3 4.9 C 0 km/h
114 03-03-2005 13:47:17 5.4 C 1.4 g/m*3 5.4 C 0 km/h
115 03-03-2005 14:07:18 5.6 C 1.41 g/m*3 5.6 C 0 km/h
116 03-03-2005 14:27:18 5.7 C 1.42 g/m*3 5.7 C 0 km/h
117 03-03-2005 14:47:18 6.6 C 1.51 g/m*3 6.6 C 0 km/h
118 03-03-2005 15:07:18 7 C 1.55 g/m*3 7 C 0 km/h
119 03-03-2005 15:27:18 6.3 C 1.48 g/m*3 6.3 C 0 km/h
120 03-03-2005 15:47:18 6 C 1.45 g/m*3 6 C 0 km/h
121 03-03-2005 16:07:18 5.7 C 1.49 g/m*3 5.7 C 0 km/h
122 03-03-2005 16:27:18 6.1 C 1.53 g/m*3 6.1 C 0 km/h
123 03-03-2005 16:47:18 5.7 C 1.64 g/m*3 5.7 C 0 km/h
124 03-03-2005 17:07:18 4.4 C 1.5 g/m*3 4.4 C 0 km/h
125 03-03-2005 17:27:18 3.8 C 1.69 g/m*3 3.8 C 0 km/h
Sensor: Nr:Datum:Temp:Abs-Feuchte:Windchill:Wind:
Aussen-T/F 126 03-03-2005 17:47:18 3.3 C 2.18 g/m*3 3.3 C 0 km/h
127 03-03-2005 18:07:18 2.4 C 2.4 g/m*3 2.4 C 0 km/h
128 03-03-2005 18:27:18 1.5 C 2.47 g/m*3 1.5 C 0 km/h
129 03-03-2005 18:47:18 0.9 C 2.47 g/m*3 0.9 C 0 km/h
130 03-03-2005 19:07:18 0.7 C 2.44 g/m*3 0.7 C 0 km/h
131 03-03-2005 19:27:18 0.5 C 2.56 g/m*3 0.5 C 0 km/h
132 03-03-2005 19:47:18 0.3 C 2.57 g/m*3 0.3 C 0 km/h
133 03-03-2005 20:07:18 0 C 2.47 g/m*3 0 C 0 km/h
134 03-03-2005 20:27:18 -0.5 C 2.53 g/m*3 -0.5 C 0 km/h
135 03-03-2005 20:47:19 -0.8 C 2.52 g/m*3 -0.8 C 0 km/h
136 03-03-2005 21:07:19 -1 C 2.49 g/m*3 -1 C 0 km/h
137 03-03-2005 21:27:19 -1.2 C 2.5 g/m*3 -1.2 C 0 km/h
138 03-03-2005 21:47:19 -1.4 C 2.55 g/m*3 -1.4 C 0 km/h
139 03-03-2005 22:07:19 -1.6 C 2.6 g/m*3 -1.6 C 0 km/h
140 03-03-2005 22:27:19 -1.8 C 2.61 g/m*3 -1.8 C 0 km/h
141 03-03-2005 22:47:19 -1.9 C 2.72 g/m*3 -1.9 C 0 km/h
142 03-03-2005 23:07:19 -2 C 2.74 g/m*3 -2 C 0 km/h
143 03-03-2005 23:27:19 -2.2 C 2.78 g/m*3 -2.2 C 0 km/h
144 03-03-2005 23:47:19 -2.4 C 2.75 g/m*3 -2.4 C 0 km/h
145 04-03-2005 00:07:19 -2.5 C 2.77 g/m*3 -2.5 C 0 km/h
146 04-03-2005 00:27:19 -2.1 C 2.89 g/m*3 -2.1 C 0 km/h
147 04-03-2005 00:47:19 -2 C 2.87 g/m*3 -2 C 0 km/h
148 04-03-2005 01:07:19 -2.4 C 2.79 g/m*3 -2.4 C 0 km/h
149 04-03-2005 01:27:19 -2.6 C 2.79 g/m*3 -2.6 C 0 km/h
150 04-03-2005 01:47:19 -2.7 C 2.77 g/m*3 -2.7 C 0 km/h
Sensor: Nr:Datum:Temp:Abs-Feuchte:Windchill:Wind:
Aussen-T/F 151 04-03-2005 02:07:19 -2.4 C 2.83 g/m*3 -2.4 C 0 km/h
152 04-03-2005 02:27:19 -2.6 C 2.75 g/m*3 -2.6 C 0 km/h
153 04-03-2005 02:47:19 -2.7 C 2.81 g/m*3 -2.7 C 0 km/h
154 04-03-2005 03:07:19 -2.8 C 2.79 g/m*3 -2.8 C 0 km/h
155 04-03-2005 03:27:20 -2.5 C 2.85 g/m*3 -2.5 C 0 km/h
156 04-03-2005 03:47:20 -2.2 C 2.91 g/m*3 -2.2 C 0 km/h
157 04-03-2005 04:07:20 -2.5 C 2.81 g/m*3 -2.5 C 0 km/h
158 04-03-2005 04:27:20 -2.3 C 2.85 g/m*3 -2.3 C 0 km/h
159 04-03-2005 04:47:20 -2.3 C 2.85 g/m*3 -2.3 C 0 km/h
160 04-03-2005 05:07:20 -2.3 C 2.85 g/m*3 -2.3 C 0 km/h
161 04-03-2005 05:27:20 -2.1 C 2.89 g/m*3 -2.1 C 0 km/h
162 04-03-2005 05:47:20 -2 C 2.91 g/m*3 -2 C 0 km/h
163 04-03-2005 06:07:20 -2 C 2.91 g/m*3 -2 C 0 km/h
164 04-03-2005 06:27:20 -1.9 C 2.93 g/m*3 -1.9 C 0 km/h
165 04-03-2005 06:47:20 -1.9 C 2.97 g/m*3 -1.9 C 0 km/h
166 04-03-2005 07:07:20 -1.9 C 2.97 g/m*3 -1.9 C 0 km/h
167 04-03-2005 07:27:20 -1.9 C 2.93 g/m*3 -1.9 C 0 km/h
168 04-03-2005 07:47:20 -1.8 C 2.95 g/m*3 -1.8 C 0 km/h
169 04-03-2005 08:07:20 -1.6 C 2.99 g/m*3 -1.6 C 0 km/h
170 04-03-2005 08:27:20 -1.4 C 3.03 g/m*3 -1.4 C 0 km/h
171 04-03-2005 08:47:20 -1.1 C 3.1 g/m*3 -1.1 C 0 km/h
172 04-03-2005 09:07:20 -0.7 C 3.18 g/m*3 -0.7 C 0 km/h
173 04-03-2005 09:27:20 -0.6 C 3.16 g/m*3 -0.6 C 0 km/h
174 04-03-2005 09:47:20 -0.4 C 3.2 g/m*3 -0.4 C 0 km/h
175 04-03-2005 10:07:20 0.2 C 3.19 g/m*3 0.2 C 0 km/h
Sensor: Nr:Datum:Temp:Abs-Feuchte:Windchill:Wind:
Aussen-T/F 176 04-03-2005 10:17:02 0.7 C 3.36 g/m*3 0.7 C 0 km/h
177 04-03-2005 10:27:02 0.7 C 3.15 g/m*3 0.7 C 0 km/h
178 04-03-2005 10:37:04 1 C 3.17 g/m*3 1 C 0 km/h
179 04-03-2005 10:47:03 0.6 C 3.13 g/m*3 0.6 C 0 km/h
180 04-03-2005 10:57:03 0.8 C 3.23 g/m*3 0.8 C 0 km/h
181 04-03-2005 11:07:03 1.2 C 3.16 g/m*3 1.2 C 0 km/h
182 04-03-2005 11:17:03 1.6 C 3.08 g/m*3 1.6 C 0 km/h
183 04-03-2005 11:27:03 1.6 C 2.97 g/m*3 1.6 C 0 km/h
184 04-03-2005 11:37:03 1.6 C 2.87 g/m*3 1.6 C 0 km/h
185 04-03-2005 11:47:02 1.6 C 2.81 g/m*3 1.6 C 0 km/h
186 04-03-2005 11:57:02 1.4 C 2.72 g/m*3 1.4 C 0 km/h
187 04-03-2005 12:07:03 1 C 2.75 g/m*3 1 C 0 km/h
188 04-03-2005 12:17:02 1.3 C 2.75 g/m*3 1.3 C 0 km/h
189 04-03-2005 12:27:02 1.7 C 2.67 g/m*3 1.7 C 0 km/h
190 04-03-2005 12:37:09 1.7 C 2.61 g/m*3 1.7 C 0 km/h
191 04-03-2005 12:47:16 1.7 C 2.5 g/m*3 1.7 C 0 km/h
192 04-03-2005 12:57:16 1.8 C 2.52 g/m*3 1.8 C 0 km/h
193 04-03-2005 13:07:06 2.3 C 2.55 g/m*3 2.3 C 0 km/h
194 04-03-2005 13:17:06 2.1 C 2.41 g/m*3 2.1 C 0 km/h
195 04-03-2005 13:27:06 2.2 C 2.31 g/m*3 2.2 C 0 km/h
196 04-03-2005 13:37:14 2.4 C 2.4 g/m*3 2.4 C 0 km/h
197 04-03-2005 13:47:10 2.5 C 2.41 g/m*3 2.5 C 0 km/h
198 04-03-2005 13:57:10 2.4 C 2.34 g/m*3 2.4 C 0 km/h
199 04-03-2005 14:07:11 2.2 C 2.2 g/m*3 2.2 C 0 km/h
200 04-03-2005 14:17:13 2.4 C 2.28 g/m*3 2.4 C 0 km/h
Sensor: Nr:Datum:Temp:Abs-Feuchte:Windchill:Wind:
Aussen-T/F 201 04-03-2005 14:27:13 2.2 C 2.25 g/m*3 2.2 C 0 km/h
202 04-03-2005 14:37:13 2.4 C 2.23 g/m*3 2.4 C 0 km/h
203 04-03-2005 14:47:02 2.1 C 2.24 g/m*3 2.1 C 0 km/h
204 04-03-2005 14:57:02 1.9 C 2.32 g/m*3 1.9 C 0 km/h
205 04-03-2005 15:07:03 1.9 C 2.37 g/m*3 1.9 C 0 km/h
206 04-03-2005 15:17:03 1.7 C 2.34 g/m*3 1.7 C 0 km/h
207 04-03-2005 15:27:03 1.9 C 2.48 g/m*3 1.9 C 0 km/h
208 04-03-2005 15:37:03 1.9 C 2.43 g/m*3 1.9 C 0 km/h
209 04-03-2005 15:47:02 2 C 2.39 g/m*3 2 C 0 km/h
210 04-03-2005 15:57:02 2 C 2.39 g/m*3 2 C 0 km/h
211 04-03-2005 16:07:02 1.9 C 2.43 g/m*3 1.9 C 0 km/h
212 04-03-2005 16:17:03 1.7 C 2.4 g/m*3 1.7 C 0 km/h
213 04-03-2005 16:27:03 1.7 C 2.45 g/m*3 1.7 C 0 km/h
214 04-03-2005 16:37:02 1.5 C 2.42 g/m*3 1.5 C 0 km/h
215 04-03-2005 16:47:02 1.6 C 2.43 g/m*3 1.6 C 0 km/h
216 04-03-2005 16:57:02 1.5 C 2.42 g/m*3 1.5 C 0 km/h
217 04-03-2005 17:07:03 1.4 C 2.45 g/m*3 1.4 C 0 km/h
218 04-03-2005 17:17:03 1.3 C 2.38 g/m*3 1.3 C 0 km/h
219 04-03-2005 17:27:03 1.3 C 2.38 g/m*3 1.3 C 0 km/h
220 04-03-2005 17:37:02 1.1 C 2.4 g/m*3 1.1 C 0 km/h
221 04-03-2005 17:47:01 0.9 C 2.53 g/m*3 0.9 C 0 km/h
222 04-03-2005 17:57:01 0.8 C 2.46 g/m*3 0.8 C 0 km/h
223 04-03-2005 18:07:02 0.6 C 2.47 g/m*3 0.6 C 0 km/h
224 04-03-2005 18:17:02 0.5 C 2.56 g/m*3 0.5 C 0 km/h
225 04-03-2005 18:27:02 0.3 C 2.47 g/m*3 0.3 C 0 km/h
Sensor: Nr:Datum:Temp:Abs-Feuchte:Windchill:Wind:
Aussen-T/F 226 04-03-2005 18:37:01 0 C 2.52 g/m*3 0 C 0 km/h
227 04-03-2005 18:47:01 -0.4 C 2.45 g/m*3 -0.4 C 0 km/h
228 04-03-2005 18:57:01 -0.7 C 2.49 g/m*3 -0.7 C 0 km/h
229 04-03-2005 19:07:01 -1 C 2.49 g/m*3 -1 C 0 km/h
230 04-03-2005 19:17:02 -1.1 C 2.47 g/m*3 -1.1 C 0 km/h
231 04-03-2005 19:27:02 -1.2 C 2.45 g/m*3 -1.2 C 0 km/h
232 04-03-2005 19:37:02 -1.4 C 2.46 g/m*3 -1.4 C 0 km/h
233 04-03-2005 19:47:01 -1.6 C 2.47 g/m*3 -1.6 C 0 km/h
234 04-03-2005 19:57:01 -1.7 C 2.45 g/m*3 -1.7 C 0 km/h
235 04-03-2005 20:07:02 -1.9 C 2.42 g/m*3 -1.9 C 0 km/h
236 04-03-2005 20:17:02 -1.9 C 2.42 g/m*3 -1.9 C 0 km/h
237 04-03-2005 20:27:02 -1.7 C 2.37 g/m*3 -1.7 C 0 km/h
238 04-03-2005 20:37:02 -1.8 C 2.39 g/m*3 -1.8 C 0 km/h
239 04-03-2005 20:47:01 -1.8 C 2.44 g/m*3 -1.8 C 0 km/h
240 04-03-2005 20:57:01 -1.6 C 2.43 g/m*3 -1.6 C 0 km/h
241 04-03-2005 21:07:01 -1.6 C 2.38 g/m*3 -1.6 C 0 km/h
242 04-03-2005 21:17:01 -1.7 C 2.41 g/m*3 -1.7 C 0 km/h
243 04-03-2005 21:27:01 -1.6 C 2.38 g/m*3 -1.6 C 0 km/h
244 04-03-2005 21:37:02 -1.5 C 2.4 g/m*3 -1.5 C 0 km/h
245 04-03-2005 21:47:02 -1.6 C 2.38 g/m*3 -1.6 C 0 km/h
246 04-03-2005 21:57:02 -1.7 C 2.37 g/m*3 -1.7 C 0 km/h
247 04-03-2005 22:07:02 -1.6 C 2.34 g/m*3 -1.6 C 0 km/h
248 04-03-2005 22:17:02 -1.5 C 2.31 g/m*3 -1.5 C 0 km/h
249 04-03-2005 22:27:02 -1.4 C 2.29 g/m*3 -1.4 C 0 km/h
250 04-03-2005 22:37:02 -1.4 C 2.29 g/m*3 -1.4 C 0 km/h
Sensor: Nr:Datum:Temp:Abs-Feuchte:Windchill:Wind:
Aussen-T/F 251 04-03-2005 22:47:01 -1.4 C 2.33 g/m*3 -1.4 C 0 km/h
252 04-03-2005 22:57:01 -1.6 C 2.3 g/m*3 -1.6 C 0 km/h
253 04-03-2005 23:07:02 -1.8 C 2.35 g/m*3 -1.8 C 0 km/h
254 04-03-2005 23:17:01 -1.8 C 2.35 g/m*3 -1.8 C 0 km/h
255 04-03-2005 23:27:01 -1.9 C 2.38 g/m*3 -1.9 C 0 km/h
256 04-03-2005 23:37:02 -2.1 C 2.34 g/m*3 -2.1 C 0 km/h
257 04-03-2005 23:47:02 -2.2 C 2.37 g/m*3 -2.2 C 0 km/h
258 04-03-2005 23:57:02 -2.3 C 2.35 g/m*3 -2.3 C 0 km/h
259 05-03-2005 00:07:03 -2.4 C 2.38 g/m*3 -2.4 C 0 km/h
260 05-03-2005 00:17:03 -2.3 C 2.44 g/m*3 -2.3 C 0 km/h
261 05-03-2005 00:27:03 -2.1 C 2.47 g/m*3 -2.1 C 0 km/h
262 05-03-2005 00:37:03 -1.9 C 2.5 g/m*3 -1.9 C 0 km/h
263 05-03-2005 00:47:02 -1.8 C 2.52 g/m*3 -1.8 C 0 km/h
264 05-03-2005 00:57:02 -1.8 C 2.56 g/m*3 -1.8 C 0 km/h
265 05-03-2005 01:07:01 -1.9 C 2.5 g/m*3 -1.9 C 0 km/h
266 05-03-2005 01:17:02 -1.9 C 2.55 g/m*3 -1.9 C 0 km/h
267 05-03-2005 01:27:02 -1.9 C 2.59 g/m*3 -1.9 C 0 km/h
268 05-03-2005 01:37:02 -1.8 C 2.61 g/m*3 -1.8 C 0 km/h
269 05-03-2005 01:47:02 -1.7 C 2.67 g/m*3 -1.7 C 0 km/h
270 05-03-2005 01:57:02 -1.7 C 2.67 g/m*3 -1.7 C 0 km/h
271 05-03-2005 02:07:02 -1.7 C 2.71 g/m*3 -1.7 C 0 km/h
272 05-03-2005 02:17:02 -1.6 C 2.73 g/m*3 -1.6 C 0 km/h
273 05-03-2005 02:27:02 -1.6 C 2.73 g/m*3 -1.6 C 0 km/h
274 05-03-2005 02:37:01 -1.6 C 2.77 g/m*3 -1.6 C 0 km/h
275 05-03-2005 02:48:03 -1.6 C 2.77 g/m*3 -1.6 C 0 km/h
Sensor: Nr:Datum:Temp:Abs-Feuchte:Windchill:Wind:
Aussen-T/F 276 05-03-2005 02:58:03 -1.7 C 2.76 g/m*3 -1.7 C 0 km/h
277 05-03-2005 03:08:04 -1.7 C 2.76 g/m*3 -1.7 C 0 km/h
278 05-03-2005 03:18:03 -1.7 C 2.76 g/m*3 -1.7 C 0 km/h
279 05-03-2005 03:28:03 -1.7 C 2.76 g/m*3 -1.7 C 0 km/h
280 05-03-2005 03:38:03 -1.7 C 2.8 g/m*3 -1.7 C 0 km/h
281 05-03-2005 03:48:03 -1.8 C 2.78 g/m*3 -1.8 C 0 km/h
282 05-03-2005 03:58:03 -1.8 C 2.78 g/m*3 -1.8 C 0 km/h
283 05-03-2005 04:08:03 -1.8 C 2.86 g/m*3 -1.8 C 0 km/h
284 05-03-2005 04:18:03 -1.8 C 2.86 g/m*3 -1.8 C 0 km/h
285 05-03-2005 04:28:03 -1.8 C 2.91 g/m*3 -1.8 C 0 km/h
286 05-03-2005 04:38:02 -1.8 C 2.91 g/m*3 -1.8 C 0 km/h
287 05-03-2005 04:48:02 -1.9 C 2.89 g/m*3 -1.9 C 0 km/h
288 05-03-2005 04:58:02 -1.9 C 2.93 g/m*3 -1.9 C 0 km/h
289 05-03-2005 05:08:03 -1.9 C 2.97 g/m*3 -1.9 C 0 km/h
290 05-03-2005 05:18:02 -1.9 C 3.01 g/m*3 -1.9 C 0 km/h
291 05-03-2005 05:28:02 -2 C 3.03 g/m*3 -2 C 0 km/h
292 05-03-2005 05:38:02 -2.1 C 3.01 g/m*3 -2.1 C 0 km/h
293 05-03-2005 05:48:02 -2 C 3.03 g/m*3 -2 C 0 km/h
294 05-03-2005 05:58:02 -2 C 3.08 g/m*3 -2 C 0 km/h
295 05-03-2005 06:08:02 -2.2 C 3.03 g/m*3 -2.2 C 0 km/h
296 05-03-2005 06:18:03 -2.3 C 3.05 g/m*3 -2.3 C 0 km/h
297 05-03-2005 06:28:03 -2.5 C 3.01 g/m*3 -2.5 C 0 km/h
298 05-03-2005 06:38:02 -2.5 C 3.01 g/m*3 -2.5 C 0 km/h
299 05-03-2005 06:48:02 -2.6 C 2.99 g/m*3 -2.6 C 0 km/h
300 05-03-2005 06:58:02 -2.7 C 2.97 g/m*3 -2.7 C 0 km/h
Sensor: Nr:Datum:Temp:Abs-Feuchte:Windchill:Wind:
Aussen-T/F 301 05-03-2005 07:08:02 -2.8 C 2.95 g/m*3 -2.8 C 0 km/h
302 05-03-2005 07:18:03 -2.8 C 2.99 g/m*3 -2.8 C 0 km/h
303 05-03-2005 07:28:03 -2.6 C 3.03 g/m*3 -2.6 C 0 km/h
304 05-03-2005 07:38:02 -2.4 C 3.07 g/m*3 -2.4 C 0 km/h
305 05-03-2005 07:48:02 -2 C 3.16 g/m*3 -2 C 0 km/h
306 05-03-2005 07:58:02 -1.8 C 3.21 g/m*3 -1.8 C 0 km/h
307 05-03-2005 08:08:01 -1.7 C 3.19 g/m*3 -1.7 C 0 km/h
308 05-03-2005 08:18:02 -1.5 C 3.23 g/m*3 -1.5 C 0 km/h
309 05-03-2005 08:28:02 -1.4 C 3.21 g/m*3 -1.4 C 0 km/h
310 05-03-2005 08:38:01 -1.2 C 3.21 g/m*3 -1.2 C 0 km/h
311 05-03-2005 08:48:02 -1.2 C 3.21 g/m*3 -1.2 C 0 km/h
312 05-03-2005 08:58:02 -1 C 3.25 g/m*3 -1 C 0 km/h
313 05-03-2005 09:08:02 -0.8 C 3.25 g/m*3 -0.8 C 0 km/h
314 05-03-2005 09:18:03 -0.5 C 3.32 g/m*3 -0.5 C 0 km/h
315 05-03-2005 09:28:04 -0.4 C 3.3 g/m*3 -0.4 C 0 km/h
316 05-03-2005 09:38:02 -0.2 C 3.3 g/m*3 -0.2 C 0 km/h
317 05-03-2005 09:48:03 0.2 C 3.34 g/m*3 0.2 C 0 km/h
318 05-03-2005 09:58:03 0.3 C 3.31 g/m*3 0.3 C 0 km/h
319 05-03-2005 10:08:03 0.8 C 3.43 g/m*3 0.8 C 0 km/h
320 05-03-2005 10:18:02 0.8 C 3.33 g/m*3 0.8 C 0 km/h
321 05-03-2005 10:28:02 1.1 C 3.34 g/m*3 1.1 C 0 km/h
322 05-03-2005 10:38:04 1.6 C 3.41 g/m*3 1.6 C 0 km/h
323 05-03-2005 10:48:03 1.7 C 3.27 g/m*3 1.7 C 0 km/h
324 05-03-2005 10:58:03 1.9 C 3.31 g/m*3 1.9 C 0 km/h
325 05-03-2005 11:08:02 2 C 3.28 g/m*3 2 C 0 km/h
Sensor: Nr:Datum:Temp:Abs-Feuchte:Windchill:Wind:
Aussen-T/F 326 05-03-2005 11:18:02 2.1 C 3.24 g/m*3 2.1 C 0 km/h
327 05-03-2005 11:28:03 2.4 C 3.25 g/m*3 2.4 C 0 km/h
328 05-03-2005 11:38:03 2.7 C 3.26 g/m*3 2.7 C 0 km/h
329 05-03-2005 11:48:03 3.1 C 3.35 g/m*3 3.1 C 0 km/h
330 05-03-2005 11:58:03 3.2 C 3.31 g/m*3 3.2 C 0 km/h
331 05-03-2005 12:08:05 3.4 C 3.24 g/m*3 3.4 C 0 km/h
332 05-03-2005 12:18:04 3.4 C 3.05 g/m*3 3.4 C 0 km/h
333 05-03-2005 12:28:04 3.6 C 3.03 g/m*3 3.6 C 0 km/h
334 05-03-2005 12:38:05 3.3 C 3.03 g/m*3 3.3 C 0 km/h
335 05-03-2005 12:48:03 3 C 2.91 g/m*3 3 C 0 km/h
336 05-03-2005 12:58:03 3 C 2.97 g/m*3 3 C 0 km/h
337 05-03-2005 13:08:04 3 C 3.03 g/m*3 3 C 0 km/h
338 05-03-2005 13:18:07 3 C 2.97 g/m*3 3 C 0 km/h
339 05-03-2005 13:28:07 2.8 C 2.99 g/m*3 2.8 C 0 km/h
340 05-03-2005 13:38:09 3.1 C 2.99 g/m*3 3.1 C 0 km/h
341 05-03-2005 13:48:02 3.2 C 3.01 g/m*3 3.2 C 0 km/h
342 05-03-2005 13:58:02 3.2 C 3.07 g/m*3 3.2 C 0 km/h
343 05-03-2005 14:08:02 2.9 C 3.07 g/m*3 2.9 C 0 km/h
344 05-03-2005 14:18:02 2.5 C 3.22 g/m*3 2.5 C 0 km/h
345 05-03-2005 14:28:02 2.4 C 3.43 g/m*3 2.4 C 0 km/h
346 05-03-2005 14:38:02 2.5 C 3.33 g/m*3 2.5 C 0 km/h
347 05-03-2005 14:48:01 2.5 C 3.28 g/m*3 2.5 C 0 km/h
348 05-03-2005 14:58:01 2.4 C 3.25 g/m*3 2.4 C 0 km/h
349 05-03-2005 15:08:01 2.6 C 3.3 g/m*3 2.6 C 0 km/h
350 05-03-2005 15:18:01 2.6 C 3.36 g/m*3 2.6 C 0 km/h
Sensor: Nr:Datum:Temp:Abs-Feuchte:Windchill:Wind:
Aussen-T/F 351 05-03-2005 15:28:01 2.4 C 3.37 g/m*3 2.4 C 0 km/h
352 05-03-2005 15:38:01 2.1 C 3.47 g/m*3 2.1 C 0 km/h
353 05-03-2005 15:48:02 1.8 C 3.62 g/m*3 1.8 C 0 km/h
354 05-03-2005 15:58:02 1.6 C 3.68 g/m*3 1.6 C 0 km/h
355 05-03-2005 16:08:03 1.4 C 3.68 g/m*3 1.4 C 0 km/h
356 05-03-2005 16:18:03 1.3 C 3.55 g/m*3 1.3 C 0 km/h
357 05-03-2005 16:28:03 1.4 C 3.57 g/m*3 1.4 C 0 km/h
358 05-03-2005 16:38:02 1.5 C 3.54 g/m*3 1.5 C 0 km/h
359 05-03-2005 16:48:02 1.5 C 3.44 g/m*3 1.5 C 0 km/h
360 05-03-2005 16:58:02 1.6 C 3.46 g/m*3 1.6 C 0 km/h
361 05-03-2005 17:08:02 1.6 C 3.46 g/m*3 1.6 C 0 km/h
362 05-03-2005 17:18:02 1.6 C 3.46 g/m*3 1.6 C 0 km/h
363 05-03-2005 17:28:02 1.5 C 3.49 g/m*3 1.5 C 0 km/h
364 05-03-2005 17:38:04 1.4 C 3.52 g/m*3 1.4 C 0 km/h
365 05-03-2005 17:48:02 1.3 C 3.55 g/m*3 1.3 C 0 km/h
366 05-03-2005 17:58:02 1.1 C 3.61 g/m*3 1.1 C 0 km/h
367 05-03-2005 18:08:04 1 C 3.63 g/m*3 1 C 0 km/h
368 05-03-2005 18:18:03 0.7 C 3.71 g/m*3 0.7 C 0 km/h
369 05-03-2005 18:28:03 0.5 C 3.66 g/m*3 0.5 C 0 km/h
370 05-03-2005 18:38:03 0.5 C 3.71 g/m*3 0.5 C 0 km/h
371 05-03-2005 18:48:01 0.4 C 3.64 g/m*3 0.4 C 0 km/h
372 05-03-2005 18:58:01 0.3 C 3.61 g/m*3 0.3 C 0 km/h
373 05-03-2005 19:08:02 0.3 C 3.61 g/m*3 0.3 C 0 km/h
374 05-03-2005 19:18:01 0.3 C 3.56 g/m*3 0.3 C 0 km/h
375 05-03-2005 19:28:01 0.3 C 3.56 g/m*3 0.3 C 0 km/h
Sensor: Nr:Datum:Temp:Abs-Feuchte:Windchill:Wind:
Aussen-T/F 376 05-03-2005 19:38:02 0.2 C 3.54 g/m*3 0.2 C 0 km/h
377 05-03-2005 19:48:02 0.1 C 3.56 g/m*3 0.1 C 0 km/h
378 05-03-2005 19:58:02 0.1 C 3.56 g/m*3 0.1 C 0 km/h
379 05-03-2005 20:08:02 0 C 3.59 g/m*3 0 C 0 km/h
380 05-03-2005 20:18:02 -0.1 C 3.61 g/m*3 -0.1 C 0 km/h
381 05-03-2005 20:28:02 -0.1 C 3.61 g/m*3 -0.1 C 0 km/h
382 05-03-2005 20:38:02 -0.1 C 3.61 g/m*3 -0.1 C 0 km/h
383 05-03-2005 20:48:01 -0.2 C 3.58 g/m*3 -0.2 C 0 km/h
384 05-03-2005 20:58:01 -0.2 C 3.58 g/m*3 -0.2 C 0 km/h
385 05-03-2005 21:08:02 -0.2 C 3.58 g/m*3 -0.2 C 0 km/h
386 05-03-2005 21:18:02 -0.3 C 3.51 g/m*3 -0.3 C 0 km/h
387 05-03-2005 21:28:02 -0.4 C 3.49 g/m*3 -0.4 C 0 km/h
388 05-03-2005 21:38:02 -0.4 C 3.44 g/m*3 -0.4 C 0 km/h
389 05-03-2005 21:48:02 -0.5 C 3.42 g/m*3 -0.5 C 0 km/h
390 05-03-2005 21:58:02 -0.6 C 3.35 g/m*3 -0.6 C 0 km/h
391 05-03-2005 22:08:02 -0.8 C 3.35 g/m*3 -0.8 C 0 km/h
392 05-03-2005 22:18:02 -0.8 C 3.35 g/m*3 -0.8 C 0 km/h
393 05-03-2005 22:28:02 -0.9 C 3.32 g/m*3 -0.9 C 0 km/h
394 05-03-2005 22:38:03 -0.7 C 3.37 g/m*3 -0.7 C 0 km/h
395 05-03-2005 22:48:02 -0.7 C 3.32 g/m*3 -0.7 C 0 km/h
396 05-03-2005 22:58:02 -0.8 C 3.3 g/m*3 -0.8 C 0 km/h
397 05-03-2005 23:08:02 -1 C 3.25 g/m*3 -1 C 0 km/h
398 05-03-2005 23:18:02 -1.2 C 3.17 g/m*3 -1.2 C 0 km/h
399 05-03-2005 23:28:02 -1.5 C 3.01 g/m*3 -1.5 C 0 km/h
400 05-03-2005 23:38:02 -1.7 C 2.97 g/m*3 -1.7 C 0 km/h
Sensor: Nr:Datum:Temp:Abs-Feuchte:Windchill:Wind:
Aussen-T/F 401 05-03-2005 23:48:02 -1.8 C 2.91 g/m*3 -1.8 C 0 km/h
402 05-03-2005 23:58:02 -1.8 C 2.95 g/m*3 -1.8 C 0 km/h
403 06-03-2005 00:08:01 -1.7 C 2.93 g/m*3 -1.7 C 0 km/h
404 06-03-2005 00:18:02 -1.8 C 2.82 g/m*3 -1.8 C 0 km/h
405 06-03-2005 00:28:02 -1.7 C 2.76 g/m*3 -1.7 C 0 km/h
406 06-03-2005 00:38:03 -1.6 C 2.73 g/m*3 -1.6 C 0 km/h
407 06-03-2005 00:48:02 -1.7 C 2.63 g/m*3 -1.7 C 0 km/h
408 06-03-2005 00:58:02 -1.6 C 2.6 g/m*3 -1.6 C 0 km/h
409 06-03-2005 01:08:02 -1.7 C 2.58 g/m*3 -1.7 C 0 km/h
410 06-03-2005 01:18:02 -1.6 C 2.51 g/m*3 -1.6 C 0 km/h
411 06-03-2005 01:28:02 -1.7 C 2.5 g/m*3 -1.7 C 0 km/h
412 06-03-2005 01:38:02 -1.7 C 2.5 g/m*3 -1.7 C 0 km/h
413 06-03-2005 01:48:02 -1.8 C 2.48 g/m*3 -1.8 C 0 km/h
414 06-03-2005 01:58:02 -2 C 2.4 g/m*3 -2 C 0 km/h
415 06-03-2005 02:08:02 -2.3 C 2.39 g/m*3 -2.3 C 0 km/h
416 06-03-2005 02:18:03 -2.5 C 2.4 g/m*3 -2.5 C 0 km/h
417 06-03-2005 02:28:03 -2.4 C 2.38 g/m*3 -2.4 C 0 km/h
418 06-03-2005 02:38:02 -2.5 C 2.4 g/m*3 -2.5 C 0 km/h
419 06-03-2005 02:49:03 -2.4 C 2.46 g/m*3 -2.4 C 0 km/h
420 06-03-2005 02:59:03 -2.3 C 2.48 g/m*3 -2.3 C 0 km/h
421 06-03-2005 03:09:03 -2.2 C 2.41 g/m*3 -2.2 C 0 km/h
422 06-03-2005 03:19:04 -2.2 C 2.41 g/m*3 -2.2 C 0 km/h
423 06-03-2005 03:29:04 -2.2 C 2.37 g/m*3 -2.2 C 0 km/h
424 06-03-2005 03:39:02 -2.4 C 2.34 g/m*3 -2.4 C 0 km/h
425 06-03-2005 03:49:02 -2.5 C 2.4 g/m*3 -2.5 C 0 km/h
Sensor: Nr:Datum:Temp:Abs-Feuchte:Windchill:Wind:
Aussen-T/F 426 06-03-2005 03:59:02 -2.6 C 2.38 g/m*3 -2.6 C 0 km/h
427 06-03-2005 04:09:02 -2.9 C 2.33 g/m*3 -2.9 C 0 km/h
428 06-03-2005 04:19:02 -3.2 C 2.32 g/m*3 -3.2 C 0 km/h
429 06-03-2005 04:29:02 -3.2 C 2.32 g/m*3 -3.2 C 0 km/h
430 06-03-2005 04:39:02 -3.1 C 2.34 g/m*3 -3.1 C 0 km/h
431 06-03-2005 04:49:02 -3.4 C 2.29 g/m*3 -3.4 C 0 km/h
432 06-03-2005 04:59:02 -3.7 C 2.28 g/m*3 -3.7 C 0 km/h
433 06-03-2005 05:09:02 -3.8 C 2.3 g/m*3 -3.8 C 0 km/h
434 06-03-2005 05:19:02 -4.1 C 2.29 g/m*3 -4.1 C 0 km/h
435 06-03-2005 05:29:02 -4.2 C 2.27 g/m*3 -4.2 C 0 km/h
436 06-03-2005 05:39:02 -4.4 C 2.24 g/m*3 -4.4 C 0 km/h
437 06-03-2005 05:49:02 -4.6 C 2.21 g/m*3 -4.6 C 0 km/h
438 06-03-2005 05:59:02 -4.8 C 2.25 g/m*3 -4.8 C 0 km/h
439 06-03-2005 06:09:02 -5 C 2.25 g/m*3 -5 C 0 km/h
440 06-03-2005 06:19:02 -5.1 C 2.26 g/m*3 -5.1 C 0 km/h
441 06-03-2005 06:29:02 -5.2 C 2.25 g/m*3 -5.2 C 0 km/h
442 06-03-2005 06:39:01 -5.3 C 2.23 g/m*3 -5.3 C 0 km/h
443 06-03-2005 06:49:01 -5.4 C 2.22 g/m*3 -5.4 C 0 km/h
444 06-03-2005 06:59:01 -5.6 C 2.22 g/m*3 -5.6 C 0 km/h
445 06-03-2005 07:09:02 -5.7 C 2.2 g/m*3 -5.7 C 0 km/h
446 06-03-2005 07:19:02 -5.6 C 2.22 g/m*3 -5.6 C 0 km/h
447 06-03-2005 07:29:02 -5.7 C 2.2 g/m*3 -5.7 C 0 km/h
448 06-03-2005 07:39:01 -5.6 C 2.22 g/m*3 -5.6 C 0 km/h
449 06-03-2005 07:49:01 -5.3 C 2.23 g/m*3 -5.3 C 0 km/h
450 06-03-2005 07:59:01 -5.3 C 2.2 g/m*3 -5.3 C 0 km/h
Sensor: Nr:Datum:Temp:Abs-Feuchte:Windchill:Wind:
Aussen-T/F 451 06-03-2005 08:09:02 -5 C 2.25 g/m*3 -5 C 0 km/h
452 06-03-2005 08:19:02 -4.6 C 2.24 g/m*3 -4.6 C 0 km/h
453 06-03-2005 08:29:02 -4.6 C 2.17 g/m*3 -4.6 C 0 km/h
454 06-03-2005 08:39:01 -4.2 C 2.24 g/m*3 -4.2 C 0 km/h
455 06-03-2005 08:49:01 -4.2 C 2.2 g/m*3 -4.2 C 0 km/h
456 06-03-2005 08:59:01 -4.2 C 2.2 g/m*3 -4.2 C 0 km/h
457 06-03-2005 09:09:02 -4.1 C 2.18 g/m*3 -4.1 C 0 km/h
458 06-03-2005 09:19:02 -3.8 C 2.19 g/m*3 -3.8 C 0 km/h
459 06-03-2005 09:29:02 -3.5 C 2.24 g/m*3 -3.5 C 0 km/h
460 06-03-2005 09:39:06 -3.3 C 2.23 g/m*3 -3.3 C 0 km/h
461 06-03-2005 09:49:03 -3.2 C 2.17 g/m*3 -3.2 C 0 km/h
462 06-03-2005 09:59:03 -3 C 2.2 g/m*3 -3 C 0 km/h
463 06-03-2005 10:09:02 -2.6 C 2.26 g/m*3 -2.6 C 0 km/h
464 06-03-2005 10:19:02 -2.5 C 2.24 g/m*3 -2.5 C 0 km/h
465 06-03-2005 10:29:02 -2 C 2.32 g/m*3 -2 C 0 km/h
466 06-03-2005 10:39:02 -1.9 C 2.29 g/m*3 -1.9 C 0 km/h
467 06-03-2005 10:49:01 -1.9 C 2.25 g/m*3 -1.9 C 0 km/h
468 06-03-2005 10:59:01 -1.6 C 2.25 g/m*3 -1.6 C 0 km/h
469 06-03-2005 11:09:02 -1.3 C 2.3 g/m*3 -1.3 C 0 km/h
470 06-03-2005 11:19:02 -1.3 C 2.17 g/m*3 -1.3 C 0 km/h
471 06-03-2005 11:29:02 -0.9 C 2.28 g/m*3 -0.9 C 0 km/h
472 06-03-2005 11:39:02 -1.1 C 2.11 g/m*3 -1.1 C 0 km/h
473 06-03-2005 11:49:02 -1.1 C 2.07 g/m*3 -1.1 C 0 km/h
474 06-03-2005 11:59:02 -0.8 C 2.11 g/m*3 -0.8 C 0 km/h
475 06-03-2005 12:09:02 -0.5 C 2.01 g/m*3 -0.5 C 0 km/h
Sensor: Nr:Datum:Temp:Abs-Feuchte:Windchill:Wind:
Aussen-T/F 476 06-03-2005 12:19:02 0 C 2.08 g/m*3 0 C 0 km/h
477 06-03-2005 12:29:02 -0.8 C 2.11 g/m*3 -0.8 C 0 km/h
478 06-03-2005 12:39:03 -1.1 C 2.24 g/m*3 -1.1 C 0 km/h
479 06-03-2005 12:49:02 -1.1 C 2.24 g/m*3 -1.1 C 0 km/h
480 06-03-2005 12:59:02 0.6 C 2.27 g/m*3 0.6 C 0 km/h
481 06-03-2005 13:09:02 0.1 C 2.15 g/m*3 0.1 C 0 km/h
482 06-03-2005 13:19:02 0.1 C 2.15 g/m*3 0.1 C 0 km/h
483 06-03-2005 13:29:02 0.2 C 2.21 g/m*3 0.2 C 0 km/h
484 06-03-2005 13:39:01 -0.1 C 2.07 g/m*3 -0.1 C 0 km/h
485 06-03-2005 13:49:01 0.6 C 2.17 g/m*3 0.6 C 0 km/h
486 06-03-2005 13:59:01 0.5 C 2.01 g/m*3 0.5 C 0 km/h
487 06-03-2005 14:09:02 0.4 C 1.99 g/m*3 0.4 C 0 km/h
488 06-03-2005 14:19:02 1.1 C 1.93 g/m*3 1.1 C 0 km/h
489 06-03-2005 14:29:03 1.2 C 1.95 g/m*3 1.2 C 0 km/h
490 06-03-2005 14:39:02 2.1 C 2.01 g/m*3 2.1 C 0 km/h
491 06-03-2005 14:49:01 2.3 C 1.81 g/m*3 2.3 C 0 km/h
492 06-03-2005 14:59:01 1.4 C 1.87 g/m*3 1.4 C 0 km/h
493 06-03-2005 15:09:01 0.5 C 2.01 g/m*3 0.5 C 0 km/h
494 06-03-2005 15:19:01 0.4 C 2.04 g/m*3 0.4 C 0 km/h
495 06-03-2005 15:29:01 -0.2 C 2.34 g/m*3 -0.2 C 0 km/h
496 06-03-2005 15:39:02 0.5 C 2.36 g/m*3 0.5 C 0 km/h
497 06-03-2005 15:49:02 0.5 C 2.31 g/m*3 0.5 C 0 km/h
498 06-03-2005 15:59:02 1 C 2.08 g/m*3 1 C 0 km/h
499 06-03-2005 16:09:02 1.5 C 1.88 g/m*3 1.5 C 0 km/h
500 06-03-2005 16:19:02 2.1 C 1.9 g/m*3 2.1 C 0 km/h
Sensor: Nr:Datum:Temp:Abs-Feuchte:Windchill:Wind:
Aussen-T/F 501 06-03-2005 16:29:02 2.5 C 1.78 g/m*3 2.5 C 0 km/h
502 06-03-2005 16:39:02 2.5 C 1.72 g/m*3 2.5 C 0 km/h
503 06-03-2005 16:49:02 2.2 C 1.75 g/m*3 2.2 C 0 km/h
504 06-03-2005 16:59:02 2.4 C 1.77 g/m*3 2.4 C 0 km/h
505 06-03-2005 17:09:03 1.9 C 1.77 g/m*3 1.9 C 0 km/h
506 06-03-2005 17:19:02 1.7 C 1.85 g/m*3 1.7 C 0 km/h
507 06-03-2005 17:29:02 1.8 C 1.92 g/m*3 1.8 C 0 km/h
508 06-03-2005 17:39:03 1.3 C 1.85 g/m*3 1.3 C 0 km/h
509 06-03-2005 17:49:02 1.2 C 1.89 g/m*3 1.2 C 0 km/h
510 06-03-2005 17:59:02 1 C 1.97 g/m*3 1 C 0 km/h
511 06-03-2005 18:09:01 0.5 C 2.06 g/m*3 0.5 C 0 km/h
512 06-03-2005 18:19:02 0 C 1.99 g/m*3 0 C 0 km/h
513 06-03-2005 18:29:02 -0.6 C 2.09 g/m*3 -0.6 C 0 km/h
514 06-03-2005 18:39:02 -0.9 C 2.09 g/m*3 -0.9 C 0 km/h
515 06-03-2005 18:49:03 -1.3 C 2.08 g/m*3 -1.3 C 0 km/h
516 06-03-2005 18:59:03 -1.7 C 2.11 g/m*3 -1.7 C 0 km/h
517 06-03-2005 19:09:03 -1.9 C 2.08 g/m*3 -1.9 C 0 km/h
518 06-03-2005 19:19:04 -2.1 C 2.09 g/m*3 -2.1 C 0 km/h
519 06-03-2005 19:29:04 -2.3 C 2.02 g/m*3 -2.3 C 0 km/h
520 06-03-2005 19:39:04 -2.6 C 2.06 g/m*3 -2.6 C 0 km/h
521 06-03-2005 19:49:02 -2.6 C 2.14 g/m*3 -2.6 C 0 km/h
522 06-03-2005 19:59:02 -2.4 C 2.13 g/m*3 -2.4 C 0 km/h
523 06-03-2005 20:09:02 -2.3 C 2.15 g/m*3 -2.3 C 0 km/h
524 06-03-2005 20:19:02 -2.1 C 2.18 g/m*3 -2.1 C 0 km/h
525 06-03-2005 20:29:02 -2.1 C 2.18 g/m*3 -2.1 C 0 km/h
Sensor: Nr:Datum:Temp:Abs-Feuchte:Windchill:Wind:
Aussen-T/F 526 06-03-2005 20:39:02 -2.4 C 2.17 g/m*3 -2.4 C 0 km/h
527 06-03-2005 20:49:02 -2.6 C 2.26 g/m*3 -2.6 C 0 km/h
528 06-03-2005 20:59:02 -2.6 C 2.38 g/m*3 -2.6 C 0 km/h
529 06-03-2005 21:09:02 -2.2 C 2.58 g/m*3 -2.2 C 0 km/h
530 06-03-2005 21:19:02 -2.2 C 2.49 g/m*3 -2.2 C 0 km/h
531 06-03-2005 21:29:02 -1.8 C 2.56 g/m*3 -1.8 C 0 km/h
532 06-03-2005 21:39:03 -2 C 2.53 g/m*3 -2 C 0 km/h
533 06-03-2005 21:49:02 -2 C 2.53 g/m*3 -2 C 0 km/h
534 06-03-2005 21:59:02 -1.9 C 2.55 g/m*3 -1.9 C 0 km/h
535 06-03-2005 22:09:02 -1.9 C 2.55 g/m*3 -1.9 C 0 km/h
536 06-03-2005 22:19:02 -1.8 C 2.65 g/m*3 -1.8 C 0 km/h
537 06-03-2005 22:29:02 -1.8 C 2.78 g/m*3 -1.8 C 0 km/h
538 06-03-2005 22:39:02 -1.7 C 2.8 g/m*3 -1.7 C 0 km/h
539 06-03-2005 22:49:01 -1.8 C 2.74 g/m*3 -1.8 C 0 km/h
540 06-03-2005 22:59:01 -1.9 C 2.67 g/m*3 -1.9 C 0 km/h
541 06-03-2005 23:09:01 -1.9 C 2.67 g/m*3 -1.9 C 0 km/h
542 06-03-2005 23:19:01 -1.9 C 2.67 g/m*3 -1.9 C 0 km/h
543 06-03-2005 23:29:01 -1.8 C 2.74 g/m*3 -1.8 C 0 km/h
544 06-03-2005 23:39:02 -1.9 C 2.72 g/m*3 -1.9 C 0 km/h
545 06-03-2005 23:49:02 -1.9 C 2.72 g/m*3 -1.9 C 0 km/h
546 06-03-2005 23:59:02 -2.1 C 2.68 g/m*3 -2.1 C 0 km/h
547 07-03-2005 00:09:03 -2.1 C 2.72 g/m*3 -2.1 C 0 km/h
548 07-03-2005 00:19:04 -1.9 C 2.72 g/m*3 -1.9 C 0 km/h
549 07-03-2005 00:29:04 -1.9 C 2.67 g/m*3 -1.9 C 0 km/h
550 07-03-2005 00:39:03 -1.9 C 2.67 g/m*3 -1.9 C 0 km/h
Sensor: Nr:Datum:Temp:Abs-Feuchte:Windchill:Wind:
Aussen-T/F 551 07-03-2005 00:49:03 -1.9 C 2.72 g/m*3 -1.9 C 0 km/h
552 07-03-2005 00:59:03 -1.9 C 2.67 g/m*3 -1.9 C 0 km/h
553 07-03-2005 01:09:02 -1.9 C 2.72 g/m*3 -1.9 C 0 km/h
554 07-03-2005 01:19:03 -1.9 C 2.72 g/m*3 -1.9 C 0 km/h
555 07-03-2005 01:29:03 -1.9 C 2.76 g/m*3 -1.9 C 0 km/h
556 07-03-2005 01:39:02 -1.9 C 2.76 g/m*3 -1.9 C 0 km/h
557 07-03-2005 01:49:02 -1.9 C 2.76 g/m*3 -1.9 C 0 km/h
558 07-03-2005 01:59:02 -1.9 C 2.8 g/m*3 -1.9 C 0 km/h
559 07-03-2005 02:09:02 -2.1 C 2.76 g/m*3 -2.1 C 0 km/h
560 07-03-2005 02:19:02 -2.2 C 2.78 g/m*3 -2.2 C 0 km/h
561 07-03-2005 02:29:02 -2.1 C 2.76 g/m*3 -2.1 C 0 km/h
562 07-03-2005 02:39:02 -2.3 C 2.77 g/m*3 -2.3 C 0 km/h
563 07-03-2005 02:50:03 -2.3 C 2.77 g/m*3 -2.3 C 0 km/h
564 07-03-2005 03:00:03 -2.3 C 2.81 g/m*3 -2.3 C 0 km/h
565 07-03-2005 03:10:04 -2.3 C 2.81 g/m*3 -2.3 C 0 km/h
566 07-03-2005 03:20:04 -2.2 C 2.83 g/m*3 -2.2 C 0 km/h
567 07-03-2005 03:30:04 -2.2 C 2.83 g/m*3 -2.2 C 0 km/h
568 07-03-2005 03:40:02 -2.2 C 2.83 g/m*3 -2.2 C 0 km/h
569 07-03-2005 03:50:02 -2.1 C 2.85 g/m*3 -2.1 C 0 km/h
570 07-03-2005 04:00:02 -2.1 C 2.89 g/m*3 -2.1 C 0 km/h
571 07-03-2005 04:10:02 -1.9 C 2.93 g/m*3 -1.9 C 0 km/h
572 07-03-2005 04:20:03 -2.2 C 2.87 g/m*3 -2.2 C 0 km/h
573 07-03-2005 04:30:03 -2.2 C 2.87 g/m*3 -2.2 C 0 km/h
574 07-03-2005 04:40:02 -2.1 C 2.93 g/m*3 -2.1 C 0 km/h
575 07-03-2005 04:50:02 -2 C 2.95 g/m*3 -2 C 0 km/h
Sensor: Nr:Datum:Temp:Abs-Feuchte:Windchill:Wind:
Aussen-T/F 576 07-03-2005 05:00:02 -2 C 2.95 g/m*3 -2 C 0 km/h
577 07-03-2005 05:10:03 -2 C 2.95 g/m*3 -2 C 0 km/h
578 07-03-2005 05:20:03 -2 C 2.95 g/m*3 -2 C 0 km/h
579 07-03-2005 05:30:03 -2 C 2.95 g/m*3 -2 C 0 km/h
580 07-03-2005 05:40:02 -2 C 2.95 g/m*3 -2 C 0 km/h
581 07-03-2005 05:50:01 -2 C 2.95 g/m*3 -2 C 0 km/h
582 07-03-2005 06:00:01 -2 C 2.99 g/m*3 -2 C 0 km/h
583 07-03-2005 06:10:02 -2 C 2.99 g/m*3 -2 C 0 km/h
584 07-03-2005 06:20:02 -2 C 2.99 g/m*3 -2 C 0 km/h
585 07-03-2005 06:30:02 -1.9 C 3.01 g/m*3 -1.9 C 0 km/h
586 07-03-2005 06:40:01 -1.9 C 3.01 g/m*3 -1.9 C 0 km/h
587 07-03-2005 06:50:02 -1.9 C 3.01 g/m*3 -1.9 C 0 km/h
588 07-03-2005 07:00:02 -1.8 C 3.04 g/m*3 -1.8 C 0 km/h
589 07-03-2005 07:10:02 -1.9 C 3.01 g/m*3 -1.9 C 0 km/h
590 07-03-2005 07:20:02 -1.9 C 3.06 g/m*3 -1.9 C 0 km/h
591 07-03-2005 07:30:02 -1.8 C 3.08 g/m*3 -1.8 C 0 km/h
592 07-03-2005 07:40:02 -1.8 C 3.08 g/m*3 -1.8 C 0 km/h
593 07-03-2005 07:50:02 -1.7 C 3.1 g/m*3 -1.7 C 0 km/h
594 07-03-2005 08:00:02 -1.6 C 3.08 g/m*3 -1.6 C 0 km/h
595 07-03-2005 08:10:02 -1.5 C 3.1 g/m*3 -1.5 C 0 km/h
596 07-03-2005 08:20:02 -1.3 C 3.14 g/m*3 -1.3 C 0 km/h
597 07-03-2005 08:30:03 -1.1 C 3.14 g/m*3 -1.1 C 0 km/h
598 07-03-2005 08:40:01 -1.1 C 3.14 g/m*3 -1.1 C 0 km/h
599 07-03-2005 08:50:01 -0.9 C 3.19 g/m*3 -0.9 C 0 km/h
600 07-03-2005 09:00:01 -0.6 C 3.21 g/m*3 -0.6 C 0 km/h
Sensor: Nr:Datum:Temp:Abs-Feuchte:Windchill:Wind:
Aussen-T/F 601 07-03-2005 09:10:02 -0.5 C 3.23 g/m*3 -0.5 C 0 km/h
602 07-03-2005 09:20:01 -0.2 C 3.25 g/m*3 -0.2 C 0 km/h
603 07-03-2005 09:30:01 0.1 C 3.32 g/m*3 0.1 C 0 km/h
604 07-03-2005 09:40:03 0.1 C 3.37 g/m*3 0.1 C 0 km/h
605 07-03-2005 09:50:02 0.7 C 3.56 g/m*3 0.7 C 0 km/h
606 07-03-2005 10:00:02 0.8 C 3.48 g/m*3 0.8 C 0 km/h
607 07-03-2005 10:10:02 1 C 3.53 g/m*3 1 C 0 km/h
608 07-03-2005 10:20:02 1.5 C 3.54 g/m*3 1.5 C 0 km/h
609 07-03-2005 10:30:02 1.8 C 3.56 g/m*3 1.8 C 0 km/h
610 07-03-2005 10:40:02 2.2 C 3.55 g/m*3 2.2 C 0 km/h
611 07-03-2005 10:50:01 2.3 C 3.57 g/m*3 2.3 C 0 km/h
612 07-03-2005 11:00:01 2.4 C 3.54 g/m*3 2.4 C 0 km/h
613 07-03-2005 11:10:02 2.4 C 3.6 g/m*3 2.4 C 0 km/h
614 07-03-2005 11:20:02 2.8 C 3.75 g/m*3 2.8 C 0 km/h
615 07-03-2005 11:30:02 3.4 C 3.73 g/m*3 3.4 C 0 km/h
616 07-03-2005 11:40:01 3.5 C 3.63 g/m*3 3.5 C 0 km/h
617 07-03-2005 11:50:02 3.5 C 3.57 g/m*3 3.5 C 0 km/h
618 07-03-2005 12:00:02 3.9 C 3.54 g/m*3 3.9 C 0 km/h
619 07-03-2005 12:10:02 4 C 3.5 g/m*3 4 C 0 km/h
620 07-03-2005 12:20:02 4 C 3.56 g/m*3 4 C 0 km/h
621 07-03-2005 12:30:02 4 C 3.5 g/m*3 4 C 0 km/h
622 07-03-2005 12:40:02 3.6 C 3.59 g/m*3 3.6 C 0 km/h
623 07-03-2005 12:50:03 3.5 C 3.75 g/m*3 3.5 C 0 km/h
624 07-03-2005 13:00:03 3.3 C 3.82 g/m*3 3.3 C 0 km/h
625 07-03-2005 13:10:03 3.3 C 3.82 g/m*3 3.3 C 0 km/h
Sensor: Nr:Datum:Temp:Abs-Feuchte:Windchill:Wind:
Aussen-T/F 626 07-03-2005 13:20:02 3.4 C 3.91 g/m*3 3.4 C 0 km/h
627 07-03-2005 13:30:02 3.6 C 3.9 g/m*3 3.6 C 0 km/h
628 07-03-2005 13:40:02 3.5 C 3.94 g/m*3 3.5 C 0 km/h
629 07-03-2005 13:50:01 3.6 C 4.02 g/m*3 3.6 C 0 km/h
630 07-03-2005 14:00:01 4 C 3.94 g/m*3 4 C 0 km/h
631 07-03-2005 14:10:02 4.2 C 3.99 g/m*3 4.2 C 0 km/h
632 07-03-2005 14:20:01 4.3 C 3.89 g/m*3 4.3 C 0 km/h
633 07-03-2005 14:30:01 4.7 C 3.86 g/m*3 4.7 C 0 km/h
634 07-03-2005 14:40:02 4.7 C 3.8 g/m*3 4.7 C 0 km/h
635 07-03-2005 14:50:01 4.5 C 3.75 g/m*3 4.5 C 0 km/h
636 07-03-2005 15:00:01 5.2 C 3.72 g/m*3 5.2 C 0 km/h
637 07-03-2005 15:10:02 4.9 C 3.71 g/m*3 4.9 C 0 km/h
638 07-03-2005 15:20:01 4.3 C 3.63 g/m*3 4.3 C 0 km/h
639 07-03-2005 15:30:01 4.1 C 3.65 g/m*3 4.1 C 0 km/h
640 07-03-2005 15:40:01 3.3 C 3.94 g/m*3 3.3 C 0 km/h
641 07-03-2005 15:50:02 3 C 4.1 g/m*3 3 C 0 km/h
642 07-03-2005 16:00:02 3.1 C 4.19 g/m*3 3.1 C 0 km/h
643 07-03-2005 16:10:03 3.2 C 4.16 g/m*3 3.2 C 0 km/h
644 07-03-2005 16:20:02 3.3 C 4.13 g/m*3 3.3 C 0 km/h
645 07-03-2005 16:30:02 3.3 C 4.06 g/m*3 3.3 C 0 km/h
646 07-03-2005 16:40:03 3.4 C 4.03 g/m*3 3.4 C 0 km/h
647 07-03-2005 16:50:02 3.4 C 4.03 g/m*3 3.4 C 0 km/h
648 07-03-2005 17:00:02 3.2 C 4.16 g/m*3 3.2 C 0 km/h
649 07-03-2005 17:10:02 3.1 C 4.25 g/m*3 3.1 C 0 km/h
650 07-03-2005 17:20:02 3 C 4.28 g/m*3 3 C 0 km/h
Sensor: Nr:Datum:Temp:Abs-Feuchte:Windchill:Wind:
Aussen-T/F 651 07-03-2005 17:30:02 3 C 4.34 g/m*3 3 C 0 km/h
652 07-03-2005 17:40:02 3 C 4.4 g/m*3 3 C 0 km/h
653 07-03-2005 17:50:02 2.9 C 4.43 g/m*3 2.9 C 0 km/h
654 07-03-2005 18:00:02 2.8 C 4.46 g/m*3 2.8 C 0 km/h
655 07-03-2005 18:10:02 2.7 C 4.43 g/m*3 2.7 C 0 km/h
656 07-03-2005 18:20:02 2.7 C 4.43 g/m*3 2.7 C 0 km/h
657 07-03-2005 18:30:02 2.8 C 4.46 g/m*3 2.8 C 0 km/h
658 07-03-2005 18:40:03 2.9 C 4.43 g/m*3 2.9 C 0 km/h
659 07-03-2005 18:50:02 3 C 4.34 g/m*3 3 C 0 km/h
660 07-03-2005 19:00:02 3 C 4.28 g/m*3 3 C 0 km/h
661 07-03-2005 19:10:02 3 C 4.22 g/m*3 3 C 0 km/h
662 07-03-2005 19:20:03 3 C 4.22 g/m*3 3 C 0 km/h
663 07-03-2005 19:30:03 3.1 C 4.19 g/m*3 3.1 C 0 km/h
664 07-03-2005 19:40:02 3.1 C 4.19 g/m*3 3.1 C 0 km/h
665 07-03-2005 19:50:02 3.1 C 4.19 g/m*3 3.1 C 0 km/h
666 07-03-2005 20:00:02 3 C 4.16 g/m*3 3 C 0 km/h
667 07-03-2005 20:10:02 3 C 4.16 g/m*3 3 C 0 km/h
668 07-03-2005 20:20:02 2.8 C 4.16 g/m*3 2.8 C 0 km/h
669 07-03-2005 20:30:02 2.8 C 4.16 g/m*3 2.8 C 0 km/h
670 07-03-2005 20:40:03 2.9 C 4.19 g/m*3 2.9 C 0 km/h
671 07-03-2005 20:50:02 3 C 4.1 g/m*3 3 C 0 km/h
672 07-03-2005 21:00:02 3.2 C 4.1 g/m*3 3.2 C 0 km/h
673 07-03-2005 21:10:02 3.2 C 4.04 g/m*3 3.2 C 0 km/h
674 07-03-2005 21:20:03 3.2 C 4.04 g/m*3 3.2 C 0 km/h
675 07-03-2005 21:30:03 3.3 C 4.06 g/m*3 3.3 C 0 km/h
Sensor: Nr:Datum:Temp:Abs-Feuchte:Windchill:Wind:
Aussen-T/F 676 07-03-2005 21:40:02 3.2 C 4.04 g/m*3 3.2 C 0 km/h
677 07-03-2005 21:50:02 2.9 C 4.31 g/m*3 2.9 C 0 km/h
678 07-03-2005 22:00:02 2.7 C 4.31 g/m*3 2.7 C 0 km/h
679 07-03-2005 22:10:02 2.6 C 4.4 g/m*3 2.6 C 0 km/h
680 07-03-2005 22:20:02 2.5 C 4.43 g/m*3 2.5 C 0 km/h
681 07-03-2005 22:30:02 2.4 C 4.45 g/m*3 2.4 C 0 km/h
682 07-03-2005 22:40:02 2.4 C 4.51 g/m*3 2.4 C 0 km/h
683 07-03-2005 22:50:02 2.3 C 4.48 g/m*3 2.3 C 0 km/h
684 07-03-2005 23:00:02 2.3 C 4.54 g/m*3 2.3 C 0 km/h
685 07-03-2005 23:10:02 2.4 C 4.57 g/m*3 2.4 C 0 km/h
686 07-03-2005 23:20:02 2.4 C 4.57 g/m*3 2.4 C 0 km/h
687 07-03-2005 23:30:02 2.6 C 4.69 g/m*3 2.6 C 0 km/h
688 07-03-2005 23:40:02 2.8 C 4.69 g/m*3 2.8 C 0 km/h
689 07-03-2005 23:50:02 2.8 C 4.69 g/m*3 2.8 C 0 km/h
690 08-03-2005 00:00:02 3 C 4.64 g/m*3 3 C 0 km/h
691 08-03-2005 00:10:03 3 C 4.64 g/m*3 3 C 0 km/h
692 08-03-2005 00:20:03 3 C 4.64 g/m*3 3 C 0 km/h
693 08-03-2005 00:30:03 3.1 C 4.61 g/m*3 3.1 C 0 km/h
694 08-03-2005 00:40:03 3.1 C 4.61 g/m*3 3.1 C 0 km/h
695 08-03-2005 00:50:02 3.1 C 4.61 g/m*3 3.1 C 0 km/h
696 08-03-2005 01:00:02 3.2 C 4.64 g/m*3 3.2 C 0 km/h
697 08-03-2005 01:10:02 3.2 C 4.7 g/m*3 3.2 C 0 km/h
698 08-03-2005 01:20:02 3.2 C 4.64 g/m*3 3.2 C 0 km/h
699 08-03-2005 01:30:02 3.3 C 4.67 g/m*3 3.3 C 0 km/h
700 08-03-2005 01:40:03 3.3 C 4.67 g/m*3 3.3 C 0 km/h
Sensor: Nr:Datum:Temp:Abs-Feuchte:Windchill:Wind:
Aussen-T/F 701 08-03-2005 01:50:02 3.2 C 4.64 g/m*3 3.2 C 0 km/h
702 08-03-2005 02:00:02 3.2 C 4.7 g/m*3 3.2 C 0 km/h
703 08-03-2005 02:10:02 3.1 C 4.67 g/m*3 3.1 C 0 km/h
704 08-03-2005 02:20:02 2.9 C 4.67 g/m*3 2.9 C 0 km/h
705 08-03-2005 02:30:02 2.7 C 4.66 g/m*3 2.7 C 0 km/h
706 08-03-2005 02:40:03 2.6 C 4.69 g/m*3 2.6 C 0 km/h
707 08-03-2005 02:51:04 2.6 C 4.8 g/m*3 2.6 C 0 km/h
708 08-03-2005 03:01:04 2.6 C 4.8 g/m*3 2.6 C 0 km/h
709 08-03-2005 03:11:04 2.7 C 4.84 g/m*3 2.7 C 0 km/h
710 08-03-2005 03:21:04 2.7 C 4.89 g/m*3 2.7 C 0 km/h
711 08-03-2005 03:31:03 2.8 C 4.87 g/m*3 2.8 C 0 km/h
712 08-03-2005 03:41:03 3 C 4.88 g/m*3 3 C 0 km/h
713 08-03-2005 03:51:03 3 C 4.82 g/m*3 3 C 0 km/h
714 08-03-2005 04:01:02 3 C 4.76 g/m*3 3 C 0 km/h
715 08-03-2005 04:11:02 2.8 C 4.75 g/m*3 2.8 C 0 km/h
716 08-03-2005 04:21:03 2.7 C 4.72 g/m*3 2.7 C 0 km/h
717 08-03-2005 04:31:03 2.7 C 4.78 g/m*3 2.7 C 0 km/h
718 08-03-2005 04:41:03 2.6 C 4.8 g/m*3 2.6 C 0 km/h
719 08-03-2005 04:51:03 2.5 C 4.77 g/m*3 2.5 C 0 km/h
720 08-03-2005 05:01:03 2.6 C 4.86 g/m*3 2.6 C 0 km/h
721 08-03-2005 05:11:03 2.7 C 4.89 g/m*3 2.7 C 0 km/h
722 08-03-2005 05:21:03 2.8 C 4.93 g/m*3 2.8 C 0 km/h
723 08-03-2005 05:31:02 2.8 C 4.93 g/m*3 2.8 C 0 km/h
724 08-03-2005 05:41:02 2.8 C 4.87 g/m*3 2.8 C 0 km/h
725 08-03-2005 05:51:03 2.7 C 4.84 g/m*3 2.7 C 0 km/h
Sensor: Nr:Datum:Temp:Abs-Feuchte:Windchill:Wind:
Aussen-T/F 726 08-03-2005 06:01:02 2.8 C 4.87 g/m*3 2.8 C 0 km/h
727 08-03-2005 06:11:02 2.8 C 4.93 g/m*3 2.8 C 0 km/h
728 08-03-2005 06:21:02 2.9 C 4.9 g/m*3 2.9 C 0 km/h
729 08-03-2005 06:31:02 3 C 4.88 g/m*3 3 C 0 km/h
730 08-03-2005 06:41:02 3 C 4.82 g/m*3 3 C 0 km/h
731 08-03-2005 06:51:01 3.1 C 4.79 g/m*3 3.1 C 0 km/h
732 08-03-2005 07:01:02 3.1 C 4.79 g/m*3 3.1 C 0 km/h
733 08-03-2005 07:11:02 3.1 C 4.79 g/m*3 3.1 C 0 km/h
734 08-03-2005 07:21:02 3.1 C 4.79 g/m*3 3.1 C 0 km/h
735 08-03-2005 07:31:01 3.2 C 4.76 g/m*3 3.2 C 0 km/h
736 08-03-2005 07:41:01 3.2 C 4.76 g/m*3 3.2 C 0 km/h
737 08-03-2005 07:51:01 3.3 C 4.79 g/m*3 3.3 C 0 km/h
738 08-03-2005 08:01:02 3.3 C 4.79 g/m*3 3.3 C 0 km/h
739 08-03-2005 08:11:02 3.4 C 4.76 g/m*3 3.4 C 0 km/h
740 08-03-2005 08:21:01 3.4 C 4.76 g/m*3 3.4 C 0 km/h
741 08-03-2005 08:31:02 3.5 C 4.8 g/m*3 3.5 C 0 km/h
742 08-03-2005 08:41:02 3.4 C 4.76 g/m*3 3.4 C 0 km/h
743 08-03-2005 08:51:01 3.3 C 4.73 g/m*3 3.3 C 0 km/h
744 08-03-2005 09:01:01 3.2 C 4.76 g/m*3 3.2 C 0 km/h
745 08-03-2005 09:11:02 3.2 C 4.88 g/m*3 3.2 C 0 km/h
746 08-03-2005 09:21:01 3.2 C 4.88 g/m*3 3.2 C 0 km/h
747 08-03-2005 09:31:01 3.3 C 4.97 g/m*3 3.3 C 0 km/h
748 08-03-2005 09:41:01 3.3 C 4.97 g/m*3 3.3 C 0 km/h
749 08-03-2005 09:51:01 3.4 C 5.01 g/m*3 3.4 C 0 km/h
750 08-03-2005 10:01:01 3.4 C 4.95 g/m*3 3.4 C 0 km/h
Sensor: Nr:Datum:Temp:Abs-Feuchte:Windchill:Wind:
Aussen-T/F 751 08-03-2005 10:11:01 3.3 C 4.91 g/m*3 3.3 C 0 km/h
752 08-03-2005 10:21:01 3.2 C 4.88 g/m*3 3.2 C 0 km/h
753 08-03-2005 10:31:02 3.3 C 4.97 g/m*3 3.3 C 0 km/h
754 08-03-2005 10:41:02 3.6 C 5.14 g/m*3 3.6 C 0 km/h
755 08-03-2005 10:51:02 4.1 C 5.12 g/m*3 4.1 C 0 km/h
756 08-03-2005 11:01:02 4.3 C 5.06 g/m*3 4.3 C 0 km/h
757 08-03-2005 11:11:02 4.6 C 5.16 g/m*3 4.6 C 0 km/h
758 08-03-2005 11:21:02 4.7 C 5.06 g/m*3 4.7 C 0 km/h
759 08-03-2005 11:31:01 4.5 C 4.93 g/m*3 4.5 C 0 km/h
760 08-03-2005 11:41:01 4.6 C 4.83 g/m*3 4.6 C 0 km/h
761 08-03-2005 11:51:02 4.7 C 4.8 g/m*3 4.7 C 0 km/h
762 08-03-2005 12:01:02 5 C 4.82 g/m*3 5 C 0 km/h
763 08-03-2005 12:11:02 5.1 C 4.72 g/m*3 5.1 C 0 km/h
764 08-03-2005 12:21:02 5.3 C 4.78 g/m*3 5.3 C 0 km/h
765 08-03-2005 12:31:01 5.2 C 4.68 g/m*3 5.2 C 0 km/h
766 08-03-2005 12:41:01 5.1 C 4.58 g/m*3 5.1 C 0 km/h
767 08-03-2005 12:51:02 5.1 C 4.58 g/m*3 5.1 C 0 km/h
768 08-03-2005 13:01:02 5.4 C 4.54 g/m*3 5.4 C 0 km/h
769 08-03-2005 13:11:02 5.5 C 4.57 g/m*3 5.5 C 0 km/h
770 08-03-2005 13:21:02 5.4 C 4.47 g/m*3 5.4 C 0 km/h
771 08-03-2005 13:31:02 5.5 C 4.49 g/m*3 5.5 C 0 km/h
772 08-03-2005 13:41:02 5.2 C 4.61 g/m*3 5.2 C 0 km/h
773 08-03-2005 13:51:03 5.1 C 4.58 g/m*3 5.1 C 0 km/h
774 08-03-2005 14:01:03 5.1 C 4.72 g/m*3 5.1 C 0 km/h
775 08-03-2005 14:11:03 4.8 C 4.83 g/m*3 4.8 C 0 km/h
Sensor: Nr:Datum:Temp:Abs-Feuchte:Windchill:Wind:
Aussen-T/F 776 08-03-2005 14:21:02 5 C 4.76 g/m*3 5 C 0 km/h
777 08-03-2005 14:31:03 5.2 C 4.75 g/m*3 5.2 C 0 km/h
778 08-03-2005 14:41:03 5.3 C 4.78 g/m*3 5.3 C 0 km/h
779 08-03-2005 14:51:02 5.3 C 4.57 g/m*3 5.3 C 0 km/h
780 08-03-2005 15:01:03 5.2 C 4.41 g/m*3 5.2 C 0 km/h
781 08-03-2005 15:11:03 5.1 C 4.45 g/m*3 5.1 C 0 km/h
782 08-03-2005 15:21:02 5 C 4.42 g/m*3 5 C 0 km/h
783 08-03-2005 15:31:02 5.1 C 4.58 g/m*3 5.1 C 0 km/h
784 08-03-2005 15:41:02 5.1 C 4.58 g/m*3 5.1 C 0 km/h
785 08-03-2005 15:51:01 4.9 C 4.73 g/m*3 4.9 C 0 km/h
786 08-03-2005 16:01:02 4.9 C 4.59 g/m*3 4.9 C 0 km/h
787 08-03-2005 16:11:02 5 C 4.48 g/m*3 5 C 0 km/h
788 08-03-2005 16:21:02 5 C 4.55 g/m*3 5 C 0 km/h
789 08-03-2005 16:31:01 4.8 C 4.63 g/m*3 4.8 C 0 km/h
790 08-03-2005 16:41:01 4.7 C 4.66 g/m*3 4.7 C 0 km/h
791 08-03-2005 16:51:02 4.7 C 4.66 g/m*3 4.7 C 0 km/h
792 08-03-2005 17:01:02 4.6 C 4.7 g/m*3 4.6 C 0 km/h
793 08-03-2005 17:11:02 4.6 C 4.7 g/m*3 4.6 C 0 km/h
794 08-03-2005 17:21:01 4.7 C 4.73 g/m*3 4.7 C 0 km/h
795 08-03-2005 17:31:01 4.7 C 4.66 g/m*3 4.7 C 0 km/h
796 08-03-2005 17:41:01 4.7 C 4.6 g/m*3 4.7 C 0 km/h
797 08-03-2005 17:51:01 4.7 C 4.6 g/m*3 4.7 C 0 km/h
798 08-03-2005 18:01:01 4.7 C 4.53 g/m*3 4.7 C 0 km/h
799 08-03-2005 18:11:01 4.7 C 4.6 g/m*3 4.7 C 0 km/h
800 08-03-2005 18:21:01 4.7 C 4.6 g/m*3 4.7 C 0 km/h
Sensor: Nr:Datum:Temp:Abs-Feuchte:Windchill:Wind:
Aussen-T/F 801 08-03-2005 18:31:02 4.5 C 4.54 g/m*3 4.5 C 0 km/h
802 08-03-2005 18:41:02 4.5 C 4.54 g/m*3 4.5 C 0 km/h
803 08-03-2005 18:51:01 4.5 C 4.47 g/m*3 4.5 C 0 km/h
804 08-03-2005 19:01:02 4.6 C 4.43 g/m*3 4.6 C 0 km/h
805 08-03-2005 19:11:02 4.7 C 4.4 g/m*3 4.7 C 0 km/h
806 08-03-2005 19:21:02 4.7 C 4.4 g/m*3 4.7 C 0 km/h
807 08-03-2005 19:31:01 4.8 C 4.43 g/m*3 4.8 C 0 km/h
808 08-03-2005 19:41:01 4.9 C 4.39 g/m*3 4.9 C 0 km/h
809 08-03-2005 19:51:02 4.8 C 4.36 g/m*3 4.8 C 0 km/h
810 08-03-2005 20:01:02 4.8 C 4.36 g/m*3 4.8 C 0 km/h
811 08-03-2005 20:11:02 4.8 C 4.36 g/m*3 4.8 C 0 km/h
812 08-03-2005 20:21:02 4.8 C 4.36 g/m*3 4.8 C 0 km/h
813 08-03-2005 20:31:02 4.8 C 4.36 g/m*3 4.8 C 0 km/h
814 08-03-2005 20:41:02 4.8 C 4.43 g/m*3 4.8 C 0 km/h
815 08-03-2005 20:51:01 4.8 C 4.43 g/m*3 4.8 C 0 km/h
816 08-03-2005 21:01:02 4.7 C 4.53 g/m*3 4.7 C 0 km/h
817 08-03-2005 21:11:02 4.2 C 4.7 g/m*3 4.2 C 0 km/h
818 08-03-2005 21:21:02 4.1 C 4.74 g/m*3 4.1 C 0 km/h
819 08-03-2005 21:31:02 3.8 C 4.71 g/m*3 3.8 C 0 km/h
820 08-03-2005 21:41:02 3.7 C 4.67 g/m*3 3.7 C 0 km/h
821 08-03-2005 21:51:01 3.7 C 4.67 g/m*3 3.7 C 0 km/h
822 08-03-2005 22:01:02 3.7 C 4.61 g/m*3 3.7 C 0 km/h
823 08-03-2005 22:11:02 3.7 C 4.61 g/m*3 3.7 C 0 km/h
824 08-03-2005 22:21:02 3.6 C 4.64 g/m*3 3.6 C 0 km/h
825 08-03-2005 22:31:02 3.5 C 4.67 g/m*3 3.5 C 0 km/h
Sensor: Nr:Datum:Temp:Abs-Feuchte:Windchill:Wind:
Aussen-T/F 826 08-03-2005 22:41:02 3.6 C 4.64 g/m*3 3.6 C 0 km/h
827 08-03-2005 22:51:02 3.8 C 4.58 g/m*3 3.8 C 0 km/h
828 08-03-2005 23:01:02 3.9 C 4.55 g/m*3 3.9 C 0 km/h
829 08-03-2005 23:11:02 3.8 C 4.52 g/m*3 3.8 C 0 km/h
830 08-03-2005 23:21:02 3.8 C 4.58 g/m*3 3.8 C 0 km/h
831 08-03-2005 23:31:02 3.6 C 4.64 g/m*3 3.6 C 0 km/h
832 08-03-2005 23:41:02 3.5 C 4.73 g/m*3 3.5 C 0 km/h
833 08-03-2005 23:51:02 3.4 C 4.76 g/m*3 3.4 C 0 km/h
834 09-03-2005 00:01:02 3.3 C 4.79 g/m*3 3.3 C 0 km/h
835 09-03-2005 00:11:02 3.3 C 4.85 g/m*3 3.3 C 0 km/h
836 09-03-2005 00:21:04 3.2 C 4.88 g/m*3 3.2 C 0 km/h
837 09-03-2005 00:31:02 3.2 C 4.94 g/m*3 3.2 C 0 km/h
838 09-03-2005 00:41:03 3.2 C 5 g/m*3 3.2 C 0 km/h
839 09-03-2005 00:51:02 3.2 C 5 g/m*3 3.2 C 0 km/h
840 09-03-2005 01:01:01 3.2 C 5 g/m*3 3.2 C 0 km/h
841 09-03-2005 01:11:01 3.2 C 5 g/m*3 3.2 C 0 km/h
842 09-03-2005 01:21:01 3.2 C 4.94 g/m*3 3.2 C 0 km/h
843 09-03-2005 01:31:01 3.2 C 4.94 g/m*3 3.2 C 0 km/h
844 09-03-2005 01:41:01 3.3 C 4.97 g/m*3 3.3 C 0 km/h
845 09-03-2005 01:51:03 3.1 C 4.91 g/m*3 3.1 C 0 km/h
846 09-03-2005 02:01:03 3.1 C 4.91 g/m*3 3.1 C 0 km/h
847 09-03-2005 02:11:03 3.1 C 4.97 g/m*3 3.1 C 0 km/h
848 09-03-2005 02:21:02 3.2 C 5.06 g/m*3 3.2 C 0 km/h
849 09-03-2005 02:31:03 3.2 C 5.06 g/m*3 3.2 C 0 km/h
850 09-03-2005 02:41:03 3.2 C 5 g/m*3 3.2 C 0 km/h
Sensor: Nr:Datum:Temp:Abs-Feuchte:Windchill:Wind:
Aussen-T/F 851 09-03-2005 02:52:03 3.2 C 5 g/m*3 3.2 C 0 km/h
852 09-03-2005 03:02:04 3.2 C 4.94 g/m*3 3.2 C 0 km/h
853 09-03-2005 03:12:04 3.3 C 4.91 g/m*3 3.3 C 0 km/h
854 09-03-2005 03:22:05 3.3 C 4.85 g/m*3 3.3 C 0 km/h
855 09-03-2005 03:32:02 3.2 C 4.76 g/m*3 3.2 C 0 km/h
856 09-03-2005 03:42:02 3.2 C 4.76 g/m*3 3.2 C 0 km/h
857 09-03-2005 03:52:02 3.1 C 4.73 g/m*3 3.1 C 0 km/h
858 09-03-2005 04:02:02 3.3 C 4.61 g/m*3 3.3 C 0 km/h
859 09-03-2005 04:12:02 3.3 C 4.49 g/m*3 3.3 C 0 km/h
860 09-03-2005 04:22:02 3.4 C 4.52 g/m*3 3.4 C 0 km/h
861 09-03-2005 04:32:02 3.3 C 4.49 g/m*3 3.3 C 0 km/h
862 09-03-2005 04:42:02 3.3 C 4.55 g/m*3 3.3 C 0 km/h
863 09-03-2005 04:52:02 3.4 C 4.52 g/m*3 3.4 C 0 km/h
864 09-03-2005 05:02:02 3.3 C 4.55 g/m*3 3.3 C 0 km/h
865 09-03-2005 05:12:02 3.2 C 4.58 g/m*3 3.2 C 0 km/h
866 09-03-2005 05:22:03 3.2 C 4.58 g/m*3 3.2 C 0 km/h
867 09-03-2005 05:32:02 3.1 C 4.61 g/m*3 3.1 C 0 km/h
868 09-03-2005 05:42:02 3 C 4.64 g/m*3 3 C 0 km/h
869 09-03-2005 05:52:02 2.9 C 4.72 g/m*3 2.9 C 0 km/h
870 09-03-2005 06:02:02 2.8 C 4.75 g/m*3 2.8 C 0 km/h
871 09-03-2005 06:12:03 2.8 C 4.81 g/m*3 2.8 C 0 km/h
872 09-03-2005 06:22:02 2.7 C 4.78 g/m*3 2.7 C 0 km/h
873 09-03-2005 06:32:02 2.7 C 4.78 g/m*3 2.7 C 0 km/h
874 09-03-2005 06:42:02 2.7 C 4.84 g/m*3 2.7 C 0 km/h
875 09-03-2005 06:52:02 2.8 C 4.87 g/m*3 2.8 C 0 km/h
Sensor: Nr:Datum:Temp:Abs-Feuchte:Windchill:Wind:
Aussen-T/F 876 09-03-2005 07:02:03 2.8 C 4.87 g/m*3 2.8 C 0 km/h
877 09-03-2005 07:12:03 2.8 C 4.93 g/m*3 2.8 C 0 km/h
878 09-03-2005 07:22:02 2.9 C 4.96 g/m*3 2.9 C 0 km/h
879 09-03-2005 07:32:02 2.9 C 4.96 g/m*3 2.9 C 0 km/h
880 09-03-2005 07:42:03 2.9 C 4.96 g/m*3 2.9 C 0 km/h
881 09-03-2005 07:52:02 3 C 4.93 g/m*3 3 C 0 km/h
882 09-03-2005 08:02:02 3 C 4.93 g/m*3 3 C 0 km/h
883 09-03-2005 08:12:02 3.2 C 4.94 g/m*3 3.2 C 0 km/h
884 09-03-2005 08:22:02 3.4 C 5.01 g/m*3 3.4 C 0 km/h
885 09-03-2005 08:32:01 3.6 C 5.01 g/m*3 3.6 C 0 km/h
886 09-03-2005 08:42:01 3.7 C 4.92 g/m*3 3.7 C 0 km/h
887 09-03-2005 08:52:02 3.8 C 4.89 g/m*3 3.8 C 0 km/h
888 09-03-2005 09:02:02 3.8 C 4.77 g/m*3 3.8 C 0 km/h
889 09-03-2005 09:12:02 3.9 C 4.74 g/m*3 3.9 C 0 km/h
890 09-03-2005 09:22:02 3.9 C 4.74 g/m*3 3.9 C 0 km/h
891 09-03-2005 09:32:02 3.8 C 4.83 g/m*3 3.8 C 0 km/h
892 09-03-2005 09:42:02 3.7 C 4.86 g/m*3 3.7 C 0 km/h
893 09-03-2005 09:52:02 3.8 C 4.89 g/m*3 3.8 C 0 km/h
894 09-03-2005 10:02:03 4 C 4.77 g/m*3 4 C 0 km/h
895 09-03-2005 10:12:03 4.1 C 4.8 g/m*3 4.1 C 0 km/h
896 09-03-2005 10:22:03 3.8 C 4.83 g/m*3 3.8 C 0 km/h
897 09-03-2005 10:32:02 3.8 C 4.83 g/m*3 3.8 C 0 km/h
898 09-03-2005 10:42:02 4.2 C 4.96 g/m*3 4.2 C 0 km/h
899 09-03-2005 10:52:02 4.1 C 4.86 g/m*3 4.1 C 0 km/h
900 09-03-2005 11:02:02 4 C 4.9 g/m*3 4 C 0 km/h
Sensor: Nr:Datum:Temp:Abs-Feuchte:Windchill:Wind:
Aussen-T/F 901 09-03-2005 11:12:02 3.8 C 4.96 g/m*3 3.8 C 0 km/h
902 09-03-2005 11:22:02 3.9 C 5.05 g/m*3 3.9 C 0 km/h
903 09-03-2005 11:32:01 4.1 C 5.12 g/m*3 4.1 C 0 km/h
904 09-03-2005 11:42:01 4.1 C 5.12 g/m*3 4.1 C 0 km/h
905 09-03-2005 11:52:02 4.2 C 5.09 g/m*3 4.2 C 0 km/h
906 09-03-2005 12:02:02 4 C 4.96 g/m*3 4 C 0 km/h
907 09-03-2005 12:12:02 4 C 5.02 g/m*3 4 C 0 km/h
908 09-03-2005 12:22:02 4.2 C 5.03 g/m*3 4.2 C 0 km/h
909 09-03-2005 12:32:02 4.4 C 5.03 g/m*3 4.4 C 0 km/h
910 09-03-2005 12:42:02 5.1 C 5.06 g/m*3 5.1 C 0 km/h
911 09-03-2005 12:52:02 5.4 C 5.02 g/m*3 5.4 C 0 km/h
912 09-03-2005 13:02:03 5.9 C 5.05 g/m*3 5.9 C 0 km/h
913 09-03-2005 13:12:03 6.1 C 4.89 g/m*3 6.1 C 0 km/h
914 09-03-2005 13:22:02 6.1 C 4.82 g/m*3 6.1 C 0 km/h
915 09-03-2005 13:32:02 5.5 C 4.64 g/m*3 5.5 C 0 km/h
916 09-03-2005 13:42:02 5.1 C 4.86 g/m*3 5.1 C 0 km/h
917 09-03-2005 13:52:01 5.1 C 4.92 g/m*3 5.1 C 0 km/h
918 09-03-2005 14:02:02 5.1 C 4.99 g/m*3 5.1 C 0 km/h
919 09-03-2005 14:12:02 4.9 C 4.93 g/m*3 4.9 C 0 km/h
920 09-03-2005 14:22:02 4.7 C 5 g/m*3 4.7 C 0 km/h
921 09-03-2005 14:32:02 4.5 C 4.93 g/m*3 4.5 C 0 km/h
922 09-03-2005 14:42:02 4.4 C 4.9 g/m*3 4.4 C 0 km/h
923 09-03-2005 14:52:02 4.4 C 4.9 g/m*3 4.4 C 0 km/h
924 09-03-2005 15:02:03 4.6 C 4.96 g/m*3 4.6 C 0 km/h
925 09-03-2005 15:12:03 5 C 4.89 g/m*3 5 C 0 km/h
Sensor: Nr:Datum:Temp:Abs-Feuchte:Windchill:Wind:
Aussen-T/F 926 09-03-2005 15:22:03 5.2 C 4.89 g/m*3 5.2 C 0 km/h
927 09-03-2005 15:32:03 5.1 C 4.86 g/m*3 5.1 C 0 km/h
928 09-03-2005 15:42:03 5.1 C 4.86 g/m*3 5.1 C 0 km/h
929 09-03-2005 15:52:02 5.2 C 4.82 g/m*3 5.2 C 0 km/h
930 09-03-2005 16:02:02 5.3 C 4.85 g/m*3 5.3 C 0 km/h
931 09-03-2005 16:12:02 5.2 C 4.82 g/m*3 5.2 C 0 km/h
932 09-03-2005 16:22:02 5.1 C 4.79 g/m*3 5.1 C 0 km/h
933 09-03-2005 16:32:02 5 C 4.82 g/m*3 5 C 0 km/h
934 09-03-2005 16:42:02 4.8 C 4.83 g/m*3 4.8 C 0 km/h
935 09-03-2005 16:52:01 4.5 C 4.86 g/m*3 4.5 C 0 km/h
936 09-03-2005 17:02:02 4.2 C 5.03 g/m*3 4.2 C 0 km/h
937 09-03-2005 17:12:02 4.2 C 5.09 g/m*3 4.2 C 0 km/h
938 09-03-2005 17:22:02 4.2 C 5.15 g/m*3 4.2 C 0 km/h
939 09-03-2005 17:32:01 4.2 C 5.15 g/m*3 4.2 C 0 km/h
940 09-03-2005 17:42:01 4.2 C 5.22 g/m*3 4.2 C 0 km/h
941 09-03-2005 17:52:01 4.1 C 5.18 g/m*3 4.1 C 0 km/h
942 09-03-2005 18:02:01 4.1 C 5.18 g/m*3 4.1 C 0 km/h
943 09-03-2005 18:12:01 4.2 C 5.22 g/m*3 4.2 C 0 km/h
944 09-03-2005 18:22:01 4.2 C 5.22 g/m*3 4.2 C 0 km/h
945 09-03-2005 18:32:01 4.2 C 5.15 g/m*3 4.2 C 0 km/h
946 09-03-2005 18:42:01 4.2 C 5.09 g/m*3 4.2 C 0 km/h
947 09-03-2005 18:52:03 4.2 C 5.03 g/m*3 4.2 C 0 km/h
948 09-03-2005 19:02:03 4.2 C 4.96 g/m*3 4.2 C 0 km/h
949 09-03-2005 19:12:03 4.2 C 4.96 g/m*3 4.2 C 0 km/h
950 09-03-2005 19:22:02 4.2 C 4.9 g/m*3 4.2 C 0 km/h
Sensor: Nr:Datum:Temp:Abs-Feuchte:Windchill:Wind:
Aussen-T/F 951 09-03-2005 19:32:02 4.2 C 4.9 g/m*3 4.2 C 0 km/h
952 09-03-2005 19:42:02 4.1 C 4.93 g/m*3 4.1 C 0 km/h
953 09-03-2005 19:52:02 4 C 4.9 g/m*3 4 C 0 km/h
954 09-03-2005 20:02:03 3.9 C 4.99 g/m*3 3.9 C 0 km/h
955 09-03-2005 20:12:03 4 C 4.96 g/m*3 4 C 0 km/h
956 09-03-2005 20:22:02 4 C 4.96 g/m*3 4 C 0 km/h
957 09-03-2005 20:32:02 4 C 4.96 g/m*3 4 C 0 km/h
958 09-03-2005 20:42:02 4 C 4.96 g/m*3 4 C 0 km/h
959 09-03-2005 20:52:02 4 C 4.96 g/m*3 4 C 0 km/h
960 09-03-2005 21:02:02 3.8 C 4.96 g/m*3 3.8 C 0 km/h
961 09-03-2005 21:12:02 3.8 C 4.96 g/m*3 3.8 C 0 km/h
962 09-03-2005 21:22:01 3.5 C 4.86 g/m*3 3.5 C 0 km/h
963 09-03-2005 21:32:02 3.3 C 4.79 g/m*3 3.3 C 0 km/h
964 09-03-2005 21:42:03 3.1 C 4.79 g/m*3 3.1 C 0 km/h
965 09-03-2005 21:52:02 2.9 C 4.84 g/m*3 2.9 C 0 km/h
966 09-03-2005 22:02:01 2.8 C 4.87 g/m*3 2.8 C 0 km/h
967 09-03-2005 22:12:01 3 C 4.93 g/m*3 3 C 0 km/h
968 09-03-2005 22:22:02 2.9 C 4.96 g/m*3 2.9 C 0 km/h
969 09-03-2005 22:32:02 2.9 C 4.96 g/m*3 2.9 C 0 km/h
970 09-03-2005 22:42:02 3 C 4.99 g/m*3 3 C 0 km/h
971 09-03-2005 22:52:02 3 C 4.99 g/m*3 3 C 0 km/h
972 09-03-2005 23:02:02 2.9 C 4.96 g/m*3 2.9 C 0 km/h
973 09-03-2005 23:12:02 2.8 C 4.93 g/m*3 2.8 C 0 km/h
974 09-03-2005 23:22:02 2.8 C 4.99 g/m*3 2.8 C 0 km/h
975 09-03-2005 23:32:02 2.7 C 4.95 g/m*3 2.7 C 0 km/h
Sensor: Nr:Datum:Temp:Abs-Feuchte:Windchill:Wind:
Aussen-T/F 976 09-03-2005 23:42:02 2.8 C 4.99 g/m*3 2.8 C 0 km/h
977 09-03-2005 23:52:02 2.8 C 4.99 g/m*3 2.8 C 0 km/h
978 10-03-2005 00:02:02 2.8 C 4.99 g/m*3 2.8 C 0 km/h
979 10-03-2005 00:12:02 2.8 C 4.99 g/m*3 2.8 C 0 km/h
980 10-03-2005 00:22:04 2.9 C 5.02 g/m*3 2.9 C 0 km/h
981 10-03-2005 00:32:02 2.9 C 4.96 g/m*3 2.9 C 0 km/h
982 10-03-2005 00:42:02 2.8 C 4.93 g/m*3 2.8 C 0 km/h
983 10-03-2005 00:52:02 2.9 C 4.96 g/m*3 2.9 C 0 km/h
984 10-03-2005 01:02:02 2.9 C 4.96 g/m*3 2.9 C 0 km/h
985 10-03-2005 01:12:02 3 C 4.93 g/m*3 3 C 0 km/h
986 10-03-2005 01:22:02 3 C 4.93 g/m*3 3 C 0 km/h
987 10-03-2005 01:32:02 3 C 4.93 g/m*3 3 C 0 km/h
988 10-03-2005 01:42:02 3.1 C 4.91 g/m*3 3.1 C 0 km/h
989 10-03-2005 01:52:02 3.2 C 4.88 g/m*3 3.2 C 0 km/h
990 10-03-2005 02:02:02 3.1 C 4.79 g/m*3 3.1 C 0 km/h
991 10-03-2005 02:12:02 3.1 C 4.79 g/m*3 3.1 C 0 km/h
992 10-03-2005 02:22:02 3.1 C 4.79 g/m*3 3.1 C 0 km/h
993 10-03-2005 02:32:02 3.1 C 4.73 g/m*3 3.1 C 0 km/h
994 10-03-2005 02:42:02 3 C 4.7 g/m*3 3 C 0 km/h
995 10-03-2005 02:53:03 2.8 C 4.63 g/m*3 2.8 C 0 km/h
996 10-03-2005 03:03:03 2.7 C 4.66 g/m*3 2.7 C 0 km/h
997 10-03-2005 03:13:03 2.8 C 4.69 g/m*3 2.8 C 0 km/h
998 10-03-2005 03:23:03 2.7 C 4.6 g/m*3 2.7 C 0 km/h
999 10-03-2005 03:33:03 2.5 C 4.6 g/m*3 2.5 C 0 km/h
1000 10-03-2005 03:43:03 2 C 4.45 g/m*3 2 C 0 km/h
Sensor: Nr:Datum:Temp:Abs-Feuchte:Windchill:Wind:
Aussen-T/F 1001 10-03-2005 03:53:03 1.7 C 4.46 g/m*3 1.7 C 0 km/h
1002 10-03-2005 04:03:03 1.4 C 4.37 g/m*3 1.4 C 0 km/h
1003 10-03-2005 04:13:03 1.3 C 4.4 g/m*3 1.3 C 0 km/h
1004 10-03-2005 04:23:03 1.4 C 4.48 g/m*3 1.4 C 0 km/h
1005 10-03-2005 04:33:02 1.4 C 4.48 g/m*3 1.4 C 0 km/h
1006 10-03-2005 04:43:02 1.4 C 4.53 g/m*3 1.4 C 0 km/h
1007 10-03-2005 04:53:03 1.4 C 4.53 g/m*3 1.4 C 0 km/h
1008 10-03-2005 05:03:02 1.3 C 4.45 g/m*3 1.3 C 0 km/h
1009 10-03-2005 05:13:02 1.2 C 4.42 g/m*3 1.2 C 0 km/h
1010 10-03-2005 05:23:02 1.1 C 4.39 g/m*3 1.1 C 0 km/h
1011 10-03-2005 05:33:02 1.1 C 4.39 g/m*3 1.1 C 0 km/h
1012 10-03-2005 05:43:02 1.1 C 4.44 g/m*3 1.1 C 0 km/h
1013 10-03-2005 05:53:02 0.7 C 4.32 g/m*3 0.7 C 0 km/h
1014 10-03-2005 06:03:02 0.6 C 4.29 g/m*3 0.6 C 0 km/h
1015 10-03-2005 06:13:02 0.5 C 4.26 g/m*3 0.5 C 0 km/h
1016 10-03-2005 06:23:02 0.5 C 4.26 g/m*3 0.5 C 0 km/h
1017 10-03-2005 06:33:02 0.9 C 4.43 g/m*3 0.9 C 0 km/h
1018 10-03-2005 06:43:02 1.1 C 4.49 g/m*3 1.1 C 0 km/h
1019 10-03-2005 06:53:02 1.2 C 4.53 g/m*3 1.2 C 0 km/h
1020 10-03-2005 07:03:03 1.2 C 4.53 g/m*3 1.2 C 0 km/h
1021 10-03-2005 07:13:03 1.1 C 4.49 g/m*3 1.1 C 0 km/h
1022 10-03-2005 07:23:02 1.1 C 4.44 g/m*3 1.1 C 0 km/h
1023 10-03-2005 07:33:02 1.2 C 4.47 g/m*3 1.2 C 0 km/h
1024 10-03-2005 07:43:02 1.3 C 4.5 g/m*3 1.3 C 0 km/h
1025 10-03-2005 07:53:03 1.3 C 4.45 g/m*3 1.3 C 0 km/h
Sensor: Nr:Datum:Temp:Abs-Feuchte:Windchill:Wind:
Aussen-T/F 1026 10-03-2005 08:03:02 1.4 C 4.43 g/m*3 1.4 C 0 km/h
1027 10-03-2005 08:13:02 1.3 C 4.29 g/m*3 1.3 C 0 km/h
1028 10-03-2005 08:23:02 1.2 C 4.21 g/m*3 1.2 C 0 km/h
1029 10-03-2005 08:33:02 1.3 C 4.19 g/m*3 1.3 C 0 km/h
1030 10-03-2005 08:43:02 1.4 C 4.21 g/m*3 1.4 C 0 km/h
1031 10-03-2005 08:53:02 1.7 C 4.25 g/m*3 1.7 C 0 km/h
1032 10-03-2005 09:03:02 1.6 C 4.16 g/m*3 1.6 C 0 km/h
1033 10-03-2005 09:13:02 1.5 C 4.14 g/m*3 1.5 C 0 km/h
1034 10-03-2005 09:23:03 1.5 C 4.14 g/m*3 1.5 C 0 km/h
1035 10-03-2005 09:33:02 1.6 C 4.16 g/m*3 1.6 C 0 km/h
1036 10-03-2005 09:43:02 1.6 C 4.11 g/m*3 1.6 C 0 km/h
1037 10-03-2005 09:53:01 1.8 C 4.11 g/m*3 1.8 C 0 km/h
1038 10-03-2005 10:03:01 1.8 C 4.11 g/m*3 1.8 C 0 km/h
1039 10-03-2005 10:13:01 1.9 C 4.19 g/m*3 1.9 C 0 km/h
1040 10-03-2005 10:23:01 2.3 C 4.25 g/m*3 2.3 C 0 km/h
1041 10-03-2005 10:33:01 2.4 C 4.23 g/m*3 2.4 C 0 km/h
1042 10-03-2005 10:43:01 2.4 C 4.23 g/m*3 2.4 C 0 km/h
1043 10-03-2005 10:53:02 2.2 C 4.17 g/m*3 2.2 C 0 km/h
1044 10-03-2005 11:03:02 2.6 C 4.22 g/m*3 2.6 C 0 km/h
1045 10-03-2005 11:13:02 3.3 C 4.19 g/m*3 3.3 C 0 km/h
1046 10-03-2005 11:23:02 4 C 3.88 g/m*3 4 C 0 km/h
1047 10-03-2005 11:33:02 4.3 C 3.76 g/m*3 4.3 C 0 km/h
1048 10-03-2005 11:43:02 4.9 C 3.65 g/m*3 4.9 C 0 km/h
1049 10-03-2005 11:53:02 5.8 C 3.72 g/m*3 5.8 C 0 km/h
1050 10-03-2005 12:03:02 6 C 3.63 g/m*3 6 C 0 km/h
Sensor: Nr:Datum:Temp:Abs-Feuchte:Windchill:Wind:
Aussen-T/F 1051 10-03-2005 12:13:02 5.9 C 3.61 g/m*3 5.9 C 0 km/h
1052 10-03-2005 12:23:02 6.5 C 3.3 g/m*3 6.5 C 0 km/h
1053 10-03-2005 12:33:02 6.4 C 3.13 g/m*3 6.4 C 0 km/h
1054 10-03-2005 12:43:02 6.2 C 3.09 g/m*3 6.2 C 0 km/h
1055 10-03-2005 12:53:01 5.7 C 3.2 g/m*3 5.7 C 0 km/h
1056 10-03-2005 13:03:01 6.3 C 3.18 g/m*3 6.3 C 0 km/h
1057 10-03-2005 13:13:02 7.1 C 3.04 g/m*3 7.1 C 0 km/h
1058 10-03-2005 13:23:01 7.9 C 3.12 g/m*3 7.9 C 0 km/h
1059 10-03-2005 13:33:01 9.1 C 3.11 g/m*3 9.1 C 0 km/h
1060 10-03-2005 13:43:01 9.7 C 3.04 g/m*3 9.7 C 0 km/h
1061 10-03-2005 13:53:01 10 C 2.91 g/m*3 10 C 0 km/h
1062 10-03-2005 14:03:02 9.5 C 3 g/m*3 9.5 C 0 km/h
1063 10-03-2005 14:13:02 9.5 C 3.19 g/m*3 9.5 C 0 km/h
1064 10-03-2005 14:23:02 8.9 C 2.72 g/m*3 8.9 C 0 km/h
1065 10-03-2005 14:33:01 9.2 C 2.86 g/m*3 9.2 C 0 km/h
1066 10-03-2005 14:43:01 9.6 C 2.93 g/m*3 9.6 C 0 km/h
1067 10-03-2005 14:53:01 9.5 C 2.64 g/m*3 9.5 C 0 km/h
1068 10-03-2005 15:03:02 9.3 C 2.79 g/m*3 9.3 C 0 km/h
1069 10-03-2005 15:13:02 10.2 C 2.85 g/m*3 10.2 C 0 km/h
1070 10-03-2005 15:23:02 10.7 C 2.95 g/m*3 10.7 C 0 km/h
1071 10-03-2005 15:33:02 10.7 C 2.95 g/m*3 10.7 C 0 km/h
1072 10-03-2005 15:43:02 10.7 C 2.75 g/m*3 10.7 C 0 km/h
1073 10-03-2005 15:53:02 11.1 C 3.02 g/m*3 11.1 C 0 km/h
1074 10-03-2005 16:03:03 11.5 C 2.79 g/m*3 11.5 C 0 km/h
1075 10-03-2005 16:13:03 11.7 C 2.82 g/m*3 11.7 C 0 km/h
Sensor: Nr:Datum:Temp:Abs-Feuchte:Windchill:Wind:
Aussen-T/F 1076 10-03-2005 16:23:03 12 C 2.77 g/m*3 12 C 0 km/h
1077 10-03-2005 16:33:03 11.8 C 2.95 g/m*3 11.8 C 0 km/h
1078 10-03-2005 16:43:03 11.4 C 2.67 g/m*3 11.4 C 0 km/h
1079 10-03-2005 16:53:02 10.7 C 2.65 g/m*3 10.7 C 0 km/h
1080 10-03-2005 17:03:02 11 C 3.1 g/m*3 11 C 0 km/h
1081 10-03-2005 17:13:02 10.4 C 2.7 g/m*3 10.4 C 0 km/h
1082 10-03-2005 17:23:02 9.5 C 2.73 g/m*3 9.5 C 0 km/h
1083 10-03-2005 17:33:03 9.6 C 2.93 g/m*3 9.6 C 0 km/h
1084 10-03-2005 17:43:03 9.5 C 3.19 g/m*3 9.5 C 0 km/h
1085 10-03-2005 17:53:02 9.1 C 3.28 g/m*3 9.1 C 0 km/h
1086 10-03-2005 18:03:02 8.4 C 3.31 g/m*3 8.4 C 0 km/h
1087 10-03-2005 18:13:02 7.3 C 3.4 g/m*3 7.3 C 0 km/h
1088 10-03-2005 18:23:02 6.4 C 3.35 g/m*3 6.4 C 0 km/h
1089 10-03-2005 18:33:02 5.7 C 3.27 g/m*3 5.7 C 0 km/h
1090 10-03-2005 18:43:02 4.9 C 3.24 g/m*3 4.9 C 0 km/h
1091 10-03-2005 18:53:02 4.5 C 3.35 g/m*3 4.5 C 0 km/h
1092 10-03-2005 19:03:02 4.2 C 3.48 g/m*3 4.2 C 0 km/h
1093 10-03-2005 19:13:02 3.9 C 3.66 g/m*3 3.9 C 0 km/h
1094 10-03-2005 19:23:02 3.7 C 3.74 g/m*3 3.7 C 0 km/h
1095 10-03-2005 19:33:01 3.4 C 3.66 g/m*3 3.4 C 0 km/h
1096 10-03-2005 19:43:01 3.3 C 3.7 g/m*3 3.3 C 0 km/h
1097 10-03-2005 19:53:02 3.1 C 3.65 g/m*3 3.1 C 0 km/h
1098 10-03-2005 20:03:02 3 C 3.57 g/m*3 3 C 0 km/h
1099 10-03-2005 20:13:02 2.7 C 3.55 g/m*3 2.7 C 0 km/h
1100 10-03-2005 20:23:02 2.5 C 3.62 g/m*3 2.5 C 0 km/h
Sensor: Nr:Datum:Temp:Abs-Feuchte:Windchill:Wind:
Aussen-T/F 1101 10-03-2005 20:33:02 2.5 C 3.62 g/m*3 2.5 C 0 km/h
1102 10-03-2005 20:43:02 2.2 C 3.6 g/m*3 2.2 C 0 km/h
1103 10-03-2005 20:53:02 1.9 C 3.59 g/m*3 1.9 C 0 km/h
1104 10-03-2005 21:03:02 1.8 C 3.56 g/m*3 1.8 C 0 km/h
1105 10-03-2005 21:13:03 1.6 C 3.57 g/m*3 1.6 C 0 km/h
1106 10-03-2005 21:23:03 1.6 C 3.57 g/m*3 1.6 C 0 km/h
1107 10-03-2005 21:33:02 1.5 C 3.54 g/m*3 1.5 C 0 km/h
1108 10-03-2005 21:43:02 1.3 C 3.55 g/m*3 1.3 C 0 km/h
1109 10-03-2005 21:53:02 1.6 C 3.62 g/m*3 1.6 C 0 km/h
1110 10-03-2005 22:03:01 1.6 C 3.51 g/m*3 1.6 C 0 km/h
1111 10-03-2005 22:13:01 1.6 C 3.51 g/m*3 1.6 C 0 km/h
1112 10-03-2005 22:23:01 1.5 C 3.49 g/m*3 1.5 C 0 km/h
1113 10-03-2005 22:33:02 1.5 C 3.49 g/m*3 1.5 C 0 km/h
1114 10-03-2005 22:43:02 1.6 C 3.51 g/m*3 1.6 C 0 km/h
1115 10-03-2005 22:53:01 1.4 C 3.47 g/m*3 1.4 C 0 km/h
1116 10-03-2005 23:03:02 1.3 C 3.44 g/m*3 1.3 C 0 km/h
1117 10-03-2005 23:13:02 1.2 C 3.47 g/m*3 1.2 C 0 km/h
1118 10-03-2005 23:23:02 1.1 C 3.45 g/m*3 1.1 C 0 km/h
1119 10-03-2005 23:33:02 1.1 C 3.5 g/m*3 1.1 C 0 km/h
1120 10-03-2005 23:43:02 1.2 C 3.53 g/m*3 1.2 C 0 km/h
1121 10-03-2005 23:53:02 1.2 C 3.47 g/m*3 1.2 C 0 km/h
1122 11-03-2005 00:03:02 1.1 C 3.45 g/m*3 1.1 C 0 km/h
1123 11-03-2005 00:13:02 0.8 C 3.48 g/m*3 0.8 C 0 km/h
1124 11-03-2005 00:23:03 0.6 C 3.48 g/m*3 0.6 C 0 km/h
1125 11-03-2005 00:33:02 0.4 C 3.49 g/m*3 0.4 C 0 km/h
Sensor: Nr:Datum:Temp:Abs-Feuchte:Windchill:Wind:
Aussen-T/F 1126 11-03-2005 00:43:02 0.2 C 3.44 g/m*3 0.2 C 0 km/h
1127 11-03-2005 00:53:02 0.1 C 3.46 g/m*3 0.1 C 0 km/h
1128 11-03-2005 01:03:01 0 C 3.44 g/m*3 0 C 0 km/h
1129 11-03-2005 01:13:01 0 C 3.44 g/m*3 0 C 0 km/h
1130 11-03-2005 01:23:02 -0.1 C 3.46 g/m*3 -0.1 C 0 km/h
1131 11-03-2005 01:33:02 -0.2 C 3.44 g/m*3 -0.2 C 0 km/h
1132 11-03-2005 01:43:02 -0.3 C 3.42 g/m*3 -0.3 C 0 km/h
1133 11-03-2005 01:53:03 -0.4 C 3.44 g/m*3 -0.4 C 0 km/h
1134 11-03-2005 02:03:03 -0.4 C 3.44 g/m*3 -0.4 C 0 km/h
1135 11-03-2005 02:13:03 -0.3 C 3.46 g/m*3 -0.3 C 0 km/h
1136 11-03-2005 02:23:03 -0.4 C 3.44 g/m*3 -0.4 C 0 km/h
1137 11-03-2005 02:33:03 -0.4 C 3.44 g/m*3 -0.4 C 0 km/h
1138 11-03-2005 02:43:03 -0.4 C 3.39 g/m*3 -0.4 C 0 km/h
1139 11-03-2005 02:54:04 -0.4 C 3.39 g/m*3 -0.4 C 0 km/h
1140 11-03-2005 03:04:04 -0.5 C 3.37 g/m*3 -0.5 C 0 km/h
1141 11-03-2005 03:14:04 -0.6 C 3.35 g/m*3 -0.6 C 0 km/h
1142 11-03-2005 03:24:04 -0.6 C 3.39 g/m*3 -0.6 C 0 km/h
1143 11-03-2005 03:34:02 -0.6 C 3.39 g/m*3 -0.6 C 0 km/h
1144 11-03-2005 03:44:02 -0.5 C 3.42 g/m*3 -0.5 C 0 km/h
1145 11-03-2005 03:54:02 -0.6 C 3.35 g/m*3 -0.6 C 0 km/h
1146 11-03-2005 04:04:01 -0.7 C 3.37 g/m*3 -0.7 C 0 km/h
1147 11-03-2005 04:14:01 -0.6 C 3.39 g/m*3 -0.6 C 0 km/h
1148 11-03-2005 04:24:02 -0.4 C 3.39 g/m*3 -0.4 C 0 km/h
1149 11-03-2005 04:34:02 -0.3 C 3.42 g/m*3 -0.3 C 0 km/h
1150 11-03-2005 04:44:02 -0.4 C 3.39 g/m*3 -0.4 C 0 km/h
Sensor: Nr:Datum:Temp:Abs-Feuchte:Windchill:Wind:
Aussen-T/F 1151 11-03-2005 04:54:02 -0.4 C 3.39 g/m*3 -0.4 C 0 km/h
1152 11-03-2005 05:04:01 -0.3 C 3.42 g/m*3 -0.3 C 0 km/h
1153 11-03-2005 05:14:01 0 C 3.39 g/m*3 0 C 0 km/h
1154 11-03-2005 05:24:01 0.1 C 3.42 g/m*3 0.1 C 0 km/h
1155 11-03-2005 05:34:02 0.3 C 3.41 g/m*3 0.3 C 0 km/h
1156 11-03-2005 05:44:02 0.4 C 3.39 g/m*3 0.4 C 0 km/h
1157 11-03-2005 05:54:02 0.5 C 3.36 g/m*3 0.5 C 0 km/h
1158 11-03-2005 06:04:02 0.4 C 3.34 g/m*3 0.4 C 0 km/h
1159 11-03-2005 06:14:02 0.5 C 3.31 g/m*3 0.5 C 0 km/h
1160 11-03-2005 06:24:02 0.6 C 3.28 g/m*3 0.6 C 0 km/h
1161 11-03-2005 06:34:01 0.8 C 3.28 g/m*3 0.8 C 0 km/h
1162 11-03-2005 06:44:01 0.9 C 3.25 g/m*3 0.9 C 0 km/h
1163 11-03-2005 06:54:02 0.7 C 3.25 g/m*3 0.7 C 0 km/h
1164 11-03-2005 07:04:02 0.6 C 3.28 g/m*3 0.6 C 0 km/h
1165 11-03-2005 07:14:02 0.6 C 3.28 g/m*3 0.6 C 0 km/h
1166 11-03-2005 07:24:02 0.9 C 3.3 g/m*3 0.9 C 0 km/h
1167 11-03-2005 07:34:02 1 C 3.22 g/m*3 1 C 0 km/h
1168 11-03-2005 07:44:02 1.3 C 3.23 g/m*3 1.3 C 0 km/h
1169 11-03-2005 07:54:02 1.6 C 3.24 g/m*3 1.6 C 0 km/h
1170 11-03-2005 08:04:02 1.7 C 3.21 g/m*3 1.7 C 0 km/h
1171 11-03-2005 08:14:02 1.7 C 3.21 g/m*3 1.7 C 0 km/h
1172 11-03-2005 08:24:02 1.9 C 3.26 g/m*3 1.9 C 0 km/h
1173 11-03-2005 08:34:02 2.2 C 3.21 g/m*3 2.2 C 0 km/h
1174 11-03-2005 08:44:02 2.2 C 3.21 g/m*3 2.2 C 0 km/h
1175 11-03-2005 08:54:01 2.3 C 3.23 g/m*3 2.3 C 0 km/h
Sensor: Nr:Datum:Temp:Abs-Feuchte:Windchill:Wind:
Aussen-T/F 1176 11-03-2005 09:04:02 2.4 C 3.25 g/m*3 2.4 C 0 km/h
1177 11-03-2005 09:14:02 2.5 C 3.28 g/m*3 2.5 C 0 km/h
1178 11-03-2005 09:24:02 2.6 C 3.3 g/m*3 2.6 C 0 km/h
1179 11-03-2005 09:34:02 3 C 3.39 g/m*3 3 C 0 km/h
1180 11-03-2005 09:44:02 3.3 C 3.4 g/m*3 3.3 C 0 km/h
1181 11-03-2005 09:54:02 3.6 C 3.4 g/m*3 3.6 C 0 km/h
1182 11-03-2005 10:04:02 3.6 C 3.4 g/m*3 3.6 C 0 km/h
1183 11-03-2005 10:14:02 3.6 C 3.4 g/m*3 3.6 C 0 km/h
1184 11-03-2005 10:24:02 3.7 C 3.49 g/m*3 3.7 C 0 km/h
1185 11-03-2005 10:34:02 4 C 3.5 g/m*3 4 C 0 km/h
1186 11-03-2005 10:44:02 4 C 3.56 g/m*3 4 C 0 km/h
1187 11-03-2005 10:54:01 4 C 3.56 g/m*3 4 C 0 km/h
1188 11-03-2005 11:04:01 4 C 3.62 g/m*3 4 C 0 km/h
1189 11-03-2005 11:14:01 4 C 3.62 g/m*3 4 C 0 km/h
1190 11-03-2005 11:24:01 4.2 C 3.74 g/m*3 4.2 C 0 km/h
1191 11-03-2005 11:34:02 4.4 C 3.72 g/m*3 4.4 C 0 km/h
1192 11-03-2005 11:44:02 4.4 C 3.72 g/m*3 4.4 C 0 km/h
1193 11-03-2005 11:54:02 4.4 C 3.79 g/m*3 4.4 C 0 km/h
1194 11-03-2005 12:04:02 4.5 C 3.81 g/m*3 4.5 C 0 km/h
1195 11-03-2005 12:14:02 4.5 C 3.81 g/m*3 4.5 C 0 km/h
1196 11-03-2005 12:24:02 4.5 C 3.81 g/m*3 4.5 C 0 km/h
1197 11-03-2005 12:34:02 4.6 C 3.9 g/m*3 4.6 C 0 km/h
1198 11-03-2005 12:44:02 4.7 C 3.93 g/m*3 4.7 C 0 km/h
1199 11-03-2005 12:54:02 4.7 C 3.93 g/m*3 4.7 C 0 km/h
1200 11-03-2005 13:04:02 4.7 C 3.93 g/m*3 4.7 C 0 km/h
Sensor: Nr:Datum:Temp:Abs-Feuchte:Windchill:Wind:
Aussen-T/F 1201 11-03-2005 13:14:02 4.8 C 3.96 g/m*3 4.8 C 0 km/h
1202 11-03-2005 13:24:02 4.8 C 4.02 g/m*3 4.8 C 0 km/h
1203 11-03-2005 13:34:02 4.9 C 4.05 g/m*3 4.9 C 0 km/h
1204 11-03-2005 13:44:02 4.9 C 4.12 g/m*3 4.9 C 0 km/h
1205 11-03-2005 13:54:01 4.9 C 4.12 g/m*3 4.9 C 0 km/h
1206 11-03-2005 14:04:02 4.9 C 4.12 g/m*3 4.9 C 0 km/h
1207 11-03-2005 14:14:02 4.9 C 4.19 g/m*3 4.9 C 0 km/h
1208 11-03-2005 14:24:02 4.9 C 4.19 g/m*3 4.9 C 0 km/h
1209 11-03-2005 14:34:02 4.9 C 4.25 g/m*3 4.9 C 0 km/h
1210 11-03-2005 14:44:02 4.9 C 4.25 g/m*3 4.9 C 0 km/h
1211 11-03-2005 14:54:02 5 C 4.28 g/m*3 5 C 0 km/h
1212 11-03-2005 15:04:03 5 C 4.28 g/m*3 5 C 0 km/h
1213 11-03-2005 15:14:03 5 C 4.21 g/m*3 5 C 0 km/h
1214 11-03-2005 15:24:02 5 C 4.28 g/m*3 5 C 0 km/h
1215 11-03-2005 15:34:03 4.9 C 4.39 g/m*3 4.9 C 0 km/h
1216 11-03-2005 15:44:03 5 C 4.35 g/m*3 5 C 0 km/h
1217 11-03-2005 15:54:02 4.9 C 4.46 g/m*3 4.9 C 0 km/h
1218 11-03-2005 16:04:03 5 C 4.42 g/m*3 5 C 0 km/h
1219 11-03-2005 16:14:03 5 C 4.42 g/m*3 5 C 0 km/h
1220 11-03-2005 16:24:02 4.9 C 4.52 g/m*3 4.9 C 0 km/h
1221 11-03-2005 16:34:03 4.9 C 4.52 g/m*3 4.9 C 0 km/h
1222 11-03-2005 16:44:04 4.8 C 4.56 g/m*3 4.8 C 0 km/h
1223 11-03-2005 16:54:02 4.8 C 4.63 g/m*3 4.8 C 0 km/h
1224 11-03-2005 17:04:02 4.8 C 4.69 g/m*3 4.8 C 0 km/h
1225 11-03-2005 17:14:02 4.7 C 4.73 g/m*3 4.7 C 0 km/h
Sensor: Nr:Datum:Temp:Abs-Feuchte:Windchill:Wind:
Aussen-T/F 1226 11-03-2005 17:24:02 4.8 C 4.69 g/m*3 4.8 C 0 km/h
1227 11-03-2005 17:34:02 5 C 4.62 g/m*3 5 C 0 km/h
1228 11-03-2005 17:44:02 4.9 C 4.73 g/m*3 4.9 C 0 km/h
1229 11-03-2005 17:54:02 4.6 C 4.76 g/m*3 4.6 C 0 km/h
1230 11-03-2005 18:04:02 4.7 C 4.86 g/m*3 4.7 C 0 km/h
1231 11-03-2005 18:14:02 4.7 C 4.86 g/m*3 4.7 C 0 km/h
1232 11-03-2005 18:24:02 4.5 C 4.93 g/m*3 4.5 C 0 km/h
1233 11-03-2005 18:34:02 4.4 C 4.96 g/m*3 4.4 C 0 km/h
1234 11-03-2005 18:44:02 4.6 C 4.9 g/m*3 4.6 C 0 km/h
1235 11-03-2005 18:54:01 4.5 C 4.8 g/m*3 4.5 C 0 km/h
1236 11-03-2005 19:04:02 4.6 C 4.83 g/m*3 4.6 C 0 km/h
1237 11-03-2005 19:14:02 4.5 C 4.8 g/m*3 4.5 C 0 km/h
1238 11-03-2005 19:24:02 4.8 C 4.9 g/m*3 4.8 C 0 km/h
1239 11-03-2005 19:34:02 5 C 4.76 g/m*3 5 C 0 km/h
1240 11-03-2005 19:44:02 5.1 C 4.65 g/m*3 5.1 C 0 km/h
1241 11-03-2005 19:54:02 5.1 C 4.65 g/m*3 5.1 C 0 km/h
1242 11-03-2005 20:04:02 5 C 4.76 g/m*3 5 C 0 km/h
1243 11-03-2005 20:14:02 4.8 C 4.83 g/m*3 4.8 C 0 km/h
1244 11-03-2005 20:24:02 4.9 C 4.79 g/m*3 4.9 C 0 km/h
1245 11-03-2005 20:34:02 5.2 C 4.61 g/m*3 5.2 C 0 km/h
1246 11-03-2005 20:44:02 5.1 C 4.51 g/m*3 5.1 C 0 km/h
1247 11-03-2005 20:54:02 5.1 C 4.51 g/m*3 5.1 C 0 km/h
1248 11-03-2005 21:04:03 5.1 C 4.45 g/m*3 5.1 C 0 km/h
1249 11-03-2005 21:14:03 5.1 C 4.45 g/m*3 5.1 C 0 km/h
1250 11-03-2005 21:24:03 5 C 4.48 g/m*3 5 C 0 km/h
Sensor: Nr:Datum:Temp:Abs-Feuchte:Windchill:Wind:
Aussen-T/F 1251 11-03-2005 21:34:03 5 C 4.48 g/m*3 5 C 0 km/h
1252 11-03-2005 21:44:03 4.8 C 4.56 g/m*3 4.8 C 0 km/h
1253 11-03-2005 21:54:02 4.7 C 4.53 g/m*3 4.7 C 0 km/h
1254 11-03-2005 22:04:02 4.7 C 4.53 g/m*3 4.7 C 0 km/h
1255 11-03-2005 22:14:02 4.7 C 4.53 g/m*3 4.7 C 0 km/h
1256 11-03-2005 22:24:02 4.5 C 4.6 g/m*3 4.5 C 0 km/h
1257 11-03-2005 22:34:02 4.5 C 4.6 g/m*3 4.5 C 0 km/h
1258 11-03-2005 22:44:02 4.4 C 4.64 g/m*3 4.4 C 0 km/h
1259 11-03-2005 22:54:02 4.3 C 4.67 g/m*3 4.3 C 0 km/h
1260 11-03-2005 23:04:03 4.3 C 4.74 g/m*3 4.3 C 0 km/h
1261 11-03-2005 23:14:03 4 C 4.83 g/m*3 4 C 0 km/h
1262 11-03-2005 23:24:02 3.9 C 4.93 g/m*3 3.9 C 0 km/h
1263 11-03-2005 23:34:02 3.8 C 4.96 g/m*3 3.8 C 0 km/h
1264 11-03-2005 23:44:02 3.8 C 4.96 g/m*3 3.8 C 0 km/h
1265 11-03-2005 23:54:01 3.9 C 4.93 g/m*3 3.9 C 0 km/h
1266 12-03-2005 00:04:01 4 C 4.83 g/m*3 4 C 0 km/h
1267 12-03-2005 00:14:01 4 C 4.83 g/m*3 4 C 0 km/h
1268 12-03-2005 00:24:03 4 C 4.83 g/m*3 4 C 0 km/h
1269 12-03-2005 00:34:01 2.1 C 4.31 g/m*3 2.1 C 0 km/h
1270 12-03-2005 00:44:01 1.4 C 4.32 g/m*3 1.4 C 0 km/h
1271 12-03-2005 00:54:02 1 C 4.31 g/m*3 1 C 0 km/h
1272 12-03-2005 01:04:01 0.9 C 4.38 g/m*3 0.9 C 0 km/h
1273 12-03-2005 01:14:01 0.9 C 4.43 g/m*3 0.9 C 0 km/h
1274 12-03-2005 01:24:02 1 C 4.46 g/m*3 1 C 0 km/h
1275 12-03-2005 01:34:02 1 C 4.46 g/m*3 1 C 0 km/h
Sensor: Nr:Datum:Temp:Abs-Feuchte:Windchill:Wind:
Aussen-T/F 1276 12-03-2005 01:44:02 1.1 C 4.49 g/m*3 1.1 C 0 km/h
1277 12-03-2005 01:54:02 1.1 C 4.55 g/m*3 1.1 C 0 km/h
1278 12-03-2005 02:04:02 1.1 C 4.55 g/m*3 1.1 C 0 km/h
1279 12-03-2005 02:14:02 1.1 C 4.55 g/m*3 1.1 C 0 km/h
1280 12-03-2005 02:24:02 1.2 C 4.63 g/m*3 1.2 C 0 km/h
1281 12-03-2005 02:34:02 1.4 C 4.64 g/m*3 1.4 C 0 km/h
1282 12-03-2005 02:44:02 1.3 C 4.56 g/m*3 1.3 C 0 km/h
1283 12-03-2005 02:55:04 1.4 C 4.53 g/m*3 1.4 C 0 km/h
1284 12-03-2005 03:05:04 1.4 C 4.48 g/m*3 1.4 C 0 km/h
1285 12-03-2005 03:15:04 1.4 C 4.43 g/m*3 1.4 C 0 km/h
1286 12-03-2005 03:25:04 1.5 C 4.46 g/m*3 1.5 C 0 km/h
1287 12-03-2005 03:35:02 1.5 C 4.46 g/m*3 1.5 C 0 km/h
1288 12-03-2005 03:45:02 1.4 C 4.48 g/m*3 1.4 C 0 km/h
1289 12-03-2005 03:55:02 1.4 C 4.48 g/m*3 1.4 C 0 km/h
1290 12-03-2005 04:05:02 1.4 C 4.43 g/m*3 1.4 C 0 km/h
1291 12-03-2005 04:15:02 1.3 C 4.34 g/m*3 1.3 C 0 km/h
1292 12-03-2005 04:25:02 1.2 C 4.31 g/m*3 1.2 C 0 km/h
1293 12-03-2005 04:35:02 1.2 C 4.26 g/m*3 1.2 C 0 km/h
1294 12-03-2005 04:45:02 1.1 C 4.29 g/m*3 1.1 C 0 km/h
1295 12-03-2005 04:55:02 1 C 4.26 g/m*3 1 C 0 km/h
1296 12-03-2005 05:05:01 1.1 C 4.34 g/m*3 1.1 C 0 km/h
1297 12-03-2005 05:15:01 1 C 4.26 g/m*3 1 C 0 km/h
1298 12-03-2005 05:25:01 1.2 C 4.37 g/m*3 1.2 C 0 km/h
1299 12-03-2005 05:35:02 1.1 C 4.34 g/m*3 1.1 C 0 km/h
1300 12-03-2005 05:45:02 1.1 C 4.39 g/m*3 1.1 C 0 km/h
Sensor: Nr:Datum:Temp:Abs-Feuchte:Windchill:Wind:
Aussen-T/F 1301 12-03-2005 05:55:02 1 C 4.36 g/m*3 1 C 0 km/h
1302 12-03-2005 06:05:02 0.9 C 4.38 g/m*3 0.9 C 0 km/h
1303 12-03-2005 06:15:02 1 C 4.41 g/m*3 1 C 0 km/h
1304 12-03-2005 06:25:02 1 C 4.41 g/m*3 1 C 0 km/h
1305 12-03-2005 06:35:02 1 C 4.41 g/m*3 1 C 0 km/h
1306 12-03-2005 06:45:02 1 C 4.41 g/m*3 1 C 0 km/h
1307 12-03-2005 06:55:02 1.1 C 4.44 g/m*3 1.1 C 0 km/h
1308 12-03-2005 07:05:02 1.3 C 4.5 g/m*3 1.3 C 0 km/h
1309 12-03-2005 07:15:02 1.5 C 4.46 g/m*3 1.5 C 0 km/h
1310 12-03-2005 07:25:02 1.6 C 4.43 g/m*3 1.6 C 0 km/h
1311 12-03-2005 07:35:02 1.7 C 4.46 g/m*3 1.7 C 0 km/h
1312 12-03-2005 07:45:03 1.8 C 4.44 g/m*3 1.8 C 0 km/h
1313 12-03-2005 07:55:03 1.8 C 4.44 g/m*3 1.8 C 0 km/h
1314 12-03-2005 08:05:02 1.9 C 4.42 g/m*3 1.9 C 0 km/h
1315 12-03-2005 08:15:02 1.9 C 4.36 g/m*3 1.9 C 0 km/h
1316 12-03-2005 08:25:02 2 C 4.28 g/m*3 2 C 0 km/h
1317 12-03-2005 08:35:02 2 C 4.28 g/m*3 2 C 0 km/h
1318 12-03-2005 08:45:01 2.1 C 4.2 g/m*3 2.1 C 0 km/h
1319 12-03-2005 08:55:01 2.4 C 4.23 g/m*3 2.4 C 0 km/h
1320 12-03-2005 09:05:02 2.4 C 4.17 g/m*3 2.4 C 0 km/h
1321 12-03-2005 09:15:02 2.4 C 4.17 g/m*3 2.4 C 0 km/h
1322 12-03-2005 09:25:02 2.1 C 4.14 g/m*3 2.1 C 0 km/h
1323 12-03-2005 09:35:04 1.9 C 4.3 g/m*3 1.9 C 0 km/h
1324 12-03-2005 09:45:02 1.9 C 4.42 g/m*3 1.9 C 0 km/h
1325 12-03-2005 09:55:02 2 C 4.45 g/m*3 2 C 0 km/h
Sensor: Nr:Datum:Temp:Abs-Feuchte:Windchill:Wind:
Aussen-T/F 1326 12-03-2005 10:05:02 2.1 C 4.53 g/m*3 2.1 C 0 km/h
1327 12-03-2005 10:15:02 2.4 C 4.62 g/m*3 2.4 C 0 km/h
1328 12-03-2005 10:25:02 2.4 C 4.62 g/m*3 2.4 C 0 km/h
1329 12-03-2005 10:35:02 2.7 C 4.72 g/m*3 2.7 C 0 km/h
1330 12-03-2005 10:45:03 2.7 C 4.66 g/m*3 2.7 C 0 km/h
1331 12-03-2005 10:55:03 3.2 C 4.76 g/m*3 3.2 C 0 km/h
1332 12-03-2005 11:05:03 3.6 C 4.58 g/m*3 3.6 C 0 km/h
1333 12-03-2005 11:15:04 4 C 4.51 g/m*3 4 C 0 km/h
1334 12-03-2005 11:25:05 4 C 4.51 g/m*3 4 C 0 km/h
1335 12-03-2005 11:35:04 4 C 4.39 g/m*3 4 C 0 km/h
1336 12-03-2005 11:45:04 4 C 4.39 g/m*3 4 C 0 km/h
1337 12-03-2005 11:55:04 4.4 C 3.72 g/m*3 4.4 C 0 km/h
1338 12-03-2005 12:05:05 4.8 C 3.55 g/m*3 4.8 C 0 km/h
1339 12-03-2005 12:15:05 4.8 C 3.42 g/m*3 4.8 C 0 km/h
1340 12-03-2005 12:25:05 4.8 C 3.29 g/m*3 4.8 C 0 km/h
1341 12-03-2005 12:35:05 4.7 C 3.33 g/m*3 4.7 C 0 km/h
1342 12-03-2005 12:45:04 4.4 C 3.59 g/m*3 4.4 C 0 km/h
1343 12-03-2005 12:55:05 2.6 C 3.99 g/m*3 2.6 C 0 km/h
1344 12-03-2005 13:05:03 2.3 C 4.14 g/m*3 2.3 C 0 km/h
1345 12-03-2005 13:15:06 2.7 C 4.08 g/m*3 2.7 C 0 km/h
1346 12-03-2005 13:25:06 3.3 C 4.19 g/m*3 3.3 C 0 km/h
1347 12-03-2005 13:35:06 4.2 C 4.06 g/m*3 4.2 C 0 km/h
1348 12-03-2005 13:45:02 4.7 C 4.06 g/m*3 4.7 C 0 km/h
1349 12-03-2005 13:55:02 5 C 3.81 g/m*3 5 C 0 km/h
1350 12-03-2005 14:05:04 5.3 C 3.81 g/m*3 5.3 C 0 km/h
Sensor: Nr:Datum:Temp:Abs-Feuchte:Windchill:Wind:
Aussen-T/F 1351 12-03-2005 14:15:03 5 C 3.74 g/m*3 5 C 0 km/h
1352 12-03-2005 14:25:03 4.8 C 3.49 g/m*3 4.8 C 0 km/h
1353 12-03-2005 14:35:02 3.4 C 4.09 g/m*3 3.4 C 0 km/h
1354 12-03-2005 14:45:02 3.5 C 4.18 g/m*3 3.5 C 0 km/h
1355 12-03-2005 14:55:02 3.7 C 4.05 g/m*3 3.7 C 0 km/h
1356 12-03-2005 15:05:03 4.4 C 4.05 g/m*3 4.4 C 0 km/h
1357 12-03-2005 15:15:03 4.7 C 3.66 g/m*3 4.7 C 0 km/h
1358 12-03-2005 15:25:03 5.4 C 3.63 g/m*3 5.4 C 0 km/h
1359 12-03-2005 15:35:03 6.2 C 3.31 g/m*3 6.2 C 0 km/h
1360 12-03-2005 15:45:04 5.6 C 3.25 g/m*3 5.6 C 0 km/h
1361 12-03-2005 15:55:04 5.4 C 3.35 g/m*3 5.4 C 0 km/h
1362 12-03-2005 16:05:04 5.7 C 3.2 g/m*3 5.7 C 0 km/h
1363 12-03-2005 16:15:04 6 C 3.05 g/m*3 6 C 0 km/h
1364 12-03-2005 16:25:04 6.6 C 3.1 g/m*3 6.6 C 0 km/h
1365 12-03-2005 16:35:04 5.9 C 2.96 g/m*3 5.9 C 0 km/h
1366 12-03-2005 16:45:02 5.9 C 3.03 g/m*3 5.9 C 0 km/h
1367 12-03-2005 16:55:02 6.1 C 3 g/m*3 6.1 C 0 km/h
1368 12-03-2005 17:05:03 6.2 C 3.09 g/m*3 6.2 C 0 km/h
1369 12-03-2005 17:15:02 5.5 C 3.09 g/m*3 5.5 C 0 km/h
1370 12-03-2005 17:25:02 5.7 C 3.06 g/m*3 5.7 C 0 km/h
1371 12-03-2005 17:35:02 5.7 C 3.06 g/m*3 5.7 C 0 km/h
1372 12-03-2005 17:45:01 5.6 C 3.18 g/m*3 5.6 C 0 km/h
1373 12-03-2005 17:55:01 5.5 C 3.16 g/m*3 5.5 C 0 km/h
1374 12-03-2005 18:05:01 5 C 3.13 g/m*3 5 C 0 km/h
1375 12-03-2005 18:15:02 4.6 C 3.18 g/m*3 4.6 C 0 km/h
Sensor: Nr:Datum:Temp:Abs-Feuchte:Windchill:Wind:
Aussen-T/F 1376 12-03-2005 18:25:02 4.1 C 3.2 g/m*3 4.1 C 0 km/h
1377 12-03-2005 18:35:02 3.8 C 3.2 g/m*3 3.8 C 0 km/h
1378 12-03-2005 18:45:02 3.8 C 3.2 g/m*3 3.8 C 0 km/h
1379 12-03-2005 18:55:02 3.8 C 3.2 g/m*3 3.8 C 0 km/h
1380 12-03-2005 19:05:02 3.7 C 3.24 g/m*3 3.7 C 0 km/h
1381 12-03-2005 19:15:02 3.5 C 3.26 g/m*3 3.5 C 0 km/h
1382 12-03-2005 19:25:02 3.4 C 3.24 g/m*3 3.4 C 0 km/h
1383 12-03-2005 19:35:02 3.3 C 3.28 g/m*3 3.3 C 0 km/h
1384 12-03-2005 19:45:02 3.3 C 3.22 g/m*3 3.3 C 0 km/h
1385 12-03-2005 19:55:02 3.1 C 3.23 g/m*3 3.1 C 0 km/h
1386 12-03-2005 20:05:02 3.1 C 3.23 g/m*3 3.1 C 0 km/h
1387 12-03-2005 20:15:03 3.1 C 3.23 g/m*3 3.1 C 0 km/h
1388 12-03-2005 20:25:03 3.1 C 3.29 g/m*3 3.1 C 0 km/h
1389 12-03-2005 20:35:02 3 C 3.33 g/m*3 3 C 0 km/h
1390 12-03-2005 20:45:02 3 C 3.33 g/m*3 3 C 0 km/h
1391 12-03-2005 20:55:02 3 C 3.45 g/m*3 3 C 0 km/h
1392 12-03-2005 21:05:02 2.7 C 3.61 g/m*3 2.7 C 0 km/h
1393 12-03-2005 21:15:02 2.6 C 3.88 g/m*3 2.6 C 0 km/h
1394 12-03-2005 21:25:02 2.6 C 3.88 g/m*3 2.6 C 0 km/h
1395 12-03-2005 21:35:02 2.6 C 3.88 g/m*3 2.6 C 0 km/h
1396 12-03-2005 21:45:02 2.7 C 3.9 g/m*3 2.7 C 0 km/h
1397 12-03-2005 21:55:02 2.8 C 3.87 g/m*3 2.8 C 0 km/h
1398 12-03-2005 22:05:02 3.1 C 3.83 g/m*3 3.1 C 0 km/h
1399 12-03-2005 22:15:02 3.2 C 3.86 g/m*3 3.2 C 0 km/h
1400 12-03-2005 22:25:02 3.3 C 3.82 g/m*3 3.3 C 0 km/h
Sensor: Nr:Datum:Temp:Abs-Feuchte:Windchill:Wind:
Aussen-T/F 1401 12-03-2005 22:35:02 3.6 C 3.84 g/m*3 3.6 C 0 km/h
1402 12-03-2005 22:45:01 3.6 C 3.78 g/m*3 3.6 C 0 km/h
1403 12-03-2005 22:55:01 3.7 C 3.8 g/m*3 3.7 C 0 km/h
1404 12-03-2005 23:05:02 3.7 C 3.8 g/m*3 3.7 C 0 km/h
1405 12-03-2005 23:15:02 3.7 C 3.86 g/m*3 3.7 C 0 km/h
1406 12-03-2005 23:25:02 3.7 C 3.86 g/m*3 3.7 C 0 km/h
1407 12-03-2005 23:35:01 3.8 C 3.83 g/m*3 3.8 C 0 km/h
1408 12-03-2005 23:45:01 3.8 C 3.89 g/m*3 3.8 C 0 km/h
1409 12-03-2005 23:55:01 3.8 C 3.89 g/m*3 3.8 C 0 km/h
1410 13-03-2005 00:05:02 3.8 C 3.89 g/m*3 3.8 C 0 km/h
1411 13-03-2005 00:15:03 3.7 C 3.86 g/m*3 3.7 C 0 km/h
1412 13-03-2005 00:25:03 3.7 C 3.8 g/m*3 3.7 C 0 km/h
1413 13-03-2005 00:35:01 3.7 C 3.74 g/m*3 3.7 C 0 km/h
1414 13-03-2005 00:45:03 3.6 C 3.71 g/m*3 3.6 C 0 km/h
1415 13-03-2005 00:55:03 3.4 C 3.66 g/m*3 3.4 C 0 km/h
1416 13-03-2005 01:05:02 3.3 C 3.64 g/m*3 3.3 C 0 km/h
1417 13-03-2005 01:15:03 3.2 C 3.62 g/m*3 3.2 C 0 km/h
1418 13-03-2005 01:25:03 3.2 C 3.62 g/m*3 3.2 C 0 km/h
1419 13-03-2005 01:35:02 3.2 C 3.68 g/m*3 3.2 C 0 km/h
1420 13-03-2005 01:45:03 3.1 C 3.65 g/m*3 3.1 C 0 km/h
1421 13-03-2005 01:55:03 3.1 C 3.65 g/m*3 3.1 C 0 km/h
1422 13-03-2005 02:05:02 3.1 C 3.71 g/m*3 3.1 C 0 km/h
1423 13-03-2005 02:15:03 3.1 C 3.77 g/m*3 3.1 C 0 km/h
1424 13-03-2005 02:25:03 3.1 C 3.77 g/m*3 3.1 C 0 km/h
1425 13-03-2005 02:35:03 3.2 C 3.74 g/m*3 3.2 C 0 km/h
Sensor: Nr:Datum:Temp:Abs-Feuchte:Windchill:Wind:
Aussen-T/F 1426 13-03-2005 02:46:04 3.2 C 3.74 g/m*3 3.2 C 0 km/h
1427 13-03-2005 02:56:04 3.2 C 3.68 g/m*3 3.2 C 0 km/h
1428 13-03-2005 03:06:04 3.1 C 3.71 g/m*3 3.1 C 0 km/h
1429 13-03-2005 03:16:04 3.1 C 3.71 g/m*3 3.1 C 0 km/h
1430 13-03-2005 03:26:04 3.1 C 3.71 g/m*3 3.1 C 0 km/h
1431 13-03-2005 03:36:01 3.1 C 3.65 g/m*3 3.1 C 0 km/h
1432 13-03-2005 03:46:01 3.1 C 3.65 g/m*3 3.1 C 0 km/h
1433 13-03-2005 03:56:01 3 C 3.63 g/m*3 3 C 0 km/h
1434 13-03-2005 04:06:02 2.9 C 3.66 g/m*3 2.9 C 0 km/h
1435 13-03-2005 04:16:02 2.9 C 3.66 g/m*3 2.9 C 0 km/h
1436 13-03-2005 04:26:02 3 C 3.63 g/m*3 3 C 0 km/h
1437 13-03-2005 04:36:02 3 C 3.63 g/m*3 3 C 0 km/h
1438 13-03-2005 04:46:02 2.8 C 3.75 g/m*3 2.8 C 0 km/h
1439 13-03-2005 04:56:02 2.4 C 3.83 g/m*3 2.4 C 0 km/h
1440 13-03-2005 05:06:02 2.2 C 3.89 g/m*3 2.2 C 0 km/h
1441 13-03-2005 05:16:02 2.3 C 3.86 g/m*3 2.3 C 0 km/h
1442 13-03-2005 05:26:02 2.4 C 3.83 g/m*3 2.4 C 0 km/h
1443 13-03-2005 05:36:02 2.5 C 3.79 g/m*3 2.5 C 0 km/h
1444 13-03-2005 05:46:01 2.5 C 3.79 g/m*3 2.5 C 0 km/h
1445 13-03-2005 05:56:01 2.5 C 3.79 g/m*3 2.5 C 0 km/h
1446 13-03-2005 06:06:02 2.5 C 3.74 g/m*3 2.5 C 0 km/h
1447 13-03-2005 06:16:02 2.6 C 3.76 g/m*3 2.6 C 0 km/h
1448 13-03-2005 06:26:03 2.6 C 3.76 g/m*3 2.6 C 0 km/h
1449 13-03-2005 06:36:01 2.6 C 3.82 g/m*3 2.6 C 0 km/h
1450 13-03-2005 06:46:01 2.4 C 3.88 g/m*3 2.4 C 0 km/h
Sensor: Nr:Datum:Temp:Abs-Feuchte:Windchill:Wind:
Aussen-T/F 1451 13-03-2005 06:56:01 2.3 C 3.97 g/m*3 2.3 C 0 km/h
1452 13-03-2005 07:06:02 2.1 C 4.03 g/m*3 2.1 C 0 km/h
1453 13-03-2005 07:16:02 2 C 4.06 g/m*3 2 C 0 km/h
1454 13-03-2005 07:26:02 2 C 4.06 g/m*3 2 C 0 km/h
1455 13-03-2005 07:36:01 2.1 C 4.03 g/m*3 2.1 C 0 km/h
1456 13-03-2005 07:46:02 2.2 C 4.06 g/m*3 2.2 C 0 km/h
1457 13-03-2005 07:56:02 2.5 C 4.14 g/m*3 2.5 C 0 km/h
1458 13-03-2005 08:06:02 2.5 C 4.08 g/m*3 2.5 C 0 km/h
1459 13-03-2005 08:16:01 2.6 C 4.05 g/m*3 2.6 C 0 km/h
1460 13-03-2005 08:26:01 2.6 C 4.05 g/m*3 2.6 C 0 km/h
1461 13-03-2005 08:36:01 2.7 C 4.14 g/m*3 2.7 C 0 km/h
1462 13-03-2005 08:46:02 2.7 C 4.14 g/m*3 2.7 C 0 km/h
1463 13-03-2005 08:56:02 2.9 C 4.13 g/m*3 2.9 C 0 km/h
1464 13-03-2005 09:06:03 3.3 C 4.13 g/m*3 3.3 C 0 km/h
1465 13-03-2005 09:16:04 3.3 C 4.06 g/m*3 3.3 C 0 km/h
1466 13-03-2005 09:26:04 3.5 C 4.12 g/m*3 3.5 C 0 km/h
1467 13-03-2005 09:36:02 3.8 C 4.08 g/m*3 3.8 C 0 km/h
1468 13-03-2005 09:46:01 4 C 4.07 g/m*3 4 C 0 km/h
1469 13-03-2005 09:56:01 4.4 C 4.05 g/m*3 4.4 C 0 km/h
1470 13-03-2005 10:06:01 4.8 C 4.09 g/m*3 4.8 C 0 km/h
1471 13-03-2005 10:16:02 5 C 4.01 g/m*3 5 C 0 km/h
1472 13-03-2005 10:26:02 5.4 C 3.98 g/m*3 5.4 C 0 km/h
1473 13-03-2005 10:36:02 5.7 C 3.91 g/m*3 5.7 C 0 km/h
1474 13-03-2005 10:46:02 5.9 C 3.75 g/m*3 5.9 C 0 km/h
1475 13-03-2005 10:56:02 6 C 3.7 g/m*3 6 C 0 km/h
Sensor: Nr:Datum:Temp:Abs-Feuchte:Windchill:Wind:
Aussen-T/F 1476 13-03-2005 11:06:02 6.3 C 3.7 g/m*3 6.3 C 0 km/h
1477 13-03-2005 11:16:02 6.7 C 3.72 g/m*3 6.7 C 0 km/h
1478 13-03-2005 11:26:02 6.8 C 3.75 g/m*3 6.8 C 0 km/h
1479 13-03-2005 11:36:03 7.1 C 3.59 g/m*3 7.1 C 0 km/h
1480 13-03-2005 11:46:02 6.8 C 3.44 g/m*3 6.8 C 0 km/h
1481 13-03-2005 11:56:02 7.1 C 3.51 g/m*3 7.1 C 0 km/h
1482 13-03-2005 12:06:02 7.3 C 3.32 g/m*3 7.3 C 0 km/h
1483 13-03-2005 12:16:03 7.4 C 3.18 g/m*3 7.4 C 0 km/h
1484 13-03-2005 12:26:03 7.3 C 3.24 g/m*3 7.3 C 0 km/h
1485 13-03-2005 12:36:02 7 C 3.18 g/m*3 7 C 0 km/h
1486 13-03-2005 12:46:02 7.3 C 3.16 g/m*3 7.3 C 0 km/h
1487 13-03-2005 12:56:02 7.7 C 3.08 g/m*3 7.7 C 0 km/h
1488 13-03-2005 13:06:02 7.6 C 2.9 g/m*3 7.6 C 0 km/h
1489 13-03-2005 13:16:02 7.8 C 2.86 g/m*3 7.8 C 0 km/h
1490 13-03-2005 13:26:03 7.4 C 2.39 g/m*3 7.4 C 0 km/h
1491 13-03-2005 13:36:01 7.1 C 2.5 g/m*3 7.1 C 0 km/h
1492 13-03-2005 13:46:02 7.1 C 2.73 g/m*3 7.1 C 0 km/h
1493 13-03-2005 13:56:02 7 C 2.79 g/m*3 7 C 0 km/h
1494 13-03-2005 14:06:02 7.1 C 2.89 g/m*3 7.1 C 0 km/h
1495 13-03-2005 14:16:02 7.1 C 2.81 g/m*3 7.1 C 0 km/h
1496 13-03-2005 14:26:02 7.1 C 2.65 g/m*3 7.1 C 0 km/h
1497 13-03-2005 14:36:02 7.3 C 2.61 g/m*3 7.3 C 0 km/h
1498 13-03-2005 14:46:01 7.4 C 2.62 g/m*3 7.4 C 0 km/h
1499 13-03-2005 14:56:01 7.4 C 2.54 g/m*3 7.4 C 0 km/h
1500 13-03-2005 15:06:02 7.1 C 2.65 g/m*3 7.1 C 0 km/h
Sensor: Nr:Datum:Temp:Abs-Feuchte:Windchill:Wind:
Aussen-T/F 1501 13-03-2005 15:16:01 7.1 C 2.73 g/m*3 7.1 C 0 km/h
1502 13-03-2005 15:26:01 7.1 C 2.81 g/m*3 7.1 C 0 km/h
1503 13-03-2005 15:36:01 7.6 C 2.98 g/m*3 7.6 C 0 km/h
1504 13-03-2005 15:46:02 8 C 2.98 g/m*3 8 C 0 km/h
1505 13-03-2005 15:56:02 8.4 C 3.14 g/m*3 8.4 C 0 km/h
1506 13-03-2005 16:06:03 7.7 C 3 g/m*3 7.7 C 0 km/h
1507 13-03-2005 16:16:02 7.5 C 3.04 g/m*3 7.5 C 0 km/h
1508 13-03-2005 16:26:02 7.3 C 3.08 g/m*3 7.3 C 0 km/h
1509 13-03-2005 16:36:02 7.3 C 3.16 g/m*3 7.3 C 0 km/h
1510 13-03-2005 16:46:02 7.2 C 3.14 g/m*3 7.2 C 0 km/h
1511 13-03-2005 16:56:02 7.4 C 3.18 g/m*3 7.4 C 0 km/h
1512 13-03-2005 17:06:02 7.3 C 3.08 g/m*3 7.3 C 0 km/h
1513 13-03-2005 17:16:02 7.1 C 2.96 g/m*3 7.1 C 0 km/h
1514 13-03-2005 17:26:02 7.1 C 3.04 g/m*3 7.1 C 0 km/h
1515 13-03-2005 17:36:02 7.1 C 3.04 g/m*3 7.1 C 0 km/h
1516 13-03-2005 17:46:02 6.7 C 3.04 g/m*3 6.7 C 0 km/h
1517 13-03-2005 17:56:02 6.5 C 2.92 g/m*3 6.5 C 0 km/h
1518 13-03-2005 18:06:02 6.2 C 3.02 g/m*3 6.2 C 0 km/h
1519 13-03-2005 18:16:02 6.1 C 3 g/m*3 6.1 C 0 km/h
1520 13-03-2005 18:26:02 6 C 3.05 g/m*3 6 C 0 km/h
1521 13-03-2005 18:36:03 6 C 3.05 g/m*3 6 C 0 km/h
1522 13-03-2005 18:46:02 5.9 C 3.1 g/m*3 5.9 C 0 km/h
1523 13-03-2005 18:56:02 5.8 C 3.08 g/m*3 5.8 C 0 km/h
1524 13-03-2005 19:06:02 5.8 C 3.08 g/m*3 5.8 C 0 km/h
1525 13-03-2005 19:16:02 5.7 C 3.13 g/m*3 5.7 C 0 km/h
Sensor: Nr:Datum:Temp:Abs-Feuchte:Windchill:Wind:
Aussen-T/F 1526 13-03-2005 19:26:02 5.6 C 3.18 g/m*3 5.6 C 0 km/h
1527 13-03-2005 19:36:02 5.6 C 3.25 g/m*3 5.6 C 0 km/h
1528 13-03-2005 19:46:02 5.5 C 3.16 g/m*3 5.5 C 0 km/h
1529 13-03-2005 19:56:02 5.4 C 3.21 g/m*3 5.4 C 0 km/h
1530 13-03-2005 20:06:03 5.4 C 3.14 g/m*3 5.4 C 0 km/h
1531 13-03-2005 20:16:03 5.4 C 3.28 g/m*3 5.4 C 0 km/h
1532 13-03-2005 20:26:03 5.3 C 3.26 g/m*3 5.3 C 0 km/h
1533 13-03-2005 20:36:03 5.2 C 3.37 g/m*3 5.2 C 0 km/h
1534 13-03-2005 20:46:02 5.1 C 3.42 g/m*3 5.1 C 0 km/h
1535 13-03-2005 20:56:02 4.9 C 3.58 g/m*3 4.9 C 0 km/h
1536 13-03-2005 21:06:03 4.8 C 3.69 g/m*3 4.8 C 0 km/h
1537 13-03-2005 21:16:02 4.8 C 3.69 g/m*3 4.8 C 0 km/h
1538 13-03-2005 21:26:02 4.7 C 3.6 g/m*3 4.7 C 0 km/h
1539 13-03-2005 21:36:02 4.6 C 3.51 g/m*3 4.6 C 0 km/h
1540 13-03-2005 21:46:02 4.6 C 3.57 g/m*3 4.6 C 0 km/h
1541 13-03-2005 21:56:02 4.6 C 3.71 g/m*3 4.6 C 0 km/h
1542 13-03-2005 22:06:03 4.5 C 3.68 g/m*3 4.5 C 0 km/h
1543 13-03-2005 22:16:02 4.5 C 3.68 g/m*3 4.5 C 0 km/h
1544 13-03-2005 22:26:02 4.5 C 3.68 g/m*3 4.5 C 0 km/h
1545 13-03-2005 22:36:02 4.4 C 3.72 g/m*3 4.4 C 0 km/h
1546 13-03-2005 22:46:01 4.4 C 3.72 g/m*3 4.4 C 0 km/h
1547 13-03-2005 22:56:01 4.3 C 3.7 g/m*3 4.3 C 0 km/h
1548 13-03-2005 23:06:02 4.3 C 3.76 g/m*3 4.3 C 0 km/h
1549 13-03-2005 23:16:01 4.2 C 3.8 g/m*3 4.2 C 0 km/h
1550 13-03-2005 23:26:01 4.2 C 3.8 g/m*3 4.2 C 0 km/h
Sensor: Nr:Datum:Temp:Abs-Feuchte:Windchill:Wind:
Aussen-T/F 1551 13-03-2005 23:36:01 4.2 C 3.8 g/m*3 4.2 C 0 km/h
1552 13-03-2005 23:46:01 4.2 C 3.67 g/m*3 4.2 C 0 km/h
1553 13-03-2005 23:56:01 4.2 C 3.74 g/m*3 4.2 C 0 km/h
1554 14-03-2005 00:06:02 4.1 C 3.71 g/m*3 4.1 C 0 km/h
1555 14-03-2005 00:16:03 4.1 C 3.71 g/m*3 4.1 C 0 km/h
1556 14-03-2005 00:26:04 4.1 C 3.65 g/m*3 4.1 C 0 km/h
1557 14-03-2005 00:36:02 4.1 C 3.65 g/m*3 4.1 C 0 km/h
1558 14-03-2005 00:46:02 4.1 C 3.71 g/m*3 4.1 C 0 km/h
1559 14-03-2005 00:56:02 4 C 3.69 g/m*3 4 C 0 km/h
1560 14-03-2005 01:06:02 4 C 3.69 g/m*3 4 C 0 km/h
1561 14-03-2005 01:16:03 3.9 C 3.73 g/m*3 3.9 C 0 km/h
1562 14-03-2005 01:26:03 3.9 C 3.79 g/m*3 3.9 C 0 km/h
1563 14-03-2005 01:36:02 3.8 C 3.76 g/m*3 3.8 C 0 km/h
1564 14-03-2005 01:46:02 3.8 C 3.76 g/m*3 3.8 C 0 km/h
1565 14-03-2005 01:56:02 3.7 C 3.8 g/m*3 3.7 C 0 km/h
1566 14-03-2005 02:06:02 3.7 C 3.8 g/m*3 3.7 C 0 km/h
1567 14-03-2005 02:16:02 3.6 C 3.78 g/m*3 3.6 C 0 km/h
1568 14-03-2005 02:26:02 3.6 C 3.78 g/m*3 3.6 C 0 km/h
1569 14-03-2005 02:36:02 3.6 C 3.78 g/m*3 3.6 C 0 km/h
1570 14-03-2005 02:47:03 3.6 C 3.78 g/m*3 3.6 C 0 km/h
1571 14-03-2005 02:57:03 3.6 C 3.78 g/m*3 3.6 C 0 km/h
1572 14-03-2005 03:07:03 3.6 C 3.84 g/m*3 3.6 C 0 km/h
1573 14-03-2005 03:17:03 3.5 C 3.81 g/m*3 3.5 C 0 km/h
1574 14-03-2005 03:27:03 3.5 C 3.81 g/m*3 3.5 C 0 km/h
1575 14-03-2005 03:37:02 3.6 C 3.84 g/m*3 3.6 C 0 km/h
Sensor: Nr:Datum:Temp:Abs-Feuchte:Windchill:Wind:
Aussen-T/F 1576 14-03-2005 03:47:02 3.6 C 3.78 g/m*3 3.6 C 0 km/h
1577 14-03-2005 03:57:02 3.5 C 3.81 g/m*3 3.5 C 0 km/h
1578 14-03-2005 04:07:02 3.4 C 3.85 g/m*3 3.4 C 0 km/h
1579 14-03-2005 04:17:02 3.4 C 3.85 g/m*3 3.4 C 0 km/h
1580 14-03-2005 04:27:02 3.4 C 3.85 g/m*3 3.4 C 0 km/h
1581 14-03-2005 04:37:02 3.4 C 3.85 g/m*3 3.4 C 0 km/h
1582 14-03-2005 04:47:02 3.5 C 3.87 g/m*3 3.5 C 0 km/h
1583 14-03-2005 04:57:02 3.5 C 3.81 g/m*3 3.5 C 0 km/h
1584 14-03-2005 05:07:02 3.4 C 3.79 g/m*3 3.4 C 0 km/h
1585 14-03-2005 05:17:03 3.4 C 3.79 g/m*3 3.4 C 0 km/h
1586 14-03-2005 05:27:03 3.4 C 3.85 g/m*3 3.4 C 0 km/h
1587 14-03-2005 05:37:02 3.4 C 3.79 g/m*3 3.4 C 0 km/h
1588 14-03-2005 05:47:03 3.4 C 3.79 g/m*3 3.4 C 0 km/h
1589 14-03-2005 05:57:03 3.4 C 3.79 g/m*3 3.4 C 0 km/h
1590 14-03-2005 06:07:03 3.4 C 3.79 g/m*3 3.4 C 0 km/h
1591 14-03-2005 06:17:03 3.3 C 3.76 g/m*3 3.3 C 0 km/h
1592 14-03-2005 06:27:03 3.4 C 3.73 g/m*3 3.4 C 0 km/h
1593 14-03-2005 06:37:02 3.4 C 3.66 g/m*3 3.4 C 0 km/h
1594 14-03-2005 06:47:02 3.5 C 3.69 g/m*3 3.5 C 0 km/h
1595 14-03-2005 06:57:02 3.4 C 3.66 g/m*3 3.4 C 0 km/h
1596 14-03-2005 07:07:02 3.4 C 3.66 g/m*3 3.4 C 0 km/h
1597 14-03-2005 07:17:02 3.4 C 3.66 g/m*3 3.4 C 0 km/h
1598 14-03-2005 07:27:02 3.5 C 3.69 g/m*3 3.5 C 0 km/h
1599 14-03-2005 07:37:02 3.4 C 3.66 g/m*3 3.4 C 0 km/h
1600 14-03-2005 07:47:02 3.5 C 3.69 g/m*3 3.5 C 0 km/h
Sensor: Nr:Datum:Temp:Abs-Feuchte:Windchill:Wind:
Aussen-T/F 1601 14-03-2005 07:57:02 3.5 C 3.69 g/m*3 3.5 C 0 km/h
1602 14-03-2005 08:07:03 3.6 C 3.71 g/m*3 3.6 C 0 km/h
1603 14-03-2005 08:17:02 3.7 C 3.68 g/m*3 3.7 C 0 km/h
1604 14-03-2005 08:27:02 3.8 C 3.7 g/m*3 3.8 C 0 km/h
1605 14-03-2005 08:37:02 4 C 3.56 g/m*3 4 C 0 km/h
1606 14-03-2005 08:47:01 4.2 C 3.54 g/m*3 4.2 C 0 km/h
1607 14-03-2005 08:57:01 4.3 C 3.44 g/m*3 4.3 C 0 km/h
1608 14-03-2005 09:07:02 4.4 C 3.46 g/m*3 4.4 C 0 km/h
1609 14-03-2005 09:17:02 4.5 C 3.48 g/m*3 4.5 C 0 km/h
1610 14-03-2005 09:27:02 4.8 C 3.49 g/m*3 4.8 C 0 km/h
1611 14-03-2005 09:37:02 4.9 C 3.44 g/m*3 4.9 C 0 km/h
1612 14-03-2005 09:47:02 5.2 C 3.44 g/m*3 5.2 C 0 km/h
1613 14-03-2005 09:57:02 5.5 C 3.37 g/m*3 5.5 C 0 km/h
1614 14-03-2005 10:07:02 5.7 C 3.34 g/m*3 5.7 C 0 km/h
1615 14-03-2005 10:17:02 5.9 C 3.32 g/m*3 5.9 C 0 km/h
1616 14-03-2005 10:27:02 6.3 C 3.33 g/m*3 6.3 C 0 km/h
1617 14-03-2005 10:37:02 6.4 C 3.2 g/m*3 6.4 C 0 km/h
1618 14-03-2005 10:47:02 6.5 C 3.22 g/m*3 6.5 C 0 km/h
1619 14-03-2005 10:57:02 6.6 C 3.17 g/m*3 6.6 C 0 km/h
1620 14-03-2005 11:07:02 6.9 C 3.16 g/m*3 6.9 C 0 km/h
1621 14-03-2005 11:17:02 7.1 C 3.2 g/m*3 7.1 C 0 km/h
1622 14-03-2005 11:27:02 7.3 C 3.16 g/m*3 7.3 C 0 km/h
1623 14-03-2005 11:37:02 7.3 C 3.16 g/m*3 7.3 C 0 km/h
1624 14-03-2005 11:47:02 7.6 C 3.3 g/m*3 7.6 C 0 km/h
1625 14-03-2005 11:57:02 8 C 3.31 g/m*3 8 C 0 km/h
Sensor: Nr:Datum:Temp:Abs-Feuchte:Windchill:Wind:
Aussen-T/F 1626 14-03-2005 12:07:02 8 C 3.31 g/m*3 8 C 0 km/h
1627 14-03-2005 12:17:02 8.1 C 3.33 g/m*3 8.1 C 0 km/h
1628 14-03-2005 12:27:02 8.5 C 3.24 g/m*3 8.5 C 0 km/h
1629 14-03-2005 12:37:02 8.6 C 3.35 g/m*3 8.6 C 0 km/h
1630 14-03-2005 12:47:01 8.8 C 3.31 g/m*3 8.8 C 0 km/h
1631 14-03-2005 12:57:01 8.6 C 3.18 g/m*3 8.6 C 0 km/h
1632 14-03-2005 13:07:02 8.9 C 3.24 g/m*3 8.9 C 0 km/h
1633 14-03-2005 13:17:02 8.6 C 3.09 g/m*3 8.6 C 0 km/h
1634 14-03-2005 13:27:02 9 C 3.17 g/m*3 9 C 0 km/h
1635 14-03-2005 13:37:01 9 C 3 g/m*3 9 C 0 km/h
1636 14-03-2005 13:47:01 8.6 C 3.01 g/m*3 8.6 C 0 km/h
1637 14-03-2005 13:57:01 8.6 C 3.01 g/m*3 8.6 C 0 km/h
1638 14-03-2005 14:07:02 8.7 C 2.94 g/m*3 8.7 C 0 km/h
1639 14-03-2005 14:17:02 8.6 C 2.84 g/m*3 8.6 C 0 km/h
1640 14-03-2005 14:27:02 9 C 2.82 g/m*3 9 C 0 km/h
1641 14-03-2005 14:37:02 9.1 C 2.66 g/m*3 9.1 C 0 km/h
1642 14-03-2005 14:47:02 9.1 C 2.48 g/m*3 9.1 C 0 km/h
1643 14-03-2005 14:57:02 9.2 C 2.68 g/m*3 9.2 C 0 km/h
1644 14-03-2005 15:07:02 9.3 C 2.7 g/m*3 9.3 C 0 km/h
1645 14-03-2005 15:17:02 9.5 C 2.73 g/m*3 9.5 C 0 km/h
1646 14-03-2005 15:27:03 9.3 C 2.7 g/m*3 9.3 C 0 km/h
1647 14-03-2005 15:37:02 9.1 C 2.66 g/m*3 9.1 C 0 km/h
1648 14-03-2005 15:47:01 9.3 C 2.7 g/m*3 9.3 C 0 km/h
1649 14-03-2005 15:57:01 9.2 C 2.68 g/m*3 9.2 C 0 km/h
1650 14-03-2005 16:07:02 9.2 C 2.77 g/m*3 9.2 C 0 km/h
Sensor: Nr:Datum:Temp:Abs-Feuchte:Windchill:Wind:
Aussen-T/F 1651 14-03-2005 16:17:01 9.2 C 2.77 g/m*3 9.2 C 0 km/h
1652 14-03-2005 16:27:02 8.9 C 2.72 g/m*3 8.9 C 0 km/h
1653 14-03-2005 16:37:01 8.8 C 2.7 g/m*3 8.8 C 0 km/h
1654 14-03-2005 16:47:01 8.8 C 2.87 g/m*3 8.8 C 0 km/h
1655 14-03-2005 16:57:01 8.7 C 2.77 g/m*3 8.7 C 0 km/h
1656 14-03-2005 17:07:02 8.6 C 2.84 g/m*3 8.6 C 0 km/h
1657 14-03-2005 17:17:02 8.6 C 2.84 g/m*3 8.6 C 0 km/h
1658 14-03-2005 17:27:02 8.5 C 2.9 g/m*3 8.5 C 0 km/h
1659 14-03-2005 17:37:01 8.4 C 2.97 g/m*3 8.4 C 0 km/h
1660 14-03-2005 17:47:02 8.4 C 3.14 g/m*3 8.4 C 0 km/h
1661 14-03-2005 17:57:02 8.1 C 3.49 g/m*3 8.1 C 0 km/h
1662 14-03-2005 18:07:02 7.8 C 3.59 g/m*3 7.8 C 0 km/h
1663 14-03-2005 18:17:02 7.5 C 3.6 g/m*3 7.5 C 0 km/h
1664 14-03-2005 18:27:02 7.1 C 3.59 g/m*3 7.1 C 0 km/h
1665 14-03-2005 18:37:02 6.9 C 3.54 g/m*3 6.9 C 0 km/h
1666 14-03-2005 18:47:02 6.6 C 3.4 g/m*3 6.6 C 0 km/h
1667 14-03-2005 18:57:02 6.5 C 3.37 g/m*3 6.5 C 0 km/h
1668 14-03-2005 19:07:03 6.5 C 3.45 g/m*3 6.5 C 0 km/h
1669 14-03-2005 19:17:02 6.4 C 3.5 g/m*3 6.4 C 0 km/h
1670 14-03-2005 19:27:03 6.4 C 3.5 g/m*3 6.4 C 0 km/h
1671 14-03-2005 19:37:02 6.1 C 3.58 g/m*3 6.1 C 0 km/h
1672 14-03-2005 19:47:01 6.1 C 3.51 g/m*3 6.1 C 0 km/h
1673 14-03-2005 19:57:01 6 C 3.56 g/m*3 6 C 0 km/h
1674 14-03-2005 20:07:02 5.9 C 3.68 g/m*3 5.9 C 0 km/h
1675 14-03-2005 20:17:02 5.9 C 3.61 g/m*3 5.9 C 0 km/h
Sensor: Nr:Datum:Temp:Abs-Feuchte:Windchill:Wind:
Aussen-T/F 1676 14-03-2005 20:27:02 5.9 C 3.68 g/m*3 5.9 C 0 km/h
1677 14-03-2005 20:37:01 5.9 C 3.53 g/m*3 5.9 C 0 km/h
1678 14-03-2005 20:47:02 5.8 C 3.58 g/m*3 5.8 C 0 km/h
1679 14-03-2005 20:57:02 5.8 C 3.8 g/m*3 5.8 C 0 km/h
1680 14-03-2005 21:07:02 5.7 C 3.77 g/m*3 5.7 C 0 km/h
1681 14-03-2005 21:17:01 5.6 C 3.75 g/m*3 5.6 C 0 km/h
1682 14-03-2005 21:27:01 5.5 C 3.65 g/m*3 5.5 C 0 km/h
1683 14-03-2005 21:37:02 5.4 C 3.77 g/m*3 5.4 C 0 km/h
1684 14-03-2005 21:47:01 5 C 3.67 g/m*3 5 C 0 km/h
1685 14-03-2005 21:57:01 4.7 C 3.66 g/m*3 4.7 C 0 km/h
1686 14-03-2005 22:07:02 4.5 C 3.68 g/m*3 4.5 C 0 km/h
1687 14-03-2005 22:17:02 4.4 C 3.53 g/m*3 4.4 C 0 km/h
1688 14-03-2005 22:27:02 4.4 C 3.4 g/m*3 4.4 C 0 km/h
1689 14-03-2005 22:37:01 4.4 C 3.4 g/m*3 4.4 C 0 km/h
1690 14-03-2005 22:47:02 4.3 C 3.44 g/m*3 4.3 C 0 km/h
1691 14-03-2005 22:57:02 4.2 C 3.54 g/m*3 4.2 C 0 km/h
1692 14-03-2005 23:07:02 4 C 3.56 g/m*3 4 C 0 km/h
1693 14-03-2005 23:17:02 3.8 C 3.58 g/m*3 3.8 C 0 km/h
1694 14-03-2005 23:27:02 3.8 C 3.58 g/m*3 3.8 C 0 km/h
1695 14-03-2005 23:37:02 3.9 C 3.6 g/m*3 3.9 C 0 km/h
1696 14-03-2005 23:47:01 4 C 3.5 g/m*3 4 C 0 km/h
1697 14-03-2005 23:57:01 4.3 C 3.5 g/m*3 4.3 C 0 km/h
1698 15-03-2005 00:07:01 4.4 C 3.46 g/m*3 4.4 C 0 km/h
1699 15-03-2005 00:17:02 4 C 3.56 g/m*3 4 C 0 km/h
1700 15-03-2005 00:27:02 4 C 3.5 g/m*3 4 C 0 km/h
Sensor: Nr:Datum:Temp:Abs-Feuchte:Windchill:Wind:
Aussen-T/F 1701 15-03-2005 00:37:01 3.9 C 3.54 g/m*3 3.9 C 0 km/h
1702 15-03-2005 00:47:03 3.7 C 3.55 g/m*3 3.7 C 0 km/h
1703 15-03-2005 00:57:03 3.5 C 3.57 g/m*3 3.5 C 0 km/h
1704 15-03-2005 01:07:02 3.3 C 3.58 g/m*3 3.3 C 0 km/h
1705 15-03-2005 01:17:03 3.3 C 3.64 g/m*3 3.3 C 0 km/h
1706 15-03-2005 01:27:03 3.3 C 3.64 g/m*3 3.3 C 0 km/h
1707 15-03-2005 01:37:03 3.4 C 3.54 g/m*3 3.4 C 0 km/h
1708 15-03-2005 01:47:02 3.1 C 3.59 g/m*3 3.1 C 0 km/h
1709 15-03-2005 01:57:02 3 C 3.63 g/m*3 3 C 0 km/h
1710 15-03-2005 02:07:02 3 C 3.63 g/m*3 3 C 0 km/h
1711 15-03-2005 02:17:02 2.9 C 3.72 g/m*3 2.9 C 0 km/h
1712 15-03-2005 02:27:02 2.9 C 3.66 g/m*3 2.9 C 0 km/h
1713 15-03-2005 02:37:02 2.8 C 3.7 g/m*3 2.8 C 0 km/h
1714 15-03-2005 02:48:03 2.7 C 3.67 g/m*3 2.7 C 0 km/h
1715 15-03-2005 02:58:03 2.6 C 3.65 g/m*3 2.6 C 0 km/h
1716 15-03-2005 03:08:03 2.7 C 3.67 g/m*3 2.7 C 0 km/h
1717 15-03-2005 03:18:04 2.5 C 3.62 g/m*3 2.5 C 0 km/h
1718 15-03-2005 03:28:04 2.2 C 3.66 g/m*3 2.2 C 0 km/h
1719 15-03-2005 03:38:02 2.1 C 3.64 g/m*3 2.1 C 0 km/h
1720 15-03-2005 03:48:02 2 C 3.61 g/m*3 2 C 0 km/h
1721 15-03-2005 03:58:02 1.8 C 3.67 g/m*3 1.8 C 0 km/h
1722 15-03-2005 04:08:02 1.5 C 3.6 g/m*3 1.5 C 0 km/h
1723 15-03-2005 04:18:02 1.3 C 3.6 g/m*3 1.3 C 0 km/h
1724 15-03-2005 04:28:02 1 C 3.58 g/m*3 1 C 0 km/h
1725 15-03-2005 04:38:02 0.8 C 3.58 g/m*3 0.8 C 0 km/h
Sensor: Nr:Datum:Temp:Abs-Feuchte:Windchill:Wind:
Aussen-T/F 1726 15-03-2005 04:48:02 0.6 C 3.59 g/m*3 0.6 C 0 km/h
1727 15-03-2005 04:58:02 0.5 C 3.56 g/m*3 0.5 C 0 km/h
1728 15-03-2005 05:08:02 0.4 C 3.59 g/m*3 0.4 C 0 km/h
1729 15-03-2005 05:18:02 0.4 C 3.64 g/m*3 0.4 C 0 km/h
1730 15-03-2005 05:28:03 0.4 C 3.64 g/m*3 0.4 C 0 km/h
1731 15-03-2005 05:38:02 0.4 C 3.64 g/m*3 0.4 C 0 km/h
1732 15-03-2005 05:48:02 0.4 C 3.64 g/m*3 0.4 C 0 km/h
1733 15-03-2005 05:58:02 0.3 C 3.61 g/m*3 0.3 C 0 km/h
1734 15-03-2005 06:08:02 0.2 C 3.59 g/m*3 0.2 C 0 km/h
1735 15-03-2005 06:18:01 0.2 C 3.68 g/m*3 0.2 C 0 km/h
1736 15-03-2005 06:28:02 0 C 3.63 g/m*3 0 C 0 km/h
1737 15-03-2005 06:38:01 -0.2 C 3.58 g/m*3 -0.2 C 0 km/h
1738 15-03-2005 06:48:01 -0.2 C 3.58 g/m*3 -0.2 C 0 km/h
1739 15-03-2005 06:58:01 -0.1 C 3.61 g/m*3 -0.1 C 0 km/h
1740 15-03-2005 07:08:01 0.1 C 3.66 g/m*3 0.1 C 0 km/h
1741 15-03-2005 07:18:02 0.4 C 3.69 g/m*3 0.4 C 0 km/h
1742 15-03-2005 07:28:02 0.5 C 3.66 g/m*3 0.5 C 0 km/h
1743 15-03-2005 07:38:01 0.6 C 3.64 g/m*3 0.6 C 0 km/h
1744 15-03-2005 07:48:02 0.8 C 3.69 g/m*3 0.8 C 0 km/h
1745 15-03-2005 07:58:02 1.3 C 3.6 g/m*3 1.3 C 0 km/h
1746 15-03-2005 08:08:02 1.3 C 3.6 g/m*3 1.3 C 0 km/h
1747 15-03-2005 08:18:02 1.3 C 3.6 g/m*3 1.3 C 0 km/h
1748 15-03-2005 08:28:02 1.5 C 3.65 g/m*3 1.5 C 0 km/h
1749 15-03-2005 08:38:02 1.9 C 3.64 g/m*3 1.9 C 0 km/h
1750 15-03-2005 08:48:01 2 C 3.56 g/m*3 2 C 0 km/h
Sensor: Nr:Datum:Temp:Abs-Feuchte:Windchill:Wind:
Aussen-T/F 1751 15-03-2005 08:58:01 2.4 C 3.65 g/m*3 2.4 C 0 km/h
1752 15-03-2005 09:08:01 2.7 C 3.61 g/m*3 2.7 C 0 km/h
1753 15-03-2005 09:18:02 3.1 C 3.59 g/m*3 3.1 C 0 km/h
1754 15-03-2005 09:28:02 3.5 C 3.63 g/m*3 3.5 C 0 km/h
1755 15-03-2005 09:38:01 3.9 C 3.66 g/m*3 3.9 C 0 km/h
1756 15-03-2005 09:48:01 4.3 C 3.63 g/m*3 4.3 C 0 km/h
1757 15-03-2005 09:58:01 4.6 C 3.64 g/m*3 4.6 C 0 km/h
1758 15-03-2005 10:08:02 5.1 C 3.63 g/m*3 5.1 C 0 km/h
1759 15-03-2005 10:18:02 5.5 C 3.65 g/m*3 5.5 C 0 km/h
1760 15-03-2005 10:28:02 6.1 C 3.58 g/m*3 6.1 C 0 km/h
1761 15-03-2005 10:38:02 6.6 C 3.55 g/m*3 6.6 C 0 km/h
1762 15-03-2005 10:48:02 7.1 C 3.51 g/m*3 7.1 C 0 km/h
1763 15-03-2005 10:58:02 7.6 C 3.63 g/m*3 7.6 C 0 km/h
1764 15-03-2005 11:08:03 8 C 3.55 g/m*3 8 C 0 km/h
1765 15-03-2005 11:18:02 8.3 C 3.54 g/m*3 8.3 C 0 km/h
1766 15-03-2005 11:28:02 8.5 C 3.59 g/m*3 8.5 C 0 km/h
1767 15-03-2005 11:38:02 8.7 C 3.55 g/m*3 8.7 C 0 km/h
1768 15-03-2005 11:48:01 9.1 C 3.55 g/m*3 9.1 C 0 km/h
1769 15-03-2005 11:58:01 9.3 C 3.59 g/m*3 9.3 C 0 km/h
1770 15-03-2005 12:08:02 9.5 C 3.55 g/m*3 9.5 C 0 km/h
1771 15-03-2005 12:18:02 9.9 C 3.55 g/m*3 9.9 C 0 km/h
1772 15-03-2005 12:28:02 10.2 C 3.52 g/m*3 10.2 C 0 km/h
1773 15-03-2005 12:38:02 10.6 C 3.61 g/m*3 10.6 C 0 km/h
1774 15-03-2005 12:48:02 10.9 C 3.58 g/m*3 10.9 C 0 km/h
1775 15-03-2005 12:58:02 11.1 C 3.53 g/m*3 11.1 C 0 km/h
Sensor: Nr:Datum:Temp:Abs-Feuchte:Windchill:Wind:
Aussen-T/F 1776 15-03-2005 13:08:02 11.5 C 3.51 g/m*3 11.5 C 0 km/h
1777 15-03-2005 13:18:02 11.7 C 3.56 g/m*3 11.7 C 0 km/h
1778 15-03-2005 13:28:02 12.2 C 3.45 g/m*3 12.2 C 0 km/h
1779 15-03-2005 13:38:02 12.5 C 3.41 g/m*3 12.5 C 0 km/h
1780 15-03-2005 13:48:01 12.7 C 3.45 g/m*3 12.7 C 0 km/h
1781 15-03-2005 13:58:01 13.1 C 3.42 g/m*3 13.1 C 0 km/h
1782 15-03-2005 14:08:02 13.3 C 3.47 g/m*3 13.3 C 0 km/h
1783 15-03-2005 14:18:02 13.6 C 3.53 g/m*3 13.6 C 0 km/h
1784 15-03-2005 14:28:02 13.9 C 3.36 g/m*3 13.9 C 0 km/h
1785 15-03-2005 14:38:02 14.1 C 3.52 g/m*3 14.1 C 0 km/h
1786 15-03-2005 14:48:02 14.3 C 3.44 g/m*3 14.3 C 0 km/h
1787 15-03-2005 14:58:02 14.5 C 3.48 g/m*3 14.5 C 0 km/h
1788 15-03-2005 15:08:03 14.5 C 3.48 g/m*3 14.5 C 0 km/h
1789 15-03-2005 15:18:02 14.4 C 3.34 g/m*3 14.4 C 0 km/h
1790 15-03-2005 15:28:02 14.6 C 3.38 g/m*3 14.6 C 0 km/h
1791 15-03-2005 15:38:02 15.1 C 3.48 g/m*3 15.1 C 0 km/h
1792 15-03-2005 15:48:01 15.1 C 3.48 g/m*3 15.1 C 0 km/h
1793 15-03-2005 15:58:01 15.2 C 3.5 g/m*3 15.2 C 0 km/h
1794 15-03-2005 16:08:02 15.5 C 3.57 g/m*3 15.5 C 0 km/h
1795 15-03-2005 16:18:02 15 C 3.46 g/m*3 15 C 0 km/h
1796 15-03-2005 16:28:02 15.1 C 3.61 g/m*3 15.1 C 0 km/h
1797 15-03-2005 16:38:02 15 C 3.59 g/m*3 15 C 0 km/h
1798 15-03-2005 16:48:02 15.2 C 3.63 g/m*3 15.2 C 0 km/h
1799 15-03-2005 16:58:02 14.9 C 3.82 g/m*3 14.9 C 0 km/h
1800 15-03-2005 17:08:02 14.9 C 3.82 g/m*3 14.9 C 0 km/h
Sensor: Nr:Datum:Temp:Abs-Feuchte:Windchill:Wind:
Aussen-T/F 1801 15-03-2005 17:18:02 15.1 C 3.87 g/m*3 15.1 C 0 km/h
1802 15-03-2005 17:28:02 14.6 C 3.75 g/m*3 14.6 C 0 km/h
1803 15-03-2005 17:38:02 14.7 C 3.9 g/m*3 14.7 C 0 km/h
1804 15-03-2005 17:48:01 14.4 C 3.96 g/m*3 14.4 C 0 km/h
1805 15-03-2005 17:58:01 13.7 C 4.14 g/m*3 13.7 C 0 km/h
1806 15-03-2005 18:08:02 13.4 C 4.07 g/m*3 13.4 C 0 km/h
1807 15-03-2005 18:18:02 13 C 3.97 g/m*3 13 C 0 km/h
1808 15-03-2005 18:28:02 12.5 C 4.18 g/m*3 12.5 C 0 km/h
1809 15-03-2005 18:38:02 11.5 C 4.34 g/m*3 11.5 C 0 km/h
1810 15-03-2005 18:48:03 11.3 C 4.39 g/m*3 11.3 C 0 km/h
1811 15-03-2005 18:58:03 11 C 4.5 g/m*3 11 C 0 km/h
1812 15-03-2005 19:08:03 10.9 C 4.38 g/m*3 10.9 C 0 km/h
1813 15-03-2005 19:18:02 10.8 C 4.45 g/m*3 10.8 C 0 km/h
1814 15-03-2005 19:28:02 10.4 C 4.43 g/m*3 10.4 C 0 km/h
1815 15-03-2005 19:38:02 10.2 C 4.47 g/m*3 10.2 C 0 km/h
1816 15-03-2005 19:48:01 10 C 4.6 g/m*3 10 C 0 km/h
1817 15-03-2005 19:58:01 9.6 C 4.58 g/m*3 9.6 C 0 km/h
1818 15-03-2005 20:08:02 9.5 C 4.64 g/m*3 9.5 C 0 km/h
1819 15-03-2005 20:18:01 9.3 C 4.58 g/m*3 9.3 C 0 km/h
1820 15-03-2005 20:28:01 9.2 C 4.64 g/m*3 9.2 C 0 km/h
1821 15-03-2005 20:38:02 9.2 C 4.64 g/m*3 9.2 C 0 km/h
1822 15-03-2005 20:48:02 9 C 4.76 g/m*3 9 C 0 km/h
1823 15-03-2005 20:58:02 8.8 C 4.87 g/m*3 8.8 C 0 km/h
1824 15-03-2005 21:08:03 8.7 C 4.76 g/m*3 8.7 C 0 km/h
1825 15-03-2005 21:18:03 8.5 C 4.78 g/m*3 8.5 C 0 km/h
Sensor: Nr:Datum:Temp:Abs-Feuchte:Windchill:Wind:
Aussen-T/F 1826 15-03-2005 21:28:03 8.4 C 4.75 g/m*3 8.4 C 0 km/h
1827 15-03-2005 21:38:02 8.4 C 4.75 g/m*3 8.4 C 0 km/h
1828 15-03-2005 21:48:01 8.4 C 4.67 g/m*3 8.4 C 0 km/h
1829 15-03-2005 21:58:01 8.5 C 4.7 g/m*3 8.5 C 0 km/h
1830 15-03-2005 22:08:02 8.4 C 4.75 g/m*3 8.4 C 0 km/h
1831 15-03-2005 22:18:01 8.4 C 4.75 g/m*3 8.4 C 0 km/h
1832 15-03-2005 22:28:01 8.2 C 4.86 g/m*3 8.2 C 0 km/h
1833 15-03-2005 22:38:01 8.1 C 4.83 g/m*3 8.1 C 0 km/h
1834 15-03-2005 22:48:01 8 C 4.8 g/m*3 8 C 0 km/h
1835 15-03-2005 22:58:01 7.8 C 4.98 g/m*3 7.8 C 0 km/h
1836 15-03-2005 23:08:02 7.7 C 4.95 g/m*3 7.7 C 0 km/h
1837 15-03-2005 23:18:02 7.5 C 4.96 g/m*3 7.5 C 0 km/h
1838 15-03-2005 23:28:02 7.5 C 4.96 g/m*3 7.5 C 0 km/h
1839 15-03-2005 23:38:02 7.3 C 4.98 g/m*3 7.3 C 0 km/h
1840 15-03-2005 23:48:02 7.3 C 4.9 g/m*3 7.3 C 0 km/h
1841 15-03-2005 23:58:02 8.2 C 4.86 g/m*3 8.2 C 0 km/h
1842 16-03-2005 00:08:02 8.4 C 4.67 g/m*3 8.4 C 0 km/h
1843 16-03-2005 00:18:03 8.1 C 4.66 g/m*3 8.1 C 0 km/h
1844 16-03-2005 00:28:03 8 C 4.63 g/m*3 8 C 0 km/h
1845 16-03-2005 00:38:02 7.9 C 4.76 g/m*3 7.9 C 0 km/h
1846 16-03-2005 00:48:02 7.8 C 4.73 g/m*3 7.8 C 0 km/h
1847 16-03-2005 00:58:02 7.9 C 4.76 g/m*3 7.9 C 0 km/h
1848 16-03-2005 01:08:02 8.1 C 4.74 g/m*3 8.1 C 0 km/h
1849 16-03-2005 01:18:02 8.3 C 4.8 g/m*3 8.3 C 0 km/h
1850 16-03-2005 01:28:02 8.3 C 4.8 g/m*3 8.3 C 0 km/h
Sensor: Nr:Datum:Temp:Abs-Feuchte:Windchill:Wind:
Aussen-T/F 1851 16-03-2005 01:38:02 8.1 C 4.74 g/m*3 8.1 C 0 km/h
1852 16-03-2005 01:48:02 8.1 C 4.83 g/m*3 8.1 C 0 km/h
1853 16-03-2005 01:58:02 8.2 C 4.94 g/m*3 8.2 C 0 km/h
1854 16-03-2005 02:08:01 8.5 C 4.95 g/m*3 8.5 C 0 km/h
1855 16-03-2005 02:18:03 8.5 C 4.87 g/m*3 8.5 C 0 km/h
1856 16-03-2005 02:28:03 8.4 C 4.92 g/m*3 8.4 C 0 km/h
1857 16-03-2005 02:38:02 8.2 C 4.86 g/m*3 8.2 C 0 km/h
1858 16-03-2005 02:49:04 8 C 4.88 g/m*3 8 C 0 km/h
1859 16-03-2005 02:59:04 7.8 C 4.9 g/m*3 7.8 C 0 km/h
1860 16-03-2005 03:09:04 7.9 C 4.93 g/m*3 7.9 C 0 km/h
1861 16-03-2005 03:19:04 7.9 C 4.93 g/m*3 7.9 C 0 km/h
1862 16-03-2005 03:29:05 7.9 C 4.93 g/m*3 7.9 C 0 km/h
1863 16-03-2005 03:39:02 8 C 4.96 g/m*3 8 C 0 km/h
1864 16-03-2005 03:49:02 8.4 C 5.01 g/m*3 8.4 C 0 km/h
1865 16-03-2005 03:59:02 7.9 C 4.93 g/m*3 7.9 C 0 km/h
1866 16-03-2005 04:09:02 7.8 C 4.98 g/m*3 7.8 C 0 km/h
1867 16-03-2005 04:19:02 7.9 C 5.01 g/m*3 7.9 C 0 km/h
1868 16-03-2005 04:29:02 7.9 C 5.01 g/m*3 7.9 C 0 km/h
1869 16-03-2005 04:39:01 7.9 C 4.93 g/m*3 7.9 C 0 km/h
1870 16-03-2005 04:49:02 7.8 C 4.98 g/m*3 7.8 C 0 km/h
1871 16-03-2005 04:59:02 7.7 C 4.95 g/m*3 7.7 C 0 km/h
1872 16-03-2005 05:09:01 7.5 C 4.96 g/m*3 7.5 C 0 km/h
1873 16-03-2005 05:19:02 7.3 C 4.98 g/m*3 7.3 C 0 km/h
1874 16-03-2005 05:29:02 7.2 C 5.02 g/m*3 7.2 C 0 km/h
1875 16-03-2005 05:39:02 7.2 C 5.02 g/m*3 7.2 C 0 km/h
Sensor: Nr:Datum:Temp:Abs-Feuchte:Windchill:Wind:
Aussen-T/F 1876 16-03-2005 05:49:01 6.9 C 5.08 g/m*3 6.9 C 0 km/h
1877 16-03-2005 05:59:01 6.5 C 5.02 g/m*3 6.5 C 0 km/h
1878 16-03-2005 06:09:02 6.2 C 5 g/m*3 6.2 C 0 km/h
1879 16-03-2005 06:19:02 6.4 C 5.07 g/m*3 6.4 C 0 km/h
1880 16-03-2005 06:29:02 6.5 C 5.1 g/m*3 6.5 C 0 km/h
1881 16-03-2005 06:39:01 6.7 C 5.17 g/m*3 6.7 C 0 km/h
1882 16-03-2005 06:49:02 6.7 C 5.17 g/m*3 6.7 C 0 km/h
1883 16-03-2005 06:59:02 6.8 C 5.2 g/m*3 6.8 C 0 km/h
1884 16-03-2005 07:09:02 6.8 C 5.2 g/m*3 6.8 C 0 km/h
1885 16-03-2005 07:19:02 6.7 C 5.24 g/m*3 6.7 C 0 km/h
1886 16-03-2005 07:29:02 6.7 C 5.24 g/m*3 6.7 C 0 km/h
1887 16-03-2005 07:39:02 6.8 C 5.28 g/m*3 6.8 C 0 km/h
1888 16-03-2005 07:49:02 6.9 C 5.23 g/m*3 6.9 C 0 km/h
1889 16-03-2005 07:59:02 7 C 5.19 g/m*3 7 C 0 km/h
1890 16-03-2005 08:09:02 7 C 5.42 g/m*3 7 C 0 km/h
1891 16-03-2005 08:19:02 7.2 C 5.42 g/m*3 7.2 C 0 km/h
1892 16-03-2005 08:29:02 7.2 C 5.42 g/m*3 7.2 C 0 km/h
1893 16-03-2005 08:39:02 7.2 C 5.42 g/m*3 7.2 C 0 km/h
1894 16-03-2005 08:49:02 7.5 C 5.52 g/m*3 7.5 C 0 km/h
1895 16-03-2005 08:59:02 8.2 C 5.61 g/m*3 8.2 C 0 km/h
1896 16-03-2005 09:09:03 9.3 C 5.75 g/m*3 9.3 C 0 km/h
1897 16-03-2005 09:19:02 9.9 C 5.7 g/m*3 9.9 C 0 km/h
1898 16-03-2005 09:29:02 10.4 C 5.59 g/m*3 10.4 C 0 km/h
1899 16-03-2005 09:39:02 10.7 C 5.7 g/m*3 10.7 C 0 km/h
1900 16-03-2005 09:49:01 11.1 C 5.64 g/m*3 11.1 C 0 km/h
Sensor: Nr:Datum:Temp:Abs-Feuchte:Windchill:Wind:
Aussen-T/F 1901 16-03-2005 09:59:01 11.3 C 5.71 g/m*3 11.3 C 0 km/h
1902 16-03-2005 10:09:01 11.6 C 5.82 g/m*3 11.6 C 0 km/h
1903 16-03-2005 10:19:01 12.1 C 5.79 g/m*3 12.1 C 0 km/h
1904 16-03-2005 10:29:01 12.5 C 5.72 g/m*3 12.5 C 0 km/h
1905 16-03-2005 10:39:01 13 C 5.78 g/m*3 13 C 0 km/h
1906 16-03-2005 10:49:02 13.3 C 5.78 g/m*3 13.3 C 0 km/h
1907 16-03-2005 10:59:02 13.5 C 5.85 g/m*3 13.5 C 0 km/h
1908 16-03-2005 11:09:01 14.1 C 5.95 g/m*3 14.1 C 0 km/h
1909 16-03-2005 11:19:01 14.7 C 6.04 g/m*3 14.7 C 0 km/h
1910 16-03-2005 11:29:01 15.1 C 5.93 g/m*3 15.1 C 0 km/h
1911 16-03-2005 11:39:02 15.6 C 5.98 g/m*3 15.6 C 0 km/h
1912 16-03-2005 11:49:02 16 C 5.99 g/m*3 16 C 0 km/h
1913 16-03-2005 11:59:02 16.4 C 6 g/m*3 16.4 C 0 km/h
1914 16-03-2005 12:09:02 16.8 C 6 g/m*3 16.8 C 0 km/h
1915 16-03-2005 12:19:02 17.2 C 6 g/m*3 17.2 C 0 km/h
1916 16-03-2005 12:29:02 17.6 C 6 g/m*3 17.6 C 0 km/h
1917 16-03-2005 12:39:02 18 C 5.99 g/m*3 18 C 0 km/h
1918 16-03-2005 12:49:01 18.4 C 5.98 g/m*3 18.4 C 0 km/h
1919 16-03-2005 12:59:01 18.7 C 6.08 g/m*3 18.7 C 0 km/h
1920 16-03-2005 13:09:02 18.9 C 6.16 g/m*3 18.9 C 0 km/h
1921 16-03-2005 13:19:02 19.2 C 6.1 g/m*3 19.2 C 0 km/h
1922 16-03-2005 13:29:02 19.5 C 6.21 g/m*3 19.5 C 0 km/h
1923 16-03-2005 13:39:01 19.8 C 6.32 g/m*3 19.8 C 0 km/h
1924 16-03-2005 13:49:01 20.1 C 6.08 g/m*3 20.1 C 0 km/h
1925 16-03-2005 13:59:01 20.3 C 5.98 g/m*3 20.3 C 0 km/h
Sensor: Nr:Datum:Temp:Abs-Feuchte:Windchill:Wind:
Aussen-T/F 1926 16-03-2005 14:09:02 20.4 C 6.01 g/m*3 20.4 C 0 km/h
1927 16-03-2005 14:19:02 20.6 C 6.09 g/m*3 20.6 C 0 km/h
1928 16-03-2005 14:29:02 20.9 C 6.01 g/m*3 20.9 C 0 km/h
1929 16-03-2005 14:39:02 21 C 5.68 g/m*3 21 C 0 km/h
1930 16-03-2005 14:49:01 21.1 C 5.9 g/m*3 21.1 C 0 km/h
1931 16-03-2005 14:59:01 21.4 C 6 g/m*3 21.4 C 0 km/h
1932 16-03-2005 15:09:02 21.5 C 6.03 g/m*3 21.5 C 0 km/h
1933 16-03-2005 15:19:02 21.1 C 5.71 g/m*3 21.1 C 0 km/h
1934 16-03-2005 15:29:02 21.1 C 5.9 g/m*3 21.1 C 0 km/h
1935 16-03-2005 15:39:01 21.4 C 6 g/m*3 21.4 C 0 km/h
1936 16-03-2005 15:49:01 21 C 6.05 g/m*3 21 C 0 km/h
1937 16-03-2005 15:59:01 20.9 C 6.01 g/m*3 20.9 C 0 km/h
1938 16-03-2005 16:09:02 20.8 C 5.98 g/m*3 20.8 C 0 km/h
1939 16-03-2005 16:19:01 21 C 6.05 g/m*3 21 C 0 km/h
1940 16-03-2005 16:29:02 21.3 C 5.96 g/m*3 21.3 C 0 km/h
1941 16-03-2005 16:39:01 21.1 C 5.9 g/m*3 21.1 C 0 km/h
1942 16-03-2005 16:49:02 20.5 C 6.23 g/m*3 20.5 C 0 km/h
1943 16-03-2005 16:59:03 20.5 C 6.23 g/m*3 20.5 C 0 km/h
1944 16-03-2005 17:09:01 20.6 C 6.44 g/m*3 20.6 C 0 km/h
1945 16-03-2005 17:19:02 20.5 C 6.41 g/m*3 20.5 C 0 km/h
1946 16-03-2005 17:29:02 20.4 C 6.19 g/m*3 20.4 C 0 km/h
1947 16-03-2005 17:39:02 20.2 C 6.47 g/m*3 20.2 C 0 km/h
1948 16-03-2005 17:49:02 20.2 C 6.12 g/m*3 20.2 C 0 km/h
1949 16-03-2005 17:59:02 20.2 C 6.29 g/m*3 20.2 C 0 km/h
1950 16-03-2005 18:09:03 19.7 C 6.45 g/m*3 19.7 C 0 km/h
Sensor: Nr:Datum:Temp:Abs-Feuchte:Windchill:Wind:
Aussen-T/F 1951 16-03-2005 18:19:02 19.1 C 6.39 g/m*3 19.1 C 0 km/h
1952 16-03-2005 18:29:02 18.1 C 6.33 g/m*3 18.1 C 0 km/h
1953 16-03-2005 18:39:02 17.4 C 6.08 g/m*3 17.4 C 0 km/h
1954 16-03-2005 18:49:01 16.8 C 6.15 g/m*3 16.8 C 0 km/h
1955 16-03-2005 18:59:01 16.3 C 6.1 g/m*3 16.3 C 0 km/h
1956 16-03-2005 19:09:02 15.8 C 6.06 g/m*3 15.8 C 0 km/h
1957 16-03-2005 19:19:02 15.5 C 6.08 g/m*3 15.5 C 0 km/h
1958 16-03-2005 19:29:02 15.2 C 5.97 g/m*3 15.2 C 0 km/h
1959 16-03-2005 19:39:01 15 C 6.03 g/m*3 15 C 0 km/h
1960 16-03-2005 19:49:01 14.6 C 6.01 g/m*3 14.6 C 0 km/h
1961 16-03-2005 19:59:01 14.4 C 6.06 g/m*3 14.4 C 0 km/h
1962 16-03-2005 20:09:01 14.1 C 5.95 g/m*3 14.1 C 0 km/h
1963 16-03-2005 20:19:02 13.9 C 6.11 g/m*3 13.9 C 0 km/h
1964 16-03-2005 20:29:02 13.7 C 6.04 g/m*3 13.7 C 0 km/h
1965 16-03-2005 20:39:02 13.5 C 6.08 g/m*3 13.5 C 0 km/h
1966 16-03-2005 20:49:01 13.4 C 6.04 g/m*3 13.4 C 0 km/h
1967 16-03-2005 20:59:01 13.1 C 6.05 g/m*3 13.1 C 0 km/h
1968 16-03-2005 21:09:02 13 C 6.12 g/m*3 13 C 0 km/h
1969 16-03-2005 21:19:01 12.7 C 6.23 g/m*3 12.7 C 0 km/h
1970 16-03-2005 21:29:01 12.4 C 6.34 g/m*3 12.4 C 0 km/h
1971 16-03-2005 21:39:02 12.2 C 6.15 g/m*3 12.2 C 0 km/h
1972 16-03-2005 21:49:02 13 C 5.9 g/m*3 13 C 0 km/h
1973 16-03-2005 21:59:02 13.3 C 5.78 g/m*3 13.3 C 0 km/h
1974 16-03-2005 22:09:02 13.2 C 5.86 g/m*3 13.2 C 0 km/h
1975 16-03-2005 22:19:02 13 C 5.9 g/m*3 13 C 0 km/h
Sensor: Nr:Datum:Temp:Abs-Feuchte:Windchill:Wind:
Aussen-T/F 1976 16-03-2005 22:29:02 13.1 C 5.82 g/m*3 13.1 C 0 km/h
1977 16-03-2005 22:39:02 12.9 C 5.97 g/m*3 12.9 C 0 km/h
1978 16-03-2005 22:49:03 12.7 C 6.12 g/m*3 12.7 C 0 km/h
1979 16-03-2005 22:59:03 12.5 C 6.16 g/m*3 12.5 C 0 km/h
1980 16-03-2005 23:09:03 12.2 C 6.15 g/m*3 12.2 C 0 km/h
1981 16-03-2005 23:19:02 11.8 C 6.21 g/m*3 11.8 C 0 km/h
1982 16-03-2005 23:29:02 11.9 C 6.25 g/m*3 11.9 C 0 km/h
1983 16-03-2005 23:39:03 11.7 C 6.17 g/m*3 11.7 C 0 km/h
1984 16-03-2005 23:49:02 11.6 C 6.13 g/m*3 11.6 C 0 km/h
1985 16-03-2005 23:59:02 11.5 C 6.2 g/m*3 11.5 C 0 km/h
1986 17-03-2005 00:09:02 11.4 C 6.16 g/m*3 11.4 C 0 km/h
1987 17-03-2005 00:19:03 11.3 C 6.22 g/m*3 11.3 C 0 km/h
1988 17-03-2005 00:29:03 11.1 C 6.25 g/m*3 11.1 C 0 km/h
1989 17-03-2005 00:39:02 10.8 C 6.33 g/m*3 10.8 C 0 km/h
1990 17-03-2005 00:49:02 10.6 C 6.25 g/m*3 10.6 C 0 km/h
1991 17-03-2005 00:59:02 10.6 C 6.15 g/m*3 10.6 C 0 km/h
1992 17-03-2005 01:09:02 10.4 C 6.07 g/m*3 10.4 C 0 km/h
1993 17-03-2005 01:19:02 10.2 C 6.09 g/m*3 10.2 C 0 km/h
1994 17-03-2005 01:29:02 10.4 C 6.07 g/m*3 10.4 C 0 km/h
1995 17-03-2005 01:39:02 10.2 C 6 g/m*3 10.2 C 0 km/h
1996 17-03-2005 01:49:02 9.9 C 6.07 g/m*3 9.9 C 0 km/h
1997 17-03-2005 01:59:02 10.1 C 5.96 g/m*3 10.1 C 0 km/h
1998 17-03-2005 02:09:01 11.5 C 6.2 g/m*3 11.5 C 0 km/h
1999 17-03-2005 02:19:02 11.8 C 6.1 g/m*3 11.8 C 0 km/h
2000 17-03-2005 02:29:02 12.2 C 5.94 g/m*3 12.2 C 0 km/h
Sensor: Nr:Datum:Temp:Abs-Feuchte:Windchill:Wind:
Aussen-T/F 2001 17-03-2005 02:39:02 12.4 C 6.01 g/m*3 12.4 C 0 km/h
2002 17-03-2005 02:50:04 12.4 C 6.01 g/m*3 12.4 C 0 km/h
2003 17-03-2005 03:00:04 12.5 C 5.94 g/m*3 12.5 C 0 km/h
2004 17-03-2005 03:10:04 12.6 C 5.97 g/m*3 12.6 C 0 km/h
2005 17-03-2005 03:20:04 12.8 C 6.05 g/m*3 12.8 C 0 km/h
2006 17-03-2005 03:30:04 12.9 C 5.97 g/m*3 12.9 C 0 km/h
2007 17-03-2005 03:40:02 12.4 C 6.01 g/m*3 12.4 C 0 km/h
2008 17-03-2005 03:50:02 12.4 C 6.01 g/m*3 12.4 C 0 km/h
2009 17-03-2005 04:00:02 12.2 C 5.94 g/m*3 12.2 C 0 km/h
2010 17-03-2005 04:10:02 12.1 C 5.9 g/m*3 12.1 C 0 km/h
2011 17-03-2005 04:20:02 11.7 C 6.07 g/m*3 11.7 C 0 km/h
2012 17-03-2005 04:30:02 11.6 C 6.03 g/m*3 11.6 C 0 km/h
2013 17-03-2005 04:40:02 11.5 C 5.99 g/m*3 11.5 C 0 km/h
2014 17-03-2005 04:50:03 11.3 C 6.02 g/m*3 11.3 C 0 km/h
2015 17-03-2005 05:00:03 11.6 C 6.13 g/m*3 11.6 C 0 km/h
2016 17-03-2005 05:10:03 11.7 C 6.07 g/m*3 11.7 C 0 km/h
2017 17-03-2005 05:20:02 11.8 C 6 g/m*3 11.8 C 0 km/h
2018 17-03-2005 05:30:02 11.7 C 6.07 g/m*3 11.7 C 0 km/h
2019 17-03-2005 05:40:03 11.6 C 6.03 g/m*3 11.6 C 0 km/h
2020 17-03-2005 05:50:03 11.2 C 5.98 g/m*3 11.2 C 0 km/h
2021 17-03-2005 06:00:03 10.5 C 6.01 g/m*3 10.5 C 0 km/h
2022 17-03-2005 06:10:02 10.3 C 6.03 g/m*3 10.3 C 0 km/h
2023 17-03-2005 06:20:02 10.1 C 6.15 g/m*3 10.1 C 0 km/h
2024 17-03-2005 06:30:02 9.9 C 6.16 g/m*3 9.9 C 0 km/h
2025 17-03-2005 06:40:02 10 C 6.2 g/m*3 10 C 0 km/h
Sensor: Nr:Datum:Temp:Abs-Feuchte:Windchill:Wind:
Aussen-T/F 2026 17-03-2005 06:50:02 10.1 C 6.15 g/m*3 10.1 C 0 km/h
2027 17-03-2005 07:00:02 10.1 C 6.15 g/m*3 10.1 C 0 km/h
2028 17-03-2005 07:10:03 10 C 6.2 g/m*3 10 C 0 km/h
2029 17-03-2005 07:20:02 9.8 C 6.31 g/m*3 9.8 C 0 km/h
2030 17-03-2005 07:30:02 9.9 C 6.35 g/m*3 9.9 C 0 km/h
2031 17-03-2005 07:40:02 10.1 C 6.34 g/m*3 10.1 C 0 km/h
2032 17-03-2005 07:50:01 10.4 C 6.46 g/m*3 10.4 C 0 km/h
2033 17-03-2005 08:00:01 10.7 C 6.58 g/m*3 10.7 C 0 km/h
2034 17-03-2005 08:10:02 10.8 C 6.52 g/m*3 10.8 C 0 km/h
2035 17-03-2005 08:20:02 11.2 C 6.28 g/m*3 11.2 C 0 km/h
2036 17-03-2005 08:30:02 11.4 C 6.47 g/m*3 11.4 C 0 km/h
2037 17-03-2005 08:40:01 11.7 C 6.48 g/m*3 11.7 C 0 km/h
2038 17-03-2005 08:50:01 11.8 C 6.63 g/m*3 11.8 C 0 km/h
2039 17-03-2005 09:00:01 12.2 C 6.69 g/m*3 12.2 C 0 km/h
2040 17-03-2005 09:10:02 12.5 C 6.71 g/m*3 12.5 C 0 km/h
2041 17-03-2005 09:20:02 12.9 C 6.88 g/m*3 12.9 C 0 km/h
2042 17-03-2005 09:30:03 13.3 C 6.93 g/m*3 13.3 C 0 km/h
2043 17-03-2005 09:40:01 13.6 C 7.18 g/m*3 13.6 C 0 km/h
2044 17-03-2005 09:50:01 14 C 7.24 g/m*3 14 C 0 km/h
2045 17-03-2005 10:00:01 14.2 C 7.2 g/m*3 14.2 C 0 km/h
2046 17-03-2005 10:10:01 14.3 C 7.25 g/m*3 14.3 C 0 km/h
2047 17-03-2005 10:20:01 14.4 C 7.29 g/m*3 14.4 C 0 km/h
2048 17-03-2005 10:30:01 14.9 C 7.39 g/m*3 14.9 C 0 km/h
2049 17-03-2005 10:40:02 14.8 C 7.47 g/m*3 14.8 C 0 km/h
2050 17-03-2005 10:50:02 14.9 C 7.52 g/m*3 14.9 C 0 km/h
Sensor: Nr:Datum:Temp:Abs-Feuchte:Windchill:Wind:
Aussen-T/F 2051 17-03-2005 11:00:02 15.3 C 7.44 g/m*3 15.3 C 0 km/h
2052 17-03-2005 11:10:02 15.5 C 7.4 g/m*3 15.5 C 0 km/h
2053 17-03-2005 11:20:02 15.7 C 7.49 g/m*3 15.7 C 0 km/h
2054 17-03-2005 11:30:02 15.8 C 7.4 g/m*3 15.8 C 0 km/h
2055 17-03-2005 11:40:02 15.8 C 7.4 g/m*3 15.8 C 0 km/h
2056 17-03-2005 11:50:01 16.6 C 7.35 g/m*3 16.6 C 0 km/h
2057 17-03-2005 12:00:01 17 C 7.23 g/m*3 17 C 0 km/h
2058 17-03-2005 12:10:01 17.3 C 7.37 g/m*3 17.3 C 0 km/h
2059 17-03-2005 12:20:01 17.2 C 7.32 g/m*3 17.2 C 0 km/h
2060 17-03-2005 12:30:01 17.8 C 7.29 g/m*3 17.8 C 0 km/h
2061 17-03-2005 12:40:02 18.5 C 7.28 g/m*3 18.5 C 0 km/h
2062 17-03-2005 12:50:02 18.5 C 6.49 g/m*3 18.5 C 0 km/h
2063 17-03-2005 13:00:02 18.3 C 6.57 g/m*3 18.3 C 0 km/h
2064 17-03-2005 13:10:03 18.2 C 6.37 g/m*3 18.2 C 0 km/h
2065 17-03-2005 13:20:02 18.3 C 6.41 g/m*3 18.3 C 0 km/h
2066 17-03-2005 13:30:02 18.1 C 6.33 g/m*3 18.1 C 0 km/h
2067 17-03-2005 13:40:02 18.5 C 6.49 g/m*3 18.5 C 0 km/h
2068 17-03-2005 13:50:01 18.6 C 6.53 g/m*3 18.6 C 0 km/h
2069 17-03-2005 14:00:01 18.5 C 6.49 g/m*3 18.5 C 0 km/h
2070 17-03-2005 14:10:02 18.5 C 6.49 g/m*3 18.5 C 0 km/h
2071 17-03-2005 14:20:02 18.6 C 6.53 g/m*3 18.6 C 0 km/h
2072 17-03-2005 14:30:03 18.6 C 6.37 g/m*3 18.6 C 0 km/h
2073 17-03-2005 14:40:01 18.7 C 6.4 g/m*3 18.7 C 0 km/h
2074 17-03-2005 14:50:02 18.8 C 6.6 g/m*3 18.8 C 0 km/h
2075 17-03-2005 15:00:02 19.5 C 6.71 g/m*3 19.5 C 0 km/h
Sensor: Nr:Datum:Temp:Abs-Feuchte:Windchill:Wind:
Aussen-T/F 2076 17-03-2005 15:10:02 19.3 C 6.3 g/m*3 19.3 C 0 km/h
2077 17-03-2005 15:20:02 20 C 6.39 g/m*3 20 C 0 km/h
2078 17-03-2005 15:30:02 20.2 C 6.47 g/m*3 20.2 C 0 km/h
2079 17-03-2005 15:40:02 20 C 6.22 g/m*3 20 C 0 km/h
2080 17-03-2005 15:50:01 19.8 C 5.98 g/m*3 19.8 C 0 km/h
2081 17-03-2005 16:00:01 19.5 C 6.21 g/m*3 19.5 C 0 km/h
2082 17-03-2005 16:10:02 19.2 C 5.94 g/m*3 19.2 C 0 km/h
2083 17-03-2005 16:20:02 19.4 C 6.17 g/m*3 19.4 C 0 km/h
2084 17-03-2005 16:30:02 19 C 6.19 g/m*3 19 C 0 km/h
2085 17-03-2005 16:40:01 19 C 6.36 g/m*3 19 C 0 km/h
2086 17-03-2005 16:50:02 18.9 C 6.48 g/m*3 18.9 C 0 km/h
2087 17-03-2005 17:00:02 19.1 C 6.23 g/m*3 19.1 C 0 km/h
2088 17-03-2005 17:10:01 19.1 C 6.39 g/m*3 19.1 C 0 km/h
2089 17-03-2005 17:20:02 18.6 C 6.53 g/m*3 18.6 C 0 km/h
2090 17-03-2005 17:30:02 18.6 C 6.53 g/m*3 18.6 C 0 km/h
2091 17-03-2005 17:40:02 18.3 C 6.57 g/m*3 18.3 C 0 km/h
2092 17-03-2005 17:50:02 18.2 C 6.68 g/m*3 18.2 C 0 km/h
2093 17-03-2005 18:00:02 18.2 C 6.53 g/m*3 18.2 C 0 km/h
2094 17-03-2005 18:10:02 18.2 C 6.37 g/m*3 18.2 C 0 km/h
2095 17-03-2005 18:20:02 17.7 C 6.49 g/m*3 17.7 C 0 km/h
2096 17-03-2005 18:30:02 17.6 C 6.45 g/m*3 17.6 C 0 km/h
2097 17-03-2005 18:40:02 17.5 C 6.71 g/m*3 17.5 C 0 km/h
2098 17-03-2005 18:50:02 17.1 C 6.55 g/m*3 17.1 C 0 km/h
2099 17-03-2005 19:00:02 17 C 6.66 g/m*3 17 C 0 km/h
2100 17-03-2005 19:10:03 16.6 C 6.64 g/m*3 16.6 C 0 km/h
Sensor: Nr:Datum:Temp:Abs-Feuchte:Windchill:Wind:
Aussen-T/F 2101 17-03-2005 19:20:02 16.4 C 6.7 g/m*3 16.4 C 0 km/h
2102 17-03-2005 19:30:02 16.1 C 6.72 g/m*3 16.1 C 0 km/h
2103 17-03-2005 19:40:02 15.9 C 6.77 g/m*3 15.9 C 0 km/h
2104 17-03-2005 19:50:02 15.6 C 6.78 g/m*3 15.6 C 0 km/h
2105 17-03-2005 20:00:02 15.4 C 6.83 g/m*3 15.4 C 0 km/h
2106 17-03-2005 20:10:02 15.1 C 6.84 g/m*3 15.1 C 0 km/h
2107 17-03-2005 20:20:02 14.6 C 7.01 g/m*3 14.6 C 0 km/h
2108 17-03-2005 20:30:02 14.3 C 7 g/m*3 14.3 C 0 km/h
2109 17-03-2005 20:40:02 14.2 C 7.08 g/m*3 14.2 C 0 km/h
2110 17-03-2005 20:50:01 14.1 C 7.16 g/m*3 14.1 C 0 km/h
2111 17-03-2005 21:00:01 14 C 7.24 g/m*3 14 C 0 km/h
2112 17-03-2005 21:10:02 14.1 C 7.28 g/m*3 14.1 C 0 km/h
2113 17-03-2005 21:20:02 14.1 C 7.28 g/m*3 14.1 C 0 km/h
2114 17-03-2005 21:30:02 14.2 C 7.33 g/m*3 14.2 C 0 km/h
2115 17-03-2005 21:40:02 14.4 C 7.29 g/m*3 14.4 C 0 km/h
2116 17-03-2005 21:50:02 14.6 C 7.26 g/m*3 14.6 C 0 km/h
2117 17-03-2005 22:00:02 14.6 C 7.26 g/m*3 14.6 C 0 km/h
2118 17-03-2005 22:10:02 14.6 C 7.26 g/m*3 14.6 C 0 km/h
2119 17-03-2005 22:20:02 14.6 C 7.26 g/m*3 14.6 C 0 km/h
2120 17-03-2005 22:30:03 14.9 C 7.14 g/m*3 14.9 C 0 km/h
2121 17-03-2005 22:40:02 14.7 C 7.05 g/m*3 14.7 C 0 km/h
2122 17-03-2005 22:50:01 14.7 C 7.05 g/m*3 14.7 C 0 km/h
2123 17-03-2005 23:00:01 14.6 C 7.13 g/m*3 14.6 C 0 km/h
2124 17-03-2005 23:10:02 14.2 C 6.96 g/m*3 14.2 C 0 km/h
2125 17-03-2005 23:20:01 14.4 C 7.05 g/m*3 14.4 C 0 km/h
Sensor: Nr:Datum:Temp:Abs-Feuchte:Windchill:Wind:
Aussen-T/F 2126 17-03-2005 23:30:01 14.3 C 7.13 g/m*3 14.3 C 0 km/h
2127 17-03-2005 23:40:01 14.1 C 7.04 g/m*3 14.1 C 0 km/h
2128 17-03-2005 23:50:01 14 C 7.24 g/m*3 14 C 0 km/h
2129 18-03-2005 00:00:01 13.8 C 7.27 g/m*3 13.8 C 0 km/h
2130 18-03-2005 00:10:01 13.7 C 7.46 g/m*3 13.7 C 0 km/h
2131 18-03-2005 00:20:03 13.7 C 7.58 g/m*3 13.7 C 0 km/h
2132 18-03-2005 00:30:03 13.6 C 7.77 g/m*3 13.6 C 0 km/h
2133 18-03-2005 00:40:01 13.5 C 7.84 g/m*3 13.5 C 0 km/h
2134 18-03-2005 00:50:02 13.4 C 7.79 g/m*3 13.4 C 0 km/h
2135 18-03-2005 01:00:02 13.2 C 7.81 g/m*3 13.2 C 0 km/h
2136 18-03-2005 01:10:02 13 C 7.83 g/m*3 13 C 0 km/h
2137 18-03-2005 01:20:02 13 C 7.83 g/m*3 13 C 0 km/h
2138 18-03-2005 01:30:02 13 C 7.83 g/m*3 13 C 0 km/h
2139 18-03-2005 01:40:02 13 C 7.83 g/m*3 13 C 0 km/h
2140 18-03-2005 01:50:02 13 C 7.71 g/m*3 13 C 0 km/h
2141 18-03-2005 02:00:02 12.8 C 7.73 g/m*3 12.8 C 0 km/h
2142 18-03-2005 02:10:02 12.8 C 7.73 g/m*3 12.8 C 0 km/h
2143 18-03-2005 02:20:03 12.7 C 7.79 g/m*3 12.7 C 0 km/h
2144 18-03-2005 02:30:03 12.5 C 7.7 g/m*3 12.5 C 0 km/h
2145 18-03-2005 02:40:03 12.5 C 7.7 g/m*3 12.5 C 0 km/h
2146 18-03-2005 02:51:03 12.4 C 7.65 g/m*3 12.4 C 0 km/h
2147 18-03-2005 03:01:03 12.2 C 7.66 g/m*3 12.2 C 0 km/h
2148 18-03-2005 03:11:04 12.1 C 7.61 g/m*3 12.1 C 0 km/h
2149 18-03-2005 03:21:04 11.9 C 7.63 g/m*3 11.9 C 0 km/h
2150 18-03-2005 03:31:02 11.6 C 7.59 g/m*3 11.6 C 0 km/h
Sensor: Nr:Datum:Temp:Abs-Feuchte:Windchill:Wind:
Aussen-T/F 2151 18-03-2005 03:41:02 11.5 C 7.64 g/m*3 11.5 C 0 km/h
2152 18-03-2005 03:51:02 11.3 C 7.55 g/m*3 11.3 C 0 km/h
2153 18-03-2005 04:01:02 11.2 C 7.6 g/m*3 11.2 C 0 km/h
2154 18-03-2005 04:11:02 11.1 C 7.55 g/m*3 11.1 C 0 km/h
2155 18-03-2005 04:21:02 11 C 7.51 g/m*3 11 C 0 km/h
2156 18-03-2005 04:31:02 11 C 7.51 g/m*3 11 C 0 km/h
2157 18-03-2005 04:41:02 10.9 C 7.56 g/m*3 10.9 C 0 km/h
2158 18-03-2005 04:51:02 10.7 C 7.56 g/m*3 10.7 C 0 km/h
2159 18-03-2005 05:01:02 10.6 C 7.52 g/m*3 10.6 C 0 km/h
2160 18-03-2005 05:11:02 10.4 C 7.52 g/m*3 10.4 C 0 km/h
2161 18-03-2005 05:21:02 10.3 C 7.47 g/m*3 10.3 C 0 km/h
2162 18-03-2005 05:31:02 10.2 C 7.42 g/m*3 10.2 C 0 km/h
2163 18-03-2005 05:41:02 10.2 C 7.42 g/m*3 10.2 C 0 km/h
2164 18-03-2005 05:51:03 10.2 C 7.42 g/m*3 10.2 C 0 km/h
2165 18-03-2005 06:01:02 10.1 C 7.38 g/m*3 10.1 C 0 km/h
2166 18-03-2005 06:11:02 9.9 C 7.47 g/m*3 9.9 C 0 km/h
2167 18-03-2005 06:21:02 9.7 C 7.38 g/m*3 9.7 C 0 km/h
2168 18-03-2005 06:31:02 9.5 C 7.37 g/m*3 9.5 C 0 km/h
2169 18-03-2005 06:41:02 9.5 C 7.37 g/m*3 9.5 C 0 km/h
2170 18-03-2005 06:51:01 9.3 C 7.37 g/m*3 9.3 C 0 km/h
2171 18-03-2005 07:01:02 9.3 C 7.37 g/m*3 9.3 C 0 km/h
2172 18-03-2005 07:11:02 9.4 C 7.51 g/m*3 9.4 C 0 km/h
2173 18-03-2005 07:21:02 9.4 C 7.51 g/m*3 9.4 C 0 km/h
2174 18-03-2005 07:31:02 9.3 C 7.46 g/m*3 9.3 C 0 km/h
2175 18-03-2005 07:41:02 9.3 C 7.46 g/m*3 9.3 C 0 km/h
Sensor: Nr:Datum:Temp:Abs-Feuchte:Windchill:Wind:
Aussen-T/F 2176 18-03-2005 07:51:02 9.4 C 7.51 g/m*3 9.4 C 0 km/h
2177 18-03-2005 08:01:02 9.5 C 7.55 g/m*3 9.5 C 0 km/h
2178 18-03-2005 08:11:02 9.6 C 7.6 g/m*3 9.6 C 0 km/h
2179 18-03-2005 08:21:02 9.8 C 7.7 g/m*3 9.8 C 0 km/h
2180 18-03-2005 08:31:02 9.8 C 7.61 g/m*3 9.8 C 0 km/h
2181 18-03-2005 08:41:02 10 C 7.61 g/m*3 10 C 0 km/h
2182 18-03-2005 08:51:01 10.1 C 7.56 g/m*3 10.1 C 0 km/h
2183 18-03-2005 09:01:02 10.4 C 7.61 g/m*3 10.4 C 0 km/h
2184 18-03-2005 09:11:02 10.8 C 7.71 g/m*3 10.8 C 0 km/h
2185 18-03-2005 09:21:02 11.1 C 7.55 g/m*3 11.1 C 0 km/h
2186 18-03-2005 09:31:02 11.4 C 7.6 g/m*3 11.4 C 0 km/h
2187 18-03-2005 09:41:03 11.6 C 7.59 g/m*3 11.6 C 0 km/h
2188 18-03-2005 09:51:02 11.8 C 7.58 g/m*3 11.8 C 0 km/h
2189 18-03-2005 10:01:02 12.2 C 7.45 g/m*3 12.2 C 0 km/h
2190 18-03-2005 10:11:02 12.5 C 7.26 g/m*3 12.5 C 0 km/h
2191 18-03-2005 10:21:02 13 C 7.14 g/m*3 13 C 0 km/h
2192 18-03-2005 10:31:02 13.2 C 7.12 g/m*3 13.2 C 0 km/h
2193 18-03-2005 10:41:02 13.4 C 7.09 g/m*3 13.4 C 0 km/h
2194 18-03-2005 10:51:01 13.7 C 6.99 g/m*3 13.7 C 0 km/h
2195 18-03-2005 11:01:02 14 C 6.75 g/m*3 14 C 0 km/h
2196 18-03-2005 11:11:02 14.1 C 6.67 g/m*3 14.1 C 0 km/h
2197 18-03-2005 11:21:02 14.3 C 6.76 g/m*3 14.3 C 0 km/h
2198 18-03-2005 11:31:02 14.5 C 6.72 g/m*3 14.5 C 0 km/h
2199 18-03-2005 11:41:02 14.9 C 6.88 g/m*3 14.9 C 0 km/h
2200 18-03-2005 11:51:01 15.2 C 6.75 g/m*3 15.2 C 0 km/h
Sensor: Nr:Datum:Temp:Abs-Feuchte:Windchill:Wind:
Aussen-T/F 2201 18-03-2005 12:01:02 15.6 C 6.78 g/m*3 15.6 C 0 km/h
2202 18-03-2005 12:11:02 15.7 C 6.69 g/m*3 15.7 C 0 km/h
2203 18-03-2005 12:21:01 16.2 C 6.76 g/m*3 16.2 C 0 km/h
2204 18-03-2005 12:31:01 16.5 C 6.6 g/m*3 16.5 C 0 km/h
2205 18-03-2005 12:41:01 16.9 C 6.62 g/m*3 16.9 C 0 km/h
2206 18-03-2005 12:51:01 17.2 C 6.59 g/m*3 17.2 C 0 km/h
2207 18-03-2005 13:01:02 17.7 C 6.34 g/m*3 17.7 C 0 km/h
2208 18-03-2005 13:11:03 18 C 6.45 g/m*3 18 C 0 km/h
2209 18-03-2005 13:21:02 18.4 C 6.29 g/m*3 18.4 C 0 km/h
2210 18-03-2005 13:31:01 18.8 C 6.28 g/m*3 18.8 C 0 km/h
2211 18-03-2005 13:41:01 18.9 C 6.32 g/m*3 18.9 C 0 km/h
2212 18-03-2005 13:51:02 19.2 C 6.1 g/m*3 19.2 C 0 km/h
2213 18-03-2005 14:01:02 19.6 C 6.25 g/m*3 19.6 C 0 km/h
2214 18-03-2005 14:11:02 19.8 C 6.15 g/m*3 19.8 C 0 km/h
2215 18-03-2005 14:21:02 20.4 C 6.19 g/m*3 20.4 C 0 km/h
2216 18-03-2005 14:31:02 20.8 C 6.34 g/m*3 20.8 C 0 km/h
2217 18-03-2005 14:41:02 21.2 C 5.93 g/m*3 21.2 C 0 km/h
2218 18-03-2005 14:51:02 21.5 C 6.03 g/m*3 21.5 C 0 km/h
2219 18-03-2005 15:01:03 21.8 C 6.72 g/m*3 21.8 C 0 km/h
2220 18-03-2005 15:11:03 21.6 C 6.64 g/m*3 21.6 C 0 km/h
2221 18-03-2005 15:21:02 21.4 C 6.56 g/m*3 21.4 C 0 km/h
2222 18-03-2005 15:31:02 21.7 C 6.68 g/m*3 21.7 C 0 km/h
2223 18-03-2005 15:41:03 22.5 C 6.79 g/m*3 22.5 C 0 km/h
2224 18-03-2005 15:51:01 23 C 6.37 g/m*3 23 C 0 km/h
2225 18-03-2005 16:01:02 22.3 C 6.32 g/m*3 22.3 C 0 km/h
Sensor: Nr:Datum:Temp:Abs-Feuchte:Windchill:Wind:
Aussen-T/F 2226 18-03-2005 16:11:02 22.2 C 6.48 g/m*3 22.2 C 0 km/h
2227 18-03-2005 16:21:02 21 C 6.41 g/m*3 21 C 0 km/h
2228 18-03-2005 16:31:02 20.4 C 6.55 g/m*3 20.4 C 0 km/h
2229 18-03-2005 16:41:02 20.8 C 6.7 g/m*3 20.8 C 0 km/h
2230 18-03-2005 16:51:02 21.3 C 6.52 g/m*3 21.3 C 0 km/h
2231 18-03-2005 17:01:02 20.8 C 6.7 g/m*3 20.8 C 0 km/h
2232 18-03-2005 17:11:03 20.3 C 6.51 g/m*3 20.3 C 0 km/h
2233 18-03-2005 17:21:02 19.5 C 6.55 g/m*3 19.5 C 0 km/h
2234 18-03-2005 17:31:03 19.7 C 6.62 g/m*3 19.7 C 0 km/h
2235 18-03-2005 17:41:03 19.7 C 6.79 g/m*3 19.7 C 0 km/h
2236 18-03-2005 17:51:02 19.3 C 6.8 g/m*3 19.3 C 0 km/h
2237 18-03-2005 18:01:02 19 C 6.68 g/m*3 19 C 0 km/h
2238 18-03-2005 18:11:02 18.8 C 6.93 g/m*3 18.8 C 0 km/h
2239 18-03-2005 18:21:02 18.5 C 6.96 g/m*3 18.5 C 0 km/h
2240 18-03-2005 18:31:02 18.2 C 6.99 g/m*3 18.2 C 0 km/h
2241 18-03-2005 18:41:02 18.2 C 7.15 g/m*3 18.2 C 0 km/h
2242 18-03-2005 18:51:01 18 C 7.22 g/m*3 18 C 0 km/h
2243 18-03-2005 19:01:02 17.5 C 7.31 g/m*3 17.5 C 0 km/h
2244 18-03-2005 19:11:02 17.1 C 7.28 g/m*3 17.1 C 0 km/h
2245 18-03-2005 19:21:02 16.8 C 7.58 g/m*3 16.8 C 0 km/h
2246 18-03-2005 19:31:01 16.4 C 7.54 g/m*3 16.4 C 0 km/h
2247 18-03-2005 19:41:01 16.2 C 7.58 g/m*3 16.2 C 0 km/h
2248 18-03-2005 19:51:02 15.9 C 7.72 g/m*3 15.9 C 0 km/h
2249 18-03-2005 20:01:02 15.8 C 7.67 g/m*3 15.8 C 0 km/h
2250 18-03-2005 20:11:02 15.7 C 7.63 g/m*3 15.7 C 0 km/h
Sensor: Nr:Datum:Temp:Abs-Feuchte:Windchill:Wind:
Aussen-T/F 2251 18-03-2005 20:21:02 15.7 C 7.76 g/m*3 15.7 C 0 km/h
2252 18-03-2005 20:31:02 15.6 C 7.58 g/m*3 15.6 C 0 km/h
2253 18-03-2005 20:41:03 15.6 C 7.71 g/m*3 15.6 C 0 km/h
2254 18-03-2005 20:51:01 15.5 C 7.67 g/m*3 15.5 C 0 km/h
2255 18-03-2005 21:01:02 15.2 C 7.66 g/m*3 15.2 C 0 km/h
2256 18-03-2005 21:11:02 15.1 C 7.61 g/m*3 15.1 C 0 km/h
2257 18-03-2005 21:21:02 15 C 7.57 g/m*3 15 C 0 km/h
2258 18-03-2005 21:31:01 14.7 C 7.55 g/m*3 14.7 C 0 km/h
2259 18-03-2005 21:41:01 14.6 C 7.63 g/m*3 14.6 C 0 km/h
2260 18-03-2005 21:51:02 14.6 C 7.76 g/m*3 14.6 C 0 km/h
2261 18-03-2005 22:01:02 14.5 C 7.71 g/m*3 14.5 C 0 km/h
2262 18-03-2005 22:11:02 14.4 C 7.79 g/m*3 14.4 C 0 km/h
2263 18-03-2005 22:21:02 14.5 C 7.84 g/m*3 14.5 C 0 km/h
2264 18-03-2005 22:31:02 14.6 C 7.76 g/m*3 14.6 C 0 km/h
2265 18-03-2005 22:41:02 14.7 C 7.81 g/m*3 14.7 C 0 km/h
2266 18-03-2005 22:51:02 14.7 C 7.93 g/m*3 14.7 C 0 km/h
2267 18-03-2005 23:01:02 14.6 C 7.88 g/m*3 14.6 C 0 km/h
2268 18-03-2005 23:11:02 14.5 C 7.96 g/m*3 14.5 C 0 km/h
2269 18-03-2005 23:21:02 14.6 C 8.01 g/m*3 14.6 C 0 km/h
2270 18-03-2005 23:31:02 14.5 C 7.96 g/m*3 14.5 C 0 km/h
2271 18-03-2005 23:41:03 14.5 C 8.21 g/m*3 14.5 C 0 km/h
2272 18-03-2005 23:51:01 14.5 C 8.33 g/m*3 14.5 C 0 km/h
2273 19-03-2005 00:01:02 14.5 C 8.33 g/m*3 14.5 C 0 km/h
2274 19-03-2005 00:11:02 14.4 C 8.28 g/m*3 14.4 C 0 km/h
2275 19-03-2005 00:21:03 14.4 C 8.41 g/m*3 14.4 C 0 km/h
Sensor: Nr:Datum:Temp:Abs-Feuchte:Windchill:Wind:
Aussen-T/F 2276 19-03-2005 00:31:02 14.2 C 8.43 g/m*3 14.2 C 0 km/h
2277 19-03-2005 00:41:02 14.1 C 8.5 g/m*3 14.1 C 0 km/h
2278 19-03-2005 00:51:02 14 C 8.44 g/m*3 14 C 0 km/h
2279 19-03-2005 01:01:01 13.9 C 8.39 g/m*3 13.9 C 0 km/h
2280 19-03-2005 01:11:01 13.8 C 8.34 g/m*3 13.8 C 0 km/h
2281 19-03-2005 01:21:02 13.8 C 8.34 g/m*3 13.8 C 0 km/h
2282 19-03-2005 01:31:02 13.9 C 8.39 g/m*3 13.9 C 0 km/h
2283 19-03-2005 01:41:02 13.8 C 8.34 g/m*3 13.8 C 0 km/h
2284 19-03-2005 01:51:03 13.7 C 8.29 g/m*3 13.7 C 0 km/h
2285 19-03-2005 02:01:02 13.7 C 8.29 g/m*3 13.7 C 0 km/h
2286 19-03-2005 02:11:02 13.7 C 8.29 g/m*3 13.7 C 0 km/h
2287 19-03-2005 02:21:03 13.5 C 8.19 g/m*3 13.5 C 0 km/h
2288 19-03-2005 02:31:02 13.4 C 8.14 g/m*3 13.4 C 0 km/h
2289 19-03-2005 02:41:02 13.4 C 8.14 g/m*3 13.4 C 0 km/h
2290 19-03-2005 02:52:03 13.5 C 8.07 g/m*3 13.5 C 0 km/h
2291 19-03-2005 03:02:03 13.5 C 8.07 g/m*3 13.5 C 0 km/h
2292 19-03-2005 03:12:03 13.4 C 8.02 g/m*3 13.4 C 0 km/h
2293 19-03-2005 03:22:03 13.4 C 8.14 g/m*3 13.4 C 0 km/h
2294 19-03-2005 03:32:03 13.5 C 8.19 g/m*3 13.5 C 0 km/h
2295 19-03-2005 03:42:03 13.5 C 8.19 g/m*3 13.5 C 0 km/h
2296 19-03-2005 03:52:03 13.4 C 8.14 g/m*3 13.4 C 0 km/h
2297 19-03-2005 04:02:02 13.5 C 8.19 g/m*3 13.5 C 0 km/h
2298 19-03-2005 04:12:02 13.5 C 8.3 g/m*3 13.5 C 0 km/h
2299 19-03-2005 04:22:02 13.5 C 8.3 g/m*3 13.5 C 0 km/h
2300 19-03-2005 04:32:03 13.4 C 8.25 g/m*3 13.4 C 0 km/h
Sensor: Nr:Datum:Temp:Abs-Feuchte:Windchill:Wind:
Aussen-T/F 2301 19-03-2005 04:42:03 13.5 C 8.3 g/m*3 13.5 C 0 km/h
2302 19-03-2005 04:52:02 13.4 C 8.25 g/m*3 13.4 C 0 km/h
2303 19-03-2005 05:02:02 13.4 C 8.37 g/m*3 13.4 C 0 km/h
2304 19-03-2005 05:12:02 13.4 C 8.37 g/m*3 13.4 C 0 km/h
2305 19-03-2005 05:22:02 13.4 C 8.37 g/m*3 13.4 C 0 km/h
2306 19-03-2005 05:32:02 13.4 C 8.49 g/m*3 13.4 C 0 km/h
2307 19-03-2005 05:42:02 13.3 C 8.43 g/m*3 13.3 C 0 km/h
2308 19-03-2005 05:52:01 13.3 C 8.43 g/m*3 13.3 C 0 km/h
2309 19-03-2005 06:02:02 13.3 C 8.43 g/m*3 13.3 C 0 km/h
2310 19-03-2005 06:12:02 13.3 C 8.43 g/m*3 13.3 C 0 km/h
2311 19-03-2005 06:22:02 13.2 C 8.38 g/m*3 13.2 C 0 km/h
2312 19-03-2005 06:32:01 13.2 C 8.38 g/m*3 13.2 C 0 km/h
2313 19-03-2005 06:42:01 13.2 C 8.38 g/m*3 13.2 C 0 km/h
2314 19-03-2005 06:52:02 13.2 C 8.38 g/m*3 13.2 C 0 km/h
2315 19-03-2005 07:02:02 13.2 C 8.38 g/m*3 13.2 C 0 km/h
2316 19-03-2005 07:12:02 13.2 C 8.5 g/m*3 13.2 C 0 km/h
2317 19-03-2005 07:22:01 13.2 C 8.5 g/m*3 13.2 C 0 km/h
2318 19-03-2005 07:32:02 13.2 C 8.61 g/m*3 13.2 C 0 km/h
2319 19-03-2005 07:42:02 13.1 C 8.67 g/m*3 13.1 C 0 km/h
2320 19-03-2005 07:52:01 13.2 C 8.73 g/m*3 13.2 C 0 km/h
2321 19-03-2005 08:02:02 13.2 C 8.73 g/m*3 13.2 C 0 km/h
2322 19-03-2005 08:12:02 13.2 C 8.73 g/m*3 13.2 C 0 km/h
2323 19-03-2005 08:22:02 13.3 C 8.66 g/m*3 13.3 C 0 km/h
2324 19-03-2005 08:32:01 13.3 C 8.66 g/m*3 13.3 C 0 km/h
2325 19-03-2005 08:42:02 13.2 C 8.61 g/m*3 13.2 C 0 km/h
Sensor: Nr:Datum:Temp:Abs-Feuchte:Windchill:Wind:
Aussen-T/F 2326 19-03-2005 08:52:01 13.4 C 8.6 g/m*3 13.4 C 0 km/h
2327 19-03-2005 09:02:02 13.4 C 8.6 g/m*3 13.4 C 0 km/h
2328 19-03-2005 09:12:02 13.4 C 8.6 g/m*3 13.4 C 0 km/h
2329 19-03-2005 09:22:02 13.6 C 8.59 g/m*3 13.6 C 0 km/h
2330 19-03-2005 09:32:02 13.5 C 8.54 g/m*3 13.5 C 0 km/h
2331 19-03-2005 09:42:02 13.8 C 8.7 g/m*3 13.8 C 0 km/h
2332 19-03-2005 09:52:02 14 C 8.68 g/m*3 14 C 0 km/h
2333 19-03-2005 10:02:02 14.1 C 8.62 g/m*3 14.1 C 0 km/h
2334 19-03-2005 10:12:02 14.1 C 8.62 g/m*3 14.1 C 0 km/h
2335 19-03-2005 10:22:02 14.1 C 8.62 g/m*3 14.1 C 0 km/h
2336 19-03-2005 10:32:02 14.2 C 8.79 g/m*3 14.2 C 0 km/h
2337 19-03-2005 10:42:02 14.2 C 8.67 g/m*3 14.2 C 0 km/h
2338 19-03-2005 10:52:02 14.4 C 8.78 g/m*3 14.4 C 0 km/h
2339 19-03-2005 11:02:02 14.6 C 8.76 g/m*3 14.6 C 0 km/h
2340 19-03-2005 11:12:02 14.7 C 8.81 g/m*3 14.7 C 0 km/h
2341 19-03-2005 11:22:02 14.8 C 8.74 g/m*3 14.8 C 0 km/h
2342 19-03-2005 11:32:02 14.5 C 8.58 g/m*3 14.5 C 0 km/h
2343 19-03-2005 11:42:02 14.7 C 8.56 g/m*3 14.7 C 0 km/h
2344 19-03-2005 11:52:02 14.4 C 8.53 g/m*3 14.4 C 0 km/h
2345 19-03-2005 12:02:02 14.3 C 8.6 g/m*3 14.3 C 0 km/h
2346 19-03-2005 12:12:02 14.3 C 8.6 g/m*3 14.3 C 0 km/h
2347 19-03-2005 12:22:02 14 C 8.56 g/m*3 14 C 0 km/h
2348 19-03-2005 12:32:02 14.1 C 8.62 g/m*3 14.1 C 0 km/h
2349 19-03-2005 12:42:02 14.2 C 8.79 g/m*3 14.2 C 0 km/h
2350 19-03-2005 12:52:02 14.1 C 8.62 g/m*3 14.1 C 0 km/h
Sensor: Nr:Datum:Temp:Abs-Feuchte:Windchill:Wind:
Aussen-T/F 2351 19-03-2005 13:02:02 14.1 C 8.74 g/m*3 14.1 C 0 km/h
2352 19-03-2005 13:12:02 14.2 C 8.79 g/m*3 14.2 C 0 km/h
2353 19-03-2005 13:22:02 14.3 C 8.72 g/m*3 14.3 C 0 km/h
2354 19-03-2005 13:32:02 14 C 8.81 g/m*3 14 C 0 km/h
2355 19-03-2005 13:42:02 13.5 C 9.01 g/m*3 13.5 C 0 km/h
2356 19-03-2005 13:52:02 13.5 C 9.12 g/m*3 13.5 C 0 km/h
2357 19-03-2005 14:02:02 13.8 C 9.17 g/m*3 13.8 C 0 km/h
2358 19-03-2005 14:12:02 14.1 C 9.1 g/m*3 14.1 C 0 km/h
2359 19-03-2005 14:22:02 14.2 C 8.91 g/m*3 14.2 C 0 km/h
2360 19-03-2005 14:32:02 14.2 C 8.79 g/m*3 14.2 C 0 km/h
2361 19-03-2005 14:42:02 14.3 C 8.72 g/m*3 14.3 C 0 km/h
2362 19-03-2005 14:52:01 14.7 C 8.69 g/m*3 14.7 C 0 km/h
2363 19-03-2005 15:02:01 14.6 C 8.51 g/m*3 14.6 C 0 km/h
2364 19-03-2005 15:12:01 14.5 C 8.58 g/m*3 14.5 C 0 km/h
2365 19-03-2005 15:22:01 14.2 C 8.55 g/m*3 14.2 C 0 km/h
2366 19-03-2005 15:32:02 14.1 C 8.5 g/m*3 14.1 C 0 km/h
2367 19-03-2005 15:42:02 14.3 C 8.48 g/m*3 14.3 C 0 km/h
2368 19-03-2005 15:52:02 14.3 C 8.35 g/m*3 14.3 C 0 km/h
2369 19-03-2005 16:02:49 14.4 C 8.41 g/m*3 14.4 C 0 km/h
2370 19-03-2005 16:12:01 14.5 C 8.46 g/m*3 14.5 C 0 km/h
2371 19-03-2005 16:22:02 14.2 C 8.43 g/m*3 14.2 C 0 km/h
2372 19-03-2005 16:32:02 14.2 C 8.43 g/m*3 14.2 C 0 km/h
2373 19-03-2005 16:42:02 14.1 C 8.25 g/m*3 14.1 C 0 km/h
2374 19-03-2005 16:52:01 14.1 C 8.37 g/m*3 14.1 C 0 km/h
2375 19-03-2005 17:02:02 14 C 8.32 g/m*3 14 C 0 km/h
Sensor: Nr:Datum:Temp:Abs-Feuchte:Windchill:Wind:
Aussen-T/F 2376 19-03-2005 17:12:02 13.9 C 8.51 g/m*3 13.9 C 0 km/h
2377 19-03-2005 17:22:01 13.8 C 8.46 g/m*3 13.8 C 0 km/h
2378 19-03-2005 17:32:02 13.7 C 8.53 g/m*3 13.7 C 0 km/h
2379 19-03-2005 17:42:02 13.6 C 8.47 g/m*3 13.6 C 0 km/h
2380 19-03-2005 17:52:02 13.4 C 8.49 g/m*3 13.4 C 0 km/h
2381 19-03-2005 18:02:02 13.3 C 8.55 g/m*3 13.3 C 0 km/h
2382 19-03-2005 18:12:02 13.2 C 8.5 g/m*3 13.2 C 0 km/h
2383 19-03-2005 18:22:02 13.2 C 8.5 g/m*3 13.2 C 0 km/h
2384 19-03-2005 18:32:02 13.2 C 8.38 g/m*3 13.2 C 0 km/h
2385 19-03-2005 18:42:02 13.2 C 8.38 g/m*3 13.2 C 0 km/h
2386 19-03-2005 18:52:02 13.2 C 8.38 g/m*3 13.2 C 0 km/h
2387 19-03-2005 19:02:02 13.2 C 8.38 g/m*3 13.2 C 0 km/h
2388 19-03-2005 19:12:02 13.3 C 8.43 g/m*3 13.3 C 0 km/h
2389 19-03-2005 19:22:02 13.2 C 8.38 g/m*3 13.2 C 0 km/h
2390 19-03-2005 19:32:02 13.1 C 8.33 g/m*3 13.1 C 0 km/h
2391 19-03-2005 19:42:02 13.1 C 8.33 g/m*3 13.1 C 0 km/h
2392 19-03-2005 19:52:01 13 C 8.28 g/m*3 13 C 0 km/h
2393 19-03-2005 20:02:01 13 C 8.39 g/m*3 13 C 0 km/h
2394 19-03-2005 20:12:01 12.9 C 8.34 g/m*3 12.9 C 0 km/h
2395 19-03-2005 20:22:01 12.9 C 8.34 g/m*3 12.9 C 0 km/h
2396 19-03-2005 20:32:02 12.9 C 8.45 g/m*3 12.9 C 0 km/h
2397 19-03-2005 20:42:02 12.9 C 8.45 g/m*3 12.9 C 0 km/h
2398 19-03-2005 20:52:02 12.8 C 8.4 g/m*3 12.8 C 0 km/h
2399 19-03-2005 21:02:03 12.7 C 8.35 g/m*3 12.7 C 0 km/h
2400 19-03-2005 21:12:03 12.7 C 8.35 g/m*3 12.7 C 0 km/h
Sensor: Nr:Datum:Temp:Abs-Feuchte:Windchill:Wind:
Aussen-T/F 2401 19-03-2005 21:22:03 12.6 C 8.3 g/m*3 12.6 C 0 km/h
2402 19-03-2005 21:32:02 12.6 C 8.41 g/m*3 12.6 C 0 km/h
2403 19-03-2005 21:42:02 12.5 C 8.36 g/m*3 12.5 C 0 km/h
2404 19-03-2005 21:52:01 12.4 C 8.3 g/m*3 12.4 C 0 km/h
2405 19-03-2005 22:02:02 12.4 C 8.19 g/m*3 12.4 C 0 km/h
2406 19-03-2005 22:12:02 12.4 C 8.3 g/m*3 12.4 C 0 km/h
2407 19-03-2005 22:22:02 12.4 C 8.3 g/m*3 12.4 C 0 km/h
2408 19-03-2005 22:32:01 12.1 C 7.83 g/m*3 12.1 C 0 km/h
2409 19-03-2005 22:42:01 12 C 7.57 g/m*3 12 C 0 km/h
2410 19-03-2005 22:52:02 11.9 C 7.41 g/m*3 11.9 C 0 km/h
2411 19-03-2005 23:02:01 11.6 C 7.07 g/m*3 11.6 C 0 km/h
2412 19-03-2005 23:12:01 11.4 C 6.77 g/m*3 11.4 C 0 km/h
2413 19-03-2005 23:22:02 11.3 C 6.73 g/m*3 11.3 C 0 km/h
2414 19-03-2005 23:32:02 11.2 C 6.69 g/m*3 11.2 C 0 km/h
2415 19-03-2005 23:42:02 11.2 C 6.69 g/m*3 11.2 C 0 km/h
2416 19-03-2005 23:52:01 11.1 C 6.55 g/m*3 11.1 C 0 km/h
2417 20-03-2005 00:02:01 11 C 6.61 g/m*3 11 C 0 km/h
2418 20-03-2005 00:12:01 11 C 6.61 g/m*3 11 C 0 km/h
2419 20-03-2005 00:22:03 11 C 6.61 g/m*3 11 C 0 km/h
2420 20-03-2005 00:32:02 10.9 C 6.56 g/m*3 10.9 C 0 km/h
2421 20-03-2005 00:42:02 10.8 C 6.52 g/m*3 10.8 C 0 km/h
2422 20-03-2005 00:52:02 10.7 C 6.48 g/m*3 10.7 C 0 km/h
2423 20-03-2005 01:02:03 10.6 C 6.44 g/m*3 10.6 C 0 km/h
2424 20-03-2005 01:12:03 10.5 C 6.5 g/m*3 10.5 C 0 km/h
2425 20-03-2005 01:22:02 10.5 C 6.4 g/m*3 10.5 C 0 km/h
Sensor: Nr:Datum:Temp:Abs-Feuchte:Windchill:Wind:
Aussen-T/F 2426 20-03-2005 01:32:03 10.3 C 6.32 g/m*3 10.3 C 0 km/h
2427 20-03-2005 01:42:03 10.1 C 6.24 g/m*3 10.1 C 0 km/h
2428 20-03-2005 01:52:02 10.1 C 6.24 g/m*3 10.1 C 0 km/h
2429 20-03-2005 02:02:03 10 C 6.2 g/m*3 10 C 0 km/h
2430 20-03-2005 02:12:03 9.8 C 6.22 g/m*3 9.8 C 0 km/h
2431 20-03-2005 02:22:02 9.9 C 6.26 g/m*3 9.9 C 0 km/h
2432 20-03-2005 02:32:02 9.7 C 6.18 g/m*3 9.7 C 0 km/h
2433 20-03-2005 02:42:02 9.7 C 6.18 g/m*3 9.7 C 0 km/h
2434 20-03-2005 02:53:04 9.6 C 6.14 g/m*3 9.6 C 0 km/h
2435 20-03-2005 03:03:04 9.5 C 6.19 g/m*3 9.5 C 0 km/h
2436 20-03-2005 03:13:04 9.4 C 6.15 g/m*3 9.4 C 0 km/h
2437 20-03-2005 03:23:04 9.3 C 6.11 g/m*3 9.3 C 0 km/h
2438 20-03-2005 03:33:02 9.2 C 5.98 g/m*3 9.2 C 0 km/h
2439 20-03-2005 03:43:02 9.2 C 5.98 g/m*3 9.2 C 0 km/h
2440 20-03-2005 03:53:02 9.1 C 6.03 g/m*3 9.1 C 0 km/h
2441 20-03-2005 04:03:01 9 C 5.99 g/m*3 9 C 0 km/h
2442 20-03-2005 04:13:01 9 C 6.08 g/m*3 9 C 0 km/h
2443 20-03-2005 04:23:01 8.9 C 6.04 g/m*3 8.9 C 0 km/h
2444 20-03-2005 04:33:01 8.9 C 6.13 g/m*3 8.9 C 0 km/h
2445 20-03-2005 04:43:01 8.8 C 6.09 g/m*3 8.8 C 0 km/h
2446 20-03-2005 04:53:02 8.7 C 6.05 g/m*3 8.7 C 0 km/h
2447 20-03-2005 05:03:02 8.7 C 6.05 g/m*3 8.7 C 0 km/h
2448 20-03-2005 05:13:02 8.6 C 6.1 g/m*3 8.6 C 0 km/h
2449 20-03-2005 05:23:02 8.6 C 6.1 g/m*3 8.6 C 0 km/h
2450 20-03-2005 05:33:02 8.5 C 5.98 g/m*3 8.5 C 0 km/h
Sensor: Nr:Datum:Temp:Abs-Feuchte:Windchill:Wind:
Aussen-T/F 2451 20-03-2005 05:43:02 8.4 C 6.02 g/m*3 8.4 C 0 km/h
2452 20-03-2005 05:53:02 8.3 C 5.98 g/m*3 8.3 C 0 km/h
2453 20-03-2005 06:03:02 8.3 C 5.98 g/m*3 8.3 C 0 km/h
2454 20-03-2005 06:13:02 8.3 C 5.98 g/m*3 8.3 C 0 km/h
2455 20-03-2005 06:23:01 8.1 C 5.82 g/m*3 8.1 C 0 km/h
2456 20-03-2005 06:33:02 7.9 C 5.91 g/m*3 7.9 C 0 km/h
2457 20-03-2005 06:43:02 8 C 5.95 g/m*3 8 C 0 km/h
2458 20-03-2005 06:53:01 8 C 5.95 g/m*3 8 C 0 km/h
2459 20-03-2005 07:03:02 8 C 5.87 g/m*3 8 C 0 km/h
2460 20-03-2005 07:13:02 8 C 5.87 g/m*3 8 C 0 km/h
2461 20-03-2005 07:23:01 7.9 C 5.91 g/m*3 7.9 C 0 km/h
2462 20-03-2005 07:33:01 8 C 5.79 g/m*3 8 C 0 km/h
2463 20-03-2005 07:43:01 8 C 5.79 g/m*3 8 C 0 km/h
2464 20-03-2005 07:53:02 8.1 C 5.74 g/m*3 8.1 C 0 km/h
2465 20-03-2005 08:03:02 8 C 5.7 g/m*3 8 C 0 km/h
2466 20-03-2005 08:13:02 8.1 C 5.74 g/m*3 8.1 C 0 km/h
2467 20-03-2005 08:23:02 8.4 C 5.77 g/m*3 8.4 C 0 km/h
2468 20-03-2005 08:33:02 8.7 C 5.79 g/m*3 8.7 C 0 km/h
2469 20-03-2005 08:43:02 8.8 C 5.66 g/m*3 8.8 C 0 km/h
2470 20-03-2005 08:53:01 8.9 C 5.69 g/m*3 8.9 C 0 km/h
2471 20-03-2005 09:03:02 9.1 C 5.59 g/m*3 9.1 C 0 km/h
2472 20-03-2005 09:13:02 9.2 C 5.63 g/m*3 9.2 C 0 km/h
2473 20-03-2005 09:23:02 9.6 C 5.68 g/m*3 9.6 C 0 km/h
2474 20-03-2005 09:33:01 9.8 C 5.75 g/m*3 9.8 C 0 km/h
2475 20-03-2005 09:43:01 10.1 C 5.58 g/m*3 10.1 C 0 km/h
Sensor: Nr:Datum:Temp:Abs-Feuchte:Windchill:Wind:
Aussen-T/F 2476 20-03-2005 09:53:01 10.4 C 5.59 g/m*3 10.4 C 0 km/h
2477 20-03-2005 10:03:02 10.6 C 5.56 g/m*3 10.6 C 0 km/h
2478 20-03-2005 10:13:02 10.8 C 5.63 g/m*3 10.8 C 0 km/h
2479 20-03-2005 10:23:02 11.4 C 5.75 g/m*3 11.4 C 0 km/h
2480 20-03-2005 10:33:01 11.5 C 5.58 g/m*3 11.5 C 0 km/h
2481 20-03-2005 10:43:01 11.6 C 5.51 g/m*3 11.6 C 0 km/h
2482 20-03-2005 10:53:02 11.9 C 5.61 g/m*3 11.9 C 0 km/h
2483 20-03-2005 11:03:02 12.2 C 5.61 g/m*3 12.2 C 0 km/h
2484 20-03-2005 11:13:02 12.6 C 5.53 g/m*3 12.6 C 0 km/h
2485 20-03-2005 11:23:02 13.1 C 5.48 g/m*3 13.1 C 0 km/h
2486 20-03-2005 11:33:01 13.1 C 5.48 g/m*3 13.1 C 0 km/h
2487 20-03-2005 11:43:01 13.2 C 5.51 g/m*3 13.2 C 0 km/h
2488 20-03-2005 11:53:02 13.4 C 5.58 g/m*3 13.4 C 0 km/h
2489 20-03-2005 12:03:01 13.3 C 5.43 g/m*3 13.3 C 0 km/h
2490 20-03-2005 12:13:01 13.5 C 5.5 g/m*3 13.5 C 0 km/h
2491 20-03-2005 12:23:01 13.6 C 5.53 g/m*3 13.6 C 0 km/h
2492 20-03-2005 12:33:02 13.4 C 5.46 g/m*3 13.4 C 0 km/h
2493 20-03-2005 12:43:02 14 C 5.55 g/m*3 14 C 0 km/h
2494 20-03-2005 12:53:02 14.2 C 5.37 g/m*3 14.2 C 0 km/h
2495 20-03-2005 13:03:02 14 C 5.31 g/m*3 14 C 0 km/h
2496 20-03-2005 13:13:02 14.3 C 5.16 g/m*3 14.3 C 0 km/h
2497 20-03-2005 13:23:02 14.9 C 5.35 g/m*3 14.9 C 0 km/h
2498 20-03-2005 13:33:03 15.3 C 5.09 g/m*3 15.3 C 0 km/h
2499 20-03-2005 13:43:03 15.9 C 5.15 g/m*3 15.9 C 0 km/h
2500 20-03-2005 13:53:02 16.4 C 5.16 g/m*3 16.4 C 0 km/h
Sensor: Nr:Datum:Temp:Abs-Feuchte:Windchill:Wind:
Aussen-T/F 2501 20-03-2005 14:03:02 16.6 C 5.09 g/m*3 16.6 C 0 km/h
2502 20-03-2005 14:13:02 16.9 C 5.03 g/m*3 16.9 C 0 km/h
2503 20-03-2005 14:23:02 17.3 C 4.86 g/m*3 17.3 C 0 km/h
2504 20-03-2005 14:33:02 17.8 C 4.86 g/m*3 17.8 C 0 km/h
2505 20-03-2005 14:43:02 18.1 C 4.94 g/m*3 18.1 C 0 km/h
2506 20-03-2005 14:53:01 18.6 C 5.09 g/m*3 18.6 C 0 km/h
2507 20-03-2005 15:03:02 19 C 4.89 g/m*3 19 C 0 km/h
2508 20-03-2005 15:13:02 18.4 C 4.56 g/m*3 18.4 C 0 km/h
2509 20-03-2005 15:23:02 18.8 C 4.83 g/m*3 18.8 C 0 km/h
2510 20-03-2005 15:33:01 18.9 C 4.86 g/m*3 18.9 C 0 km/h
2511 20-03-2005 15:43:01 18.8 C 4.83 g/m*3 18.8 C 0 km/h
2512 20-03-2005 15:53:01 19.4 C 4.84 g/m*3 19.4 C 0 km/h
2513 20-03-2005 16:03:02 19.3 C 4.81 g/m*3 19.3 C 0 km/h
2514 20-03-2005 16:13:02 19.7 C 4.75 g/m*3 19.7 C 0 km/h
2515 20-03-2005 16:23:02 19.1 C 4.59 g/m*3 19.1 C 0 km/h
2516 20-03-2005 16:33:01 18.8 C 4.83 g/m*3 18.8 C 0 km/h
2517 20-03-2005 16:43:01 18.5 C 4.43 g/m*3 18.5 C 0 km/h
2518 20-03-2005 16:53:01 17.7 C 4.53 g/m*3 17.7 C 0 km/h
2519 20-03-2005 17:03:02 17.2 C 4.25 g/m*3 17.2 C 0 km/h
2520 20-03-2005 17:13:02 16.7 C 4.41 g/m*3 16.7 C 0 km/h
2521 20-03-2005 17:23:02 16.4 C 4.33 g/m*3 16.4 C 0 km/h
2522 20-03-2005 17:33:02 15.9 C 4.2 g/m*3 15.9 C 0 km/h
2523 20-03-2005 17:43:02 15.2 C 4.28 g/m*3 15.2 C 0 km/h
2524 20-03-2005 17:53:02 14.8 C 4.43 g/m*3 14.8 C 0 km/h
2525 20-03-2005 18:03:02 14.2 C 4.27 g/m*3 14.2 C 0 km/h
Sensor: Nr:Datum:Temp:Abs-Feuchte:Windchill:Wind:
Aussen-T/F 2526 20-03-2005 18:13:02 13.7 C 4.5 g/m*3 13.7 C 0 km/h
2527 20-03-2005 18:23:02 13.3 C 4.51 g/m*3 13.3 C 0 km/h
2528 20-03-2005 18:33:02 12.7 C 4.56 g/m*3 12.7 C 0 km/h
2529 20-03-2005 18:43:02 12.3 C 4.67 g/m*3 12.3 C 0 km/h
2530 20-03-2005 18:53:02 12 C 4.9 g/m*3 12 C 0 km/h
2531 20-03-2005 19:03:02 11.5 C 4.96 g/m*3 11.5 C 0 km/h
2532 20-03-2005 19:13:02 11.2 C 4.87 g/m*3 11.2 C 0 km/h
2533 20-03-2005 19:23:02 11 C 4.8 g/m*3 11 C 0 km/h
2534 20-03-2005 19:33:02 10.8 C 4.94 g/m*3 10.8 C 0 km/h
2535 20-03-2005 19:43:02 10.7 C 4.91 g/m*3 10.7 C 0 km/h
2536 20-03-2005 19:53:02 10.5 C 4.85 g/m*3 10.5 C 0 km/h
2537 20-03-2005 20:03:02 10.4 C 4.82 g/m*3 10.4 C 0 km/h
2538 20-03-2005 20:13:02 10.1 C 4.92 g/m*3 10.1 C 0 km/h
2539 20-03-2005 20:23:02 9.8 C 5.01 g/m*3 9.8 C 0 km/h
2540 20-03-2005 20:33:02 9.8 C 5.1 g/m*3 9.8 C 0 km/h
2541 20-03-2005 20:43:02 9.4 C 5.06 g/m*3 9.4 C 0 km/h
2542 20-03-2005 20:53:01 9.2 C 5 g/m*3 9.2 C 0 km/h
2543 20-03-2005 21:03:02 9 C 4.94 g/m*3 9 C 0 km/h
2544 20-03-2005 21:13:02 8.9 C 5.08 g/m*3 8.9 C 0 km/h
2545 20-03-2005 21:23:02 8.7 C 5.02 g/m*3 8.7 C 0 km/h
2546 20-03-2005 21:33:02 8.7 C 5.19 g/m*3 8.7 C 0 km/h
2547 20-03-2005 21:43:03 8.5 C 5.12 g/m*3 8.5 C 0 km/h
2548 20-03-2005 21:53:02 8.5 C 5.21 g/m*3 8.5 C 0 km/h
2549 20-03-2005 22:03:03 8.4 C 5.17 g/m*3 8.4 C 0 km/h
2550 20-03-2005 22:13:03 8.4 C 5.09 g/m*3 8.4 C 0 km/h
Sensor: Nr:Datum:Temp:Abs-Feuchte:Windchill:Wind:
Aussen-T/F 2551 20-03-2005 22:23:03 8.3 C 5.06 g/m*3 8.3 C 0 km/h
2552 20-03-2005 22:33:02 8.2 C 5.02 g/m*3 8.2 C 0 km/h
2553 20-03-2005 22:43:02 8.1 C 4.99 g/m*3 8.1 C 0 km/h
2554 20-03-2005 22:53:01 8.1 C 4.99 g/m*3 8.1 C 0 km/h
2555 20-03-2005 23:03:02 8.1 C 5.08 g/m*3 8.1 C 0 km/h
2556 20-03-2005 23:13:02 7.9 C 5.01 g/m*3 7.9 C 0 km/h
2557 20-03-2005 23:23:02 7.8 C 5.06 g/m*3 7.8 C 0 km/h
2558 20-03-2005 23:33:01 7.7 C 5.03 g/m*3 7.7 C 0 km/h
2559 20-03-2005 23:43:01 7.6 C 5.08 g/m*3 7.6 C 0 km/h
2560 20-03-2005 23:53:02 7.6 C 5.08 g/m*3 7.6 C 0 km/h
2561 21-03-2005 00:03:03 7.5 C 5.04 g/m*3 7.5 C 0 km/h
2562 21-03-2005 00:13:03 7.2 C 5.02 g/m*3 7.2 C 0 km/h
2563 21-03-2005 00:23:03 7.2 C 5.02 g/m*3 7.2 C 0 km/h
2564 21-03-2005 00:33:02 7.2 C 5.02 g/m*3 7.2 C 0 km/h
2565 21-03-2005 00:43:02 7.1 C 4.99 g/m*3 7.1 C 0 km/h
2566 21-03-2005 00:53:03 7 C 5.04 g/m*3 7 C 0 km/h
2567 21-03-2005 01:03:02 6.9 C 5.08 g/m*3 6.9 C 0 km/h
2568 21-03-2005 01:13:02 6.8 C 5.05 g/m*3 6.8 C 0 km/h
2569 21-03-2005 01:23:02 6.7 C 5.09 g/m*3 6.7 C 0 km/h
2570 21-03-2005 01:33:03 6.6 C 5.06 g/m*3 6.6 C 0 km/h
2571 21-03-2005 01:43:03 6.5 C 5.02 g/m*3 6.5 C 0 km/h
2572 21-03-2005 01:53:03 6.2 C 4.93 g/m*3 6.2 C 0 km/h
2573 21-03-2005 02:03:02 6 C 4.94 g/m*3 6 C 0 km/h
2574 21-03-2005 02:13:02 5.9 C 5.05 g/m*3 5.9 C 0 km/h
2575 21-03-2005 02:23:03 5.9 C 5.05 g/m*3 5.9 C 0 km/h
Sensor: Nr:Datum:Temp:Abs-Feuchte:Windchill:Wind:
Aussen-T/F 2576 21-03-2005 02:33:02 5.7 C 4.98 g/m*3 5.7 C 0 km/h
2577 21-03-2005 02:43:02 5.6 C 4.95 g/m*3 5.6 C 0 km/h
2578 21-03-2005 02:54:04 5.6 C 4.95 g/m*3 5.6 C 0 km/h
2579 21-03-2005 03:04:04 5.4 C 4.95 g/m*3 5.4 C 0 km/h
2580 21-03-2005 03:14:03 5.3 C 4.92 g/m*3 5.3 C 0 km/h
2581 21-03-2005 03:24:03 5.2 C 4.89 g/m*3 5.2 C 0 km/h
2582 21-03-2005 03:34:02 5.1 C 4.86 g/m*3 5.1 C 0 km/h
2583 21-03-2005 03:44:02 5 C 4.89 g/m*3 5 C 0 km/h
2584 21-03-2005 03:54:02 4.9 C 4.93 g/m*3 4.9 C 0 km/h
2585 21-03-2005 04:04:01 4.7 C 4.86 g/m*3 4.7 C 0 km/h
2586 21-03-2005 04:14:01 4.6 C 4.9 g/m*3 4.6 C 0 km/h
2587 21-03-2005 04:24:02 4.7 C 4.93 g/m*3 4.7 C 0 km/h
2588 21-03-2005 04:34:01 4.5 C 4.86 g/m*3 4.5 C 0 km/h
2589 21-03-2005 04:44:01 4.4 C 4.83 g/m*3 4.4 C 0 km/h
2590 21-03-2005 04:54:03 4.2 C 4.77 g/m*3 4.2 C 0 km/h
2591 21-03-2005 05:04:03 4.1 C 4.8 g/m*3 4.1 C 0 km/h
2592 21-03-2005 05:14:04 4.1 C 4.8 g/m*3 4.1 C 0 km/h
2593 21-03-2005 05:24:03 4 C 4.77 g/m*3 4 C 0 km/h
2594 21-03-2005 05:34:03 3.9 C 4.8 g/m*3 3.9 C 0 km/h
2595 21-03-2005 05:44:03 3.8 C 4.83 g/m*3 3.8 C 0 km/h
2596 21-03-2005 05:54:03 3.5 C 4.73 g/m*3 3.5 C 0 km/h
2597 21-03-2005 06:04:02 3.5 C 4.73 g/m*3 3.5 C 0 km/h
2598 21-03-2005 06:14:02 3.4 C 4.76 g/m*3 3.4 C 0 km/h
2599 21-03-2005 06:24:02 3.3 C 4.73 g/m*3 3.3 C 0 km/h
2600 21-03-2005 06:34:02 3.2 C 4.7 g/m*3 3.2 C 0 km/h
Sensor: Nr:Datum:Temp:Abs-Feuchte:Windchill:Wind:
Aussen-T/F 2601 21-03-2005 06:44:02 3.2 C 4.7 g/m*3 3.2 C 0 km/h
2602 21-03-2005 06:54:01 3.2 C 4.7 g/m*3 3.2 C 0 km/h
2603 21-03-2005 07:04:01 3.3 C 4.73 g/m*3 3.3 C 0 km/h
2604 21-03-2005 07:14:01 3.3 C 4.73 g/m*3 3.3 C 0 km/h
2605 21-03-2005 07:24:01 3.3 C 4.73 g/m*3 3.3 C 0 km/h
2606 21-03-2005 07:34:01 3.3 C 4.73 g/m*3 3.3 C 0 km/h
2607 21-03-2005 07:44:01 3.4 C 4.76 g/m*3 3.4 C 0 km/h
2608 21-03-2005 07:54:03 3.5 C 4.73 g/m*3 3.5 C 0 km/h
2609 21-03-2005 08:04:02 3.4 C 4.76 g/m*3 3.4 C 0 km/h
2610 21-03-2005 08:14:02 3.4 C 4.76 g/m*3 3.4 C 0 km/h
2611 21-03-2005 08:24:02 3.5 C 4.73 g/m*3 3.5 C 0 km/h
2612 21-03-2005 08:34:02 3.7 C 4.8 g/m*3 3.7 C 0 km/h
2613 21-03-2005 08:44:02 3.9 C 4.93 g/m*3 3.9 C 0 km/h
2614 21-03-2005 08:54:02 4.2 C 4.96 g/m*3 4.2 C 0 km/h
2615 21-03-2005 09:04:02 4.7 C 5 g/m*3 4.7 C 0 km/h
2616 21-03-2005 09:14:02 5.2 C 5.03 g/m*3 5.2 C 0 km/h
2617 21-03-2005 09:24:01 5.5 C 4.99 g/m*3 5.5 C 0 km/h
2618 21-03-2005 09:34:01 6.1 C 5.04 g/m*3 6.1 C 0 km/h
2619 21-03-2005 09:44:01 6.6 C 4.98 g/m*3 6.6 C 0 km/h
2620 21-03-2005 09:54:02 7.1 C 4.99 g/m*3 7.1 C 0 km/h
2621 21-03-2005 10:04:02 7.7 C 4.95 g/m*3 7.7 C 0 km/h
2622 21-03-2005 10:14:02 8.4 C 5.01 g/m*3 8.4 C 0 km/h
2623 21-03-2005 10:24:02 8.9 C 4.82 g/m*3 8.9 C 0 km/h
2624 21-03-2005 10:34:02 9.2 C 4.55 g/m*3 9.2 C 0 km/h
2625 21-03-2005 10:44:02 9.6 C 4.49 g/m*3 9.6 C 0 km/h
Sensor: Nr:Datum:Temp:Abs-Feuchte:Windchill:Wind:
Aussen-T/F 2626 21-03-2005 10:54:02 10.2 C 4 g/m*3 10.2 C 0 km/h
2627 21-03-2005 11:04:03 11 C 3.4 g/m*3 11 C 0 km/h
2628 21-03-2005 11:14:03 11.4 C 3.28 g/m*3 11.4 C 0 km/h
2629 21-03-2005 11:24:03 11.7 C 3.03 g/m*3 11.7 C 0 km/h
2630 21-03-2005 11:34:02 12.1 C 2.68 g/m*3 12.1 C 0 km/h
2631 21-03-2005 11:44:03 12.2 C 2.37 g/m*3 12.2 C 0 km/h
2632 21-03-2005 11:54:02 12.7 C 2.89 g/m*3 12.7 C 0 km/h
2633 21-03-2005 12:04:02 12.8 C 2.58 g/m*3 12.8 C 0 km/h
2634 21-03-2005 12:14:02 13.2 C 2.64 g/m*3 13.2 C 0 km/h
2635 21-03-2005 12:24:02 13.7 C 2.49 g/m*3 13.7 C 0 km/h
2636 21-03-2005 12:34:02 14.1 C 2.55 g/m*3 14.1 C 0 km/h
2637 21-03-2005 12:44:02 14.4 C 2.72 g/m*3 14.4 C 0 km/h
2638 21-03-2005 12:54:01 14.9 C 2.93 g/m*3 14.9 C 0 km/h
2639 21-03-2005 13:04:02 15.2 C 2.6 g/m*3 15.2 C 0 km/h
2640 21-03-2005 13:14:02 15.8 C 2.96 g/m*3 15.8 C 0 km/h
2641 21-03-2005 13:24:02 15.8 C 2.69 g/m*3 15.8 C 0 km/h
2642 21-03-2005 13:34:02 16 C 2.72 g/m*3 16 C 0 km/h
2643 21-03-2005 13:44:02 16.9 C 3.02 g/m*3 16.9 C 0 km/h
2644 21-03-2005 13:54:02 16.9 C 2.88 g/m*3 16.9 C 0 km/h
2645 21-03-2005 14:04:02 17 C 2.89 g/m*3 17 C 0 km/h
2646 21-03-2005 14:14:02 17.3 C 2.95 g/m*3 17.3 C 0 km/h
2647 21-03-2005 14:24:02 17.7 C 3.02 g/m*3 17.7 C 0 km/h
2648 21-03-2005 14:34:02 17.1 C 2.91 g/m*3 17.1 C 0 km/h
2649 21-03-2005 14:44:03 17.9 C 3.05 g/m*3 17.9 C 0 km/h
2650 21-03-2005 14:54:02 18.2 C 3.11 g/m*3 18.2 C 0 km/h
Sensor: Nr:Datum:Temp:Abs-Feuchte:Windchill:Wind:
Aussen-T/F 2651 21-03-2005 15:04:02 18.9 C 3.24 g/m*3 18.9 C 0 km/h
2652 21-03-2005 15:14:02 19 C 3.26 g/m*3 19 C 0 km/h
2653 21-03-2005 15:24:02 18.6 C 3.18 g/m*3 18.6 C 0 km/h
2654 21-03-2005 15:34:02 18.7 C 3.2 g/m*3 18.7 C 0 km/h
2655 21-03-2005 15:44:02 18.5 C 3.16 g/m*3 18.5 C 0 km/h
2656 21-03-2005 15:54:02 18.8 C 3.22 g/m*3 18.8 C 0 km/h
2657 21-03-2005 16:04:02 18.9 C 3.24 g/m*3 18.9 C 0 km/h
2658 21-03-2005 16:14:02 18.9 C 3.24 g/m*3 18.9 C 0 km/h
2659 21-03-2005 16:24:02 18.9 C 3.24 g/m*3 18.9 C 0 km/h
2660 21-03-2005 16:34:02 18.3 C 3.13 g/m*3 18.3 C 0 km/h
2661 21-03-2005 16:44:02 18.1 C 3.09 g/m*3 18.1 C 0 km/h
2662 21-03-2005 16:54:02 18.3 C 3.13 g/m*3 18.3 C 0 km/h
2663 21-03-2005 17:04:02 18.5 C 3.16 g/m*3 18.5 C 0 km/h
2664 21-03-2005 17:14:02 18.7 C 3.2 g/m*3 18.7 C 0 km/h
2665 21-03-2005 17:24:03 18.6 C 3.18 g/m*3 18.6 C 0 km/h
2666 21-03-2005 17:34:03 18.1 C 3.09 g/m*3 18.1 C 0 km/h
2667 21-03-2005 17:44:03 17.9 C 3.05 g/m*3 17.9 C 0 km/h
2668 21-03-2005 17:54:02 17.6 C 3 g/m*3 17.6 C 0 km/h
2669 21-03-2005 18:04:02 17 C 3.04 g/m*3 17 C 0 km/h
2670 21-03-2005 18:14:02 16.3 C 2.91 g/m*3 16.3 C 0 km/h
2671 21-03-2005 18:24:02 15.3 C 3.26 g/m*3 15.3 C 0 km/h
2672 21-03-2005 18:34:02 14.7 C 3.78 g/m*3 14.7 C 0 km/h
2673 21-03-2005 18:44:02 14 C 3.86 g/m*3 14 C 0 km/h
2674 21-03-2005 18:54:02 13.3 C 3.81 g/m*3 13.3 C 0 km/h
2675 21-03-2005 19:04:02 12.8 C 3.92 g/m*3 12.8 C 0 km/h
Sensor: Nr:Datum:Temp:Abs-Feuchte:Windchill:Wind:
Aussen-T/F 2676 21-03-2005 19:14:02 12.3 C 3.91 g/m*3 12.3 C 0 km/h
2677 21-03-2005 19:24:02 12.1 C 3.97 g/m*3 12.1 C 0 km/h
2678 21-03-2005 19:34:02 11.7 C 3.97 g/m*3 11.7 C 0 km/h
2679 21-03-2005 19:44:02 11.4 C 4 g/m*3 11.4 C 0 km/h
2680 21-03-2005 19:54:02 11.1 C 4.03 g/m*3 11.1 C 0 km/h
2681 21-03-2005 20:04:02 10.8 C 4.05 g/m*3 10.8 C 0 km/h
2682 21-03-2005 20:14:02 10.7 C 4.03 g/m*3 10.7 C 0 km/h
2683 21-03-2005 20:24:02 10.5 C 3.98 g/m*3 10.5 C 0 km/h
2684 21-03-2005 20:34:02 10.4 C 3.95 g/m*3 10.4 C 0 km/h
2685 21-03-2005 20:44:02 10.4 C 3.86 g/m*3 10.4 C 0 km/h
2686 21-03-2005 20:54:02 10.2 C 3.81 g/m*3 10.2 C 0 km/h
2687 21-03-2005 21:04:02 10.1 C 3.97 g/m*3 10.1 C 0 km/h
2688 21-03-2005 21:14:02 10 C 3.85 g/m*3 10 C 0 km/h
2689 21-03-2005 21:24:02 9.8 C 3.9 g/m*3 9.8 C 0 km/h
2690 21-03-2005 21:34:03 9.7 C 3.78 g/m*3 9.7 C 0 km/h
2691 21-03-2005 21:44:03 9.6 C 4.03 g/m*3 9.6 C 0 km/h
2692 21-03-2005 21:54:02 9.3 C 3.95 g/m*3 9.3 C 0 km/h
2693 21-03-2005 22:04:02 9.1 C 3.99 g/m*3 9.1 C 0 km/h
2694 21-03-2005 22:14:02 8.9 C 3.94 g/m*3 8.9 C 0 km/h
2695 21-03-2005 22:24:02 8.8 C 4.09 g/m*3 8.8 C 0 km/h
2696 21-03-2005 22:34:02 8.6 C 4.21 g/m*3 8.6 C 0 km/h
2697 21-03-2005 22:44:02 8.6 C 4.12 g/m*3 8.6 C 0 km/h
2698 21-03-2005 22:54:01 8.4 C 4.07 g/m*3 8.4 C 0 km/h
2699 21-03-2005 23:04:02 8.3 C 4.21 g/m*3 8.3 C 0 km/h
2700 21-03-2005 23:14:02 8 C 4.13 g/m*3 8 C 0 km/h
Sensor: Nr:Datum:Temp:Abs-Feuchte:Windchill:Wind:
Aussen-T/F 2701 21-03-2005 23:24:02 7.9 C 4.11 g/m*3 7.9 C 0 km/h
2702 21-03-2005 23:34:01 7.8 C 4.24 g/m*3 7.8 C 0 km/h
2703 21-03-2005 23:44:01 7.7 C 4.14 g/m*3 7.7 C 0 km/h
2704 21-03-2005 23:54:01 7.5 C 4.16 g/m*3 7.5 C 0 km/h
2705 22-03-2005 00:04:02 7.4 C 4.29 g/m*3 7.4 C 0 km/h
2706 22-03-2005 00:14:02 7.3 C 4.27 g/m*3 7.3 C 0 km/h
2707 22-03-2005 00:24:03 7.1 C 4.29 g/m*3 7.1 C 0 km/h
2708 22-03-2005 00:34:02 7 C 4.26 g/m*3 7 C 0 km/h
2709 22-03-2005 00:44:02 6.9 C 4.23 g/m*3 6.9 C 0 km/h
2710 22-03-2005 00:54:03 6.8 C 4.21 g/m*3 6.8 C 0 km/h
2711 22-03-2005 01:04:02 6.7 C 4.33 g/m*3 6.7 C 0 km/h
2712 22-03-2005 01:14:03 6.6 C 4.45 g/m*3 6.6 C 0 km/h
2713 22-03-2005 01:24:02 6.5 C 4.35 g/m*3 6.5 C 0 km/h
2714 22-03-2005 01:34:02 6.4 C 4.32 g/m*3 6.4 C 0 km/h
2715 22-03-2005 01:44:02 6.3 C 4.22 g/m*3 6.3 C 0 km/h
2716 22-03-2005 01:54:02 6.1 C 4.24 g/m*3 6.1 C 0 km/h
2717 22-03-2005 02:04:02 5.9 C 4.25 g/m*3 5.9 C 0 km/h
2718 22-03-2005 02:14:02 5.8 C 4.3 g/m*3 5.8 C 0 km/h
2719 22-03-2005 02:24:02 5.7 C 4.34 g/m*3 5.7 C 0 km/h
2720 22-03-2005 02:34:02 5.6 C 4.38 g/m*3 5.6 C 0 km/h
2721 22-03-2005 02:44:03 5.6 C 4.31 g/m*3 5.6 C 0 km/h
2722 22-03-2005 02:55:04 5.4 C 4.26 g/m*3 5.4 C 0 km/h
2723 22-03-2005 03:05:04 5.2 C 4.2 g/m*3 5.2 C 0 km/h
2724 22-03-2005 03:15:04 5.2 C 4.2 g/m*3 5.2 C 0 km/h
2725 22-03-2005 03:25:04 5.3 C 4.23 g/m*3 5.3 C 0 km/h
Sensor: Nr:Datum:Temp:Abs-Feuchte:Windchill:Wind:
Aussen-T/F 2726 22-03-2005 03:35:03 5.3 C 4.23 g/m*3 5.3 C 0 km/h
2727 22-03-2005 03:45:03 5.2 C 4.2 g/m*3 5.2 C 0 km/h
2728 22-03-2005 03:55:03 5.2 C 4.2 g/m*3 5.2 C 0 km/h
2729 22-03-2005 04:05:02 5 C 4.21 g/m*3 5 C 0 km/h
2730 22-03-2005 04:15:03 4.8 C 4.29 g/m*3 4.8 C 0 km/h
2731 22-03-2005 04:25:03 4.9 C 4.12 g/m*3 4.9 C 0 km/h
2732 22-03-2005 04:35:02 5 C 4.14 g/m*3 5 C 0 km/h
2733 22-03-2005 04:45:02 5.2 C 4.2 g/m*3 5.2 C 0 km/h
2734 22-03-2005 04:55:02 5.1 C 4.1 g/m*3 5.1 C 0 km/h
2735 22-03-2005 05:05:02 5.2 C 4.27 g/m*3 5.2 C 0 km/h
2736 22-03-2005 05:15:01 5.1 C 4.17 g/m*3 5.1 C 0 km/h
2737 22-03-2005 05:25:01 5.1 C 4.1 g/m*3 5.1 C 0 km/h
2738 22-03-2005 05:35:01 5.1 C 4.04 g/m*3 5.1 C 0 km/h
2739 22-03-2005 05:45:01 5.2 C 4.13 g/m*3 5.2 C 0 km/h
2740 22-03-2005 05:55:01 5.1 C 4.31 g/m*3 5.1 C 0 km/h
2741 22-03-2005 06:05:02 5.1 C 4.38 g/m*3 5.1 C 0 km/h
2742 22-03-2005 06:15:02 4.9 C 4.19 g/m*3 4.9 C 0 km/h
2743 22-03-2005 06:25:03 5 C 4.01 g/m*3 5 C 0 km/h
2744 22-03-2005 06:35:01 5.1 C 4.1 g/m*3 5.1 C 0 km/h
2745 22-03-2005 06:45:01 5.1 C 3.97 g/m*3 5.1 C 0 km/h
2746 22-03-2005 06:55:01 5.2 C 3.99 g/m*3 5.2 C 0 km/h
2747 22-03-2005 07:05:02 5.3 C 3.81 g/m*3 5.3 C 0 km/h
2748 22-03-2005 07:15:02 5.3 C 3.95 g/m*3 5.3 C 0 km/h
2749 22-03-2005 07:25:02 5.4 C 4.05 g/m*3 5.4 C 0 km/h
2750 22-03-2005 07:35:02 5.6 C 4.03 g/m*3 5.6 C 0 km/h
Sensor: Nr:Datum:Temp:Abs-Feuchte:Windchill:Wind:
Aussen-T/F 2751 22-03-2005 07:45:02 5.8 C 4.08 g/m*3 5.8 C 0 km/h
2752 22-03-2005 07:55:03 6.1 C 4.02 g/m*3 6.1 C 0 km/h
2753 22-03-2005 08:05:02 6.5 C 3.82 g/m*3 6.5 C 0 km/h
2754 22-03-2005 08:15:02 6.8 C 3.98 g/m*3 6.8 C 0 km/h
2755 22-03-2005 08:25:02 7.3 C 3.87 g/m*3 7.3 C 0 km/h
2756 22-03-2005 08:35:02 7.6 C 3.79 g/m*3 7.6 C 0 km/h
2757 22-03-2005 08:45:02 7.8 C 3.75 g/m*3 7.8 C 0 km/h
2758 22-03-2005 08:55:02 8.1 C 3.66 g/m*3 8.1 C 0 km/h
2759 22-03-2005 09:05:02 8.4 C 3.48 g/m*3 8.4 C 0 km/h
2760 22-03-2005 09:15:02 8.8 C 3.57 g/m*3 8.8 C 0 km/h
2761 22-03-2005 09:25:02 9.2 C 3.57 g/m*3 9.2 C 0 km/h
2762 22-03-2005 09:35:02 9.7 C 3.6 g/m*3 9.7 C 0 km/h
2763 22-03-2005 09:45:02 10.3 C 3.35 g/m*3 10.3 C 0 km/h
2764 22-03-2005 09:55:02 10.7 C 3.34 g/m*3 10.7 C 0 km/h
2765 22-03-2005 10:05:03 11.1 C 3.22 g/m*3 11.1 C 0 km/h
2766 22-03-2005 10:15:02 11.4 C 3.18 g/m*3 11.4 C 0 km/h
2767 22-03-2005 10:25:02 11.8 C 3.37 g/m*3 11.8 C 0 km/h
2768 22-03-2005 10:35:02 12.3 C 3.04 g/m*3 12.3 C 0 km/h
2769 22-03-2005 10:45:02 12.6 C 2.99 g/m*3 12.6 C 0 km/h
2770 22-03-2005 10:55:02 13.3 C 2.89 g/m*3 13.3 C 0 km/h
2771 22-03-2005 11:05:02 13.8 C 2.74 g/m*3 13.8 C 0 km/h
2772 22-03-2005 11:15:02 14.1 C 2.79 g/m*3 14.1 C 0 km/h
2773 22-03-2005 11:25:02 14.8 C 3.17 g/m*3 14.8 C 0 km/h
2774 22-03-2005 11:35:03 14.8 C 2.91 g/m*3 14.8 C 0 km/h
2775 22-03-2005 11:45:02 15 C 2.82 g/m*3 15 C 0 km/h
Sensor: Nr:Datum:Temp:Abs-Feuchte:Windchill:Wind:
Aussen-T/F 2776 22-03-2005 11:55:02 15 C 2.69 g/m*3 15 C 0 km/h
2777 22-03-2005 12:05:02 15.4 C 3.02 g/m*3 15.4 C 0 km/h
2778 22-03-2005 12:15:02 15.7 C 2.94 g/m*3 15.7 C 0 km/h
2779 22-03-2005 12:25:02 16.3 C 3.47 g/m*3 16.3 C 0 km/h
2780 22-03-2005 12:35:02 16.7 C 3.13 g/m*3 16.7 C 0 km/h
2781 22-03-2005 12:45:02 17.1 C 3.49 g/m*3 17.1 C 0 km/h
2782 22-03-2005 12:55:02 17.2 C 3.37 g/m*3 17.2 C 0 km/h
2783 22-03-2005 13:05:03 17.7 C 3.77 g/m*3 17.7 C 0 km/h
2784 22-03-2005 13:15:02 17.9 C 3.51 g/m*3 17.9 C 0 km/h
2785 22-03-2005 13:25:02 17.9 C 3.66 g/m*3 17.9 C 0 km/h
2786 22-03-2005 13:35:02 17.2 C 3.37 g/m*3 17.2 C 0 km/h
2787 22-03-2005 13:45:01 17.7 C 3.77 g/m*3 17.7 C 0 km/h
2788 22-03-2005 13:55:01 17.8 C 3.79 g/m*3 17.8 C 0 km/h
2789 22-03-2005 14:05:01 18.6 C 3.98 g/m*3 18.6 C 0 km/h
2790 22-03-2005 14:15:01 18.5 C 3.96 g/m*3 18.5 C 0 km/h
2791 22-03-2005 14:25:01 18.7 C 4 g/m*3 18.7 C 0 km/h
2792 22-03-2005 14:35:02 18.7 C 4 g/m*3 18.7 C 0 km/h
2793 22-03-2005 14:45:02 18.7 C 4.16 g/m*3 18.7 C 0 km/h
2794 22-03-2005 14:55:02 19.4 C 4.34 g/m*3 19.4 C 0 km/h
2795 22-03-2005 15:05:03 19.4 C 4.34 g/m*3 19.4 C 0 km/h
2796 22-03-2005 15:15:02 18.8 C 4.19 g/m*3 18.8 C 0 km/h
2797 22-03-2005 15:25:02 18.7 C 4.32 g/m*3 18.7 C 0 km/h
2798 22-03-2005 15:35:02 18.7 C 4.48 g/m*3 18.7 C 0 km/h
2799 22-03-2005 15:45:01 18.4 C 4.56 g/m*3 18.4 C 0 km/h
2800 22-03-2005 15:55:01 18.3 C 4.53 g/m*3 18.3 C 0 km/h
Sensor: Nr:Datum:Temp:Abs-Feuchte:Windchill:Wind:
Aussen-T/F 2801 22-03-2005 16:05:02 18.4 C 4.56 g/m*3 18.4 C 0 km/h
2802 22-03-2005 16:15:02 18.5 C 4.75 g/m*3 18.5 C 0 km/h
2803 22-03-2005 16:25:02 18.6 C 4.77 g/m*3 18.6 C 0 km/h
2804 22-03-2005 16:35:01 18.5 C 4.75 g/m*3 18.5 C 0 km/h
2805 22-03-2005 16:45:01 18 C 4.61 g/m*3 18 C 0 km/h
2806 22-03-2005 16:55:01 17.6 C 4.65 g/m*3 17.6 C 0 km/h
2807 22-03-2005 17:05:02 17.2 C 4.69 g/m*3 17.2 C 0 km/h
2808 22-03-2005 17:15:02 17 C 4.63 g/m*3 17 C 0 km/h
2809 22-03-2005 17:25:02 16.5 C 4.91 g/m*3 16.5 C 0 km/h
2810 22-03-2005 17:35:02 16.1 C 4.8 g/m*3 16.1 C 0 km/h
2811 22-03-2005 17:45:02 15.7 C 5.08 g/m*3 15.7 C 0 km/h
2812 22-03-2005 17:55:02 15 C 5.26 g/m*3 15 C 0 km/h
2813 22-03-2005 18:05:03 14.5 C 5.35 g/m*3 14.5 C 0 km/h
2814 22-03-2005 18:15:03 14.7 C 5.29 g/m*3 14.7 C 0 km/h
2815 22-03-2005 18:25:03 14.8 C 5.07 g/m*3 14.8 C 0 km/h
2816 22-03-2005 18:35:02 14.8 C 5.07 g/m*3 14.8 C 0 km/h
2817 22-03-2005 18:45:01 14.8 C 4.94 g/m*3 14.8 C 0 km/h
2818 22-03-2005 18:55:01 14.7 C 4.91 g/m*3 14.7 C 0 km/h
2819 22-03-2005 19:05:02 14.7 C 5.04 g/m*3 14.7 C 0 km/h
2820 22-03-2005 19:15:45 14.5 C 5.1 g/m*3 14.5 C 0 km/h
2821 22-03-2005 19:25:45 14.2 C 5.86 g/m*3 14.2 C 0 km/h
2822 22-03-2005 19:35:02 12.8 C 6.94 g/m*3 12.8 C 0 km/h
2823 22-03-2005 19:45:02 12.4 C 7.21 g/m*3 12.4 C 0 km/h
2824 22-03-2005 19:55:02 12.4 C 7.43 g/m*3 12.4 C 0 km/h
2825 22-03-2005 20:05:02 12.2 C 7.66 g/m*3 12.2 C 0 km/h
Sensor: Nr:Datum:Temp:Abs-Feuchte:Windchill:Wind:
Aussen-T/F 2826 22-03-2005 20:15:02 12.1 C 7.83 g/m*3 12.1 C 0 km/h
2827 22-03-2005 20:25:02 12.1 C 8.15 g/m*3 12.1 C 0 km/h
2828 22-03-2005 20:35:02 12.1 C 8.47 g/m*3 12.1 C 0 km/h
2829 22-03-2005 20:45:02 12 C 8.85 g/m*3 12 C 0 km/h
2830 22-03-2005 20:55:02 11.9 C 9 g/m*3 11.9 C 0 km/h
2831 22-03-2005 21:05:02 11.8 C 9.05 g/m*3 11.8 C 0 km/h
2832 22-03-2005 21:15:02 11.9 C 9.21 g/m*3 11.9 C 0 km/h
2833 22-03-2005 21:25:02 11.9 C 9.32 g/m*3 11.9 C 0 km/h
2834 22-03-2005 21:35:02 12 C 9.38 g/m*3 12 C 0 km/h
2835 22-03-2005 21:45:38 12 C 9.38 g/m*3 12 C 0 km/h
2836 22-03-2005 21:55:38 12 C 9.38 g/m*3 12 C 0 km/h
2837 22-03-2005 22:05:03 12 C 9.48 g/m*3 12 C 0 km/h
2838 22-03-2005 22:15:02 12.1 C 9.54 g/m*3 12.1 C 0 km/h
2839 22-03-2005 22:25:02 12.1 C 9.65 g/m*3 12.1 C 0 km/h
2840 22-03-2005 22:35:04 12.5 C 9.89 g/m*3 12.5 C 0 km/h
2841 22-03-2005 22:45:03 12.3 C 9.77 g/m*3 12.3 C 0 km/h
2842 22-03-2005 22:55:03 12.4 C 9.83 g/m*3 12.4 C 0 km/h
2843 22-03-2005 23:05:02 12.4 C 9.83 g/m*3 12.4 C 0 km/h
2844 22-03-2005 23:15:02 12.5 C 9.89 g/m*3 12.5 C 0 km/h
2845 22-03-2005 23:25:02 12.6 C 9.85 g/m*3 12.6 C 0 km/h
2846 22-03-2005 23:35:02 12.7 C 9.91 g/m*3 12.7 C 0 km/h
2847 22-03-2005 23:45:02 12.9 C 9.69 g/m*3 12.9 C 0 km/h
2848 22-03-2005 23:55:02 12.8 C 9.63 g/m*3 12.8 C 0 km/h
2849 23-03-2005 00:05:02 12.8 C 9.63 g/m*3 12.8 C 0 km/h
2850 23-03-2005 00:15:03 12.8 C 9.52 g/m*3 12.8 C 0 km/h
Sensor: Nr:Datum:Temp:Abs-Feuchte:Windchill:Wind:
Aussen-T/F 2851 23-03-2005 00:25:03 12.8 C 9.52 g/m*3 12.8 C 0 km/h
2852 23-03-2005 00:35:02 12.7 C 9.46 g/m*3 12.7 C 0 km/h
2853 23-03-2005 00:45:02 12.7 C 9.35 g/m*3 12.7 C 0 km/h
2854 23-03-2005 00:55:02 12.7 C 9.35 g/m*3 12.7 C 0 km/h
2855 23-03-2005 01:05:02 12.7 C 9.24 g/m*3 12.7 C 0 km/h
2856 23-03-2005 01:15:02 12.5 C 9.24 g/m*3 12.5 C 0 km/h
2857 23-03-2005 01:25:02 12.4 C 9.07 g/m*3 12.4 C 0 km/h
2858 23-03-2005 01:35:02 12.3 C 9.12 g/m*3 12.3 C 0 km/h
2859 23-03-2005 01:45:02 12.3 C 9.23 g/m*3 12.3 C 0 km/h
2860 23-03-2005 01:55:02 12.2 C 9.06 g/m*3 12.2 C 0 km/h
2861 23-03-2005 02:05:02 12.4 C 9.18 g/m*3 12.4 C 0 km/h
2862 23-03-2005 02:15:02 12.3 C 9.01 g/m*3 12.3 C 0 km/h
2863 23-03-2005 02:25:02 12.1 C 9.01 g/m*3 12.1 C 0 km/h
2864 23-03-2005 02:35:02 12.1 C 9.01 g/m*3 12.1 C 0 km/h
2865 23-03-2005 02:46:04 11.8 C 8.84 g/m*3 11.8 C 0 km/h
2866 23-03-2005 02:56:04 11.6 C 8.83 g/m*3 11.6 C 0 km/h
2867 23-03-2005 03:06:04 11.6 C 8.94 g/m*3 11.6 C 0 km/h
2868 23-03-2005 03:16:04 11.6 C 8.94 g/m*3 11.6 C 0 km/h
2869 23-03-2005 03:26:04 11.4 C 8.72 g/m*3 11.4 C 0 km/h
2870 23-03-2005 03:36:02 11.2 C 8.72 g/m*3 11.2 C 0 km/h
2871 23-03-2005 03:46:02 10.9 C 8.55 g/m*3 10.9 C 0 km/h
2872 23-03-2005 03:56:02 10.6 C 8.49 g/m*3 10.6 C 0 km/h
2873 23-03-2005 04:06:02 10.4 C 8.38 g/m*3 10.4 C 0 km/h
2874 23-03-2005 04:16:03 10.3 C 8.43 g/m*3 10.3 C 0 km/h
2875 23-03-2005 04:26:03 10.2 C 8.37 g/m*3 10.2 C 0 km/h
Sensor: Nr:Datum:Temp:Abs-Feuchte:Windchill:Wind:
Aussen-T/F 2876 23-03-2005 04:36:02 10.1 C 8.32 g/m*3 10.1 C 0 km/h
2877 23-03-2005 04:46:02 10 C 8.27 g/m*3 10 C 0 km/h
2878 23-03-2005 04:56:02 10 C 8.27 g/m*3 10 C 0 km/h
2879 23-03-2005 05:06:02 10.2 C 8.56 g/m*3 10.2 C 0 km/h
2880 23-03-2005 05:16:03 10.4 C 8.67 g/m*3 10.4 C 0 km/h
2881 23-03-2005 05:26:03 10.5 C 8.73 g/m*3 10.5 C 0 km/h
2882 23-03-2005 05:36:03 10.8 C 8.9 g/m*3 10.8 C 0 km/h
2883 23-03-2005 05:46:02 11 C 8.81 g/m*3 11 C 0 km/h
2884 23-03-2005 05:56:02 10.6 C 8.49 g/m*3 10.6 C 0 km/h
2885 23-03-2005 06:06:02 10.2 C 8.28 g/m*3 10.2 C 0 km/h
2886 23-03-2005 06:16:02 10.3 C 8.43 g/m*3 10.3 C 0 km/h
2887 23-03-2005 06:26:02 10.4 C 8.58 g/m*3 10.4 C 0 km/h
2888 23-03-2005 06:36:02 10.2 C 8.47 g/m*3 10.2 C 0 km/h
2889 23-03-2005 06:46:02 10.2 C 8.47 g/m*3 10.2 C 0 km/h
2890 23-03-2005 06:56:02 9.9 C 8.31 g/m*3 9.9 C 0 km/h
2891 23-03-2005 07:06:03 9.7 C 8.2 g/m*3 9.7 C 0 km/h
2892 23-03-2005 07:16:02 9.5 C 8.1 g/m*3 9.5 C 0 km/h
2893 23-03-2005 07:26:02 9.7 C 8.3 g/m*3 9.7 C 0 km/h
2894 23-03-2005 07:36:02 10 C 8.36 g/m*3 10 C 0 km/h
2895 23-03-2005 07:46:02 10.4 C 8.58 g/m*3 10.4 C 0 km/h
2896 23-03-2005 07:56:02 10.7 C 8.74 g/m*3 10.7 C 0 km/h
2897 23-03-2005 08:06:01 10.7 C 8.64 g/m*3 10.7 C 0 km/h
2898 23-03-2005 08:16:01 11 C 8.61 g/m*3 11 C 0 km/h
2899 23-03-2005 08:26:01 11 C 8.51 g/m*3 11 C 0 km/h
2900 23-03-2005 08:36:01 10.8 C 8.4 g/m*3 10.8 C 0 km/h
Sensor: Nr:Datum:Temp:Abs-Feuchte:Windchill:Wind:
Aussen-T/F 2901 23-03-2005 08:46:01 10.7 C 8.35 g/m*3 10.7 C 0 km/h
2902 23-03-2005 08:56:01 10.7 C 8.45 g/m*3 10.7 C 0 km/h
2903 23-03-2005 09:06:02 10.9 C 8.65 g/m*3 10.9 C 0 km/h
2904 23-03-2005 09:16:02 11.1 C 8.76 g/m*3 11.1 C 0 km/h
2905 23-03-2005 09:26:02 11.6 C 9.04 g/m*3 11.6 C 0 km/h
2906 23-03-2005 09:36:01 12.1 C 9.22 g/m*3 12.1 C 0 km/h
2907 23-03-2005 09:46:02 12.5 C 9.35 g/m*3 12.5 C 0 km/h
2908 23-03-2005 09:56:02 12.8 C 9.3 g/m*3 12.8 C 0 km/h
2909 23-03-2005 10:06:01 13.2 C 9.3 g/m*3 13.2 C 0 km/h
2910 23-03-2005 10:16:02 13.7 C 9.24 g/m*3 13.7 C 0 km/h
2911 23-03-2005 10:26:02 14 C 8.81 g/m*3 14 C 0 km/h
2912 23-03-2005 10:36:02 14.3 C 8.72 g/m*3 14.3 C 0 km/h
2913 23-03-2005 10:46:01 14.5 C 7.96 g/m*3 14.5 C 0 km/h
2914 23-03-2005 10:56:01 14.6 C 7.63 g/m*3 14.6 C 0 km/h
2915 23-03-2005 11:06:02 14.8 C 7.35 g/m*3 14.8 C 0 km/h
2916 23-03-2005 11:16:02 15.2 C 7.4 g/m*3 15.2 C 0 km/h
2917 23-03-2005 11:26:02 15.6 C 7.45 g/m*3 15.6 C 0 km/h
2918 23-03-2005 11:36:01 15.2 C 7.27 g/m*3 15.2 C 0 km/h
2919 23-03-2005 11:46:01 15.6 C 7.45 g/m*3 15.6 C 0 km/h
2920 23-03-2005 11:56:01 16.1 C 7.68 g/m*3 16.1 C 0 km/h
2921 23-03-2005 12:06:02 16.3 C 7.63 g/m*3 16.3 C 0 km/h
2922 23-03-2005 12:16:02 16.9 C 7.77 g/m*3 16.9 C 0 km/h
2923 23-03-2005 12:26:02 17.6 C 7.5 g/m*3 17.6 C 0 km/h
2924 23-03-2005 12:36:01 17.1 C 7.13 g/m*3 17.1 C 0 km/h
2925 23-03-2005 12:46:01 17.2 C 7.47 g/m*3 17.2 C 0 km/h
Sensor: Nr:Datum:Temp:Abs-Feuchte:Windchill:Wind:
Aussen-T/F 2926 23-03-2005 12:56:01 18.3 C 7.35 g/m*3 18.3 C 0 km/h
2927 23-03-2005 13:06:02 18.9 C 7.13 g/m*3 18.9 C 0 km/h
2928 23-03-2005 13:16:02 19.1 C 6.72 g/m*3 19.1 C 0 km/h
2929 23-03-2005 13:26:03 19.6 C 6.42 g/m*3 19.6 C 0 km/h
2930 23-03-2005 13:36:01 20 C 6.57 g/m*3 20 C 0 km/h
2931 23-03-2005 13:46:01 20.4 C 6.37 g/m*3 20.4 C 0 km/h
2932 23-03-2005 13:56:01 20.4 C 6.19 g/m*3 20.4 C 0 km/h
2933 23-03-2005 14:06:02 21.4 C 6.37 g/m*3 21.4 C 0 km/h
2934 23-03-2005 14:16:02 22.4 C 6.36 g/m*3 22.4 C 0 km/h
2935 23-03-2005 14:26:02 22.8 C 6.3 g/m*3 22.8 C 0 km/h
2936 23-03-2005 14:36:02 23.2 C 6.03 g/m*3 23.2 C 0 km/h
2937 23-03-2005 14:46:02 23.8 C 6.24 g/m*3 23.8 C 0 km/h
2938 23-03-2005 14:56:02 24.2 C 6.16 g/m*3 24.2 C 0 km/h
2939 23-03-2005 15:06:02 23.8 C 6.02 g/m*3 23.8 C 0 km/h
2940 23-03-2005 15:16:03 23.5 C 6.13 g/m*3 23.5 C 0 km/h
2941 23-03-2005 15:26:03 22.2 C 5.69 g/m*3 22.2 C 0 km/h
2942 23-03-2005 15:36:02 22.2 C 5.69 g/m*3 22.2 C 0 km/h
2943 23-03-2005 15:46:02 22.9 C 5.93 g/m*3 22.9 C 0 km/h
2944 23-03-2005 15:56:02 23.5 C 5.92 g/m*3 23.5 C 0 km/h
2945 23-03-2005 16:06:02 24.5 C 6.04 g/m*3 24.5 C 0 km/h
2946 23-03-2005 16:16:02 24.4 C 5.79 g/m*3 24.4 C 0 km/h
2947 23-03-2005 16:26:02 24.2 C 5.94 g/m*3 24.2 C 0 km/h
2948 23-03-2005 16:36:02 24.1 C 5.69 g/m*3 24.1 C 0 km/h
2949 23-03-2005 16:46:02 23.9 C 5.84 g/m*3 23.9 C 0 km/h
2950 23-03-2005 16:56:02 23.8 C 6.02 g/m*3 23.8 C 0 km/h
Sensor: Nr:Datum:Temp:Abs-Feuchte:Windchill:Wind:
Aussen-T/F 2951 23-03-2005 17:06:03 23 C 6.17 g/m*3 23 C 0 km/h
2952 23-03-2005 17:16:02 22.5 C 6.39 g/m*3 22.5 C 0 km/h
2953 23-03-2005 17:26:02 22.6 C 6.43 g/m*3 22.6 C 0 km/h
2954 23-03-2005 17:36:02 22.3 C 6.52 g/m*3 22.3 C 0 km/h
2955 23-03-2005 17:46:05 22 C 6.6 g/m*3 22 C 0 km/h
2956 23-03-2005 17:56:05 21.3 C 6.71 g/m*3 21.3 C 0 km/h
2957 23-03-2005 18:06:02 20.3 C 6.86 g/m*3 20.3 C 0 km/h
2958 23-03-2005 18:16:01 19.4 C 6.84 g/m*3 19.4 C 0 km/h
2959 23-03-2005 18:26:01 18.3 C 6.88 g/m*3 18.3 C 0 km/h
2960 23-03-2005 18:36:02 17.6 C 6.9 g/m*3 17.6 C 0 km/h
2961 23-03-2005 18:46:02 17.1 C 6.99 g/m*3 17.1 C 0 km/h
2962 23-03-2005 18:56:02 16.6 C 7.06 g/m*3 16.6 C 0 km/h
2963 23-03-2005 19:06:01 16.2 C 7.03 g/m*3 16.2 C 0 km/h
2964 23-03-2005 19:16:02 15.8 C 7.13 g/m*3 15.8 C 0 km/h
2965 23-03-2005 19:26:02 15.5 C 7.14 g/m*3 15.5 C 0 km/h
2966 23-03-2005 19:36:02 15.2 C 7.14 g/m*3 15.2 C 0 km/h
2967 23-03-2005 19:46:02 14.8 C 7.22 g/m*3 14.8 C 0 km/h
2968 23-03-2005 19:56:02 14.4 C 7.17 g/m*3 14.4 C 0 km/h
2969 23-03-2005 20:06:02 14.3 C 7.25 g/m*3 14.3 C 0 km/h
2970 23-03-2005 20:16:03 14.1 C 7.04 g/m*3 14.1 C 0 km/h
2971 23-03-2005 20:26:03 13.9 C 7.19 g/m*3 13.9 C 0 km/h
2972 23-03-2005 20:36:02 13.7 C 7.22 g/m*3 13.7 C 0 km/h
2973 23-03-2005 20:46:01 13.5 C 7.25 g/m*3 13.5 C 0 km/h
2974 23-03-2005 20:56:01 13.2 C 7.12 g/m*3 13.2 C 0 km/h
2975 23-03-2005 21:06:02 13 C 7.14 g/m*3 13 C 0 km/h
Sensor: Nr:Datum:Temp:Abs-Feuchte:Windchill:Wind:
Aussen-T/F 2976 23-03-2005 21:16:02 12.9 C 7.33 g/m*3 12.9 C 0 km/h
2977 23-03-2005 21:26:02 12.8 C 7.28 g/m*3 12.8 C 0 km/h
2978 23-03-2005 21:36:02 12.7 C 7.24 g/m*3 12.7 C 0 km/h
2979 23-03-2005 21:46:02 12.5 C 7.26 g/m*3 12.5 C 0 km/h
2980 23-03-2005 21:56:02 12.2 C 7.23 g/m*3 12.2 C 0 km/h
2981 23-03-2005 22:06:02 12.1 C 7.18 g/m*3 12.1 C 0 km/h
2982 23-03-2005 22:16:02 11.9 C 7.31 g/m*3 11.9 C 0 km/h
2983 23-03-2005 22:26:02 11.7 C 7.22 g/m*3 11.7 C 0 km/h
2984 23-03-2005 22:36:02 11.5 C 7.23 g/m*3 11.5 C 0 km/h
2985 23-03-2005 22:46:02 11.4 C 7.19 g/m*3 11.4 C 0 km/h
2986 23-03-2005 22:56:02 11.2 C 7.2 g/m*3 11.2 C 0 km/h
2987 23-03-2005 23:06:03 10.8 C 7.12 g/m*3 10.8 C 0 km/h
2988 23-03-2005 23:16:03 10.6 C 7.12 g/m*3 10.6 C 0 km/h
2989 23-03-2005 23:26:03 10.5 C 7.08 g/m*3 10.5 C 0 km/h
2990 23-03-2005 23:36:03 10.3 C 6.99 g/m*3 10.3 C 0 km/h
2991 23-03-2005 23:46:02 10.2 C 7.04 g/m*3 10.2 C 0 km/h
2992 23-03-2005 23:56:02 10.2 C 7.04 g/m*3 10.2 C 0 km/h
2993 24-03-2005 00:06:03 9.9 C 7.19 g/m*3 9.9 C 0 km/h
2994 24-03-2005 00:16:03 9.9 C 7.19 g/m*3 9.9 C 0 km/h
2995 24-03-2005 00:26:03 9.5 C 7.01 g/m*3 9.5 C 0 km/h
2996 24-03-2005 00:36:03 9.5 C 7.1 g/m*3 9.5 C 0 km/h
2997 24-03-2005 00:46:02 9.4 C 7.05 g/m*3 9.4 C 0 km/h
2998 24-03-2005 00:56:02 9.3 C 7.01 g/m*3 9.3 C 0 km/h
2999 24-03-2005 01:06:02 9.1 C 6.92 g/m*3 9.1 C 0 km/h
3000 24-03-2005 01:16:03 9.1 C 7.1 g/m*3 9.1 C 0 km/h
Sensor: Nr:Datum:Temp:Abs-Feuchte:Windchill:Wind:
Aussen-T/F 3001 24-03-2005 01:26:03 9.1 C 7.1 g/m*3 9.1 C 0 km/h
3002 24-03-2005 01:36:02 9 C 7.14 g/m*3 9 C 0 km/h
3003 24-03-2005 01:46:02 9 C 7.14 g/m*3 9 C 0 km/h
3004 24-03-2005 01:56:02 8.7 C 7.01 g/m*3 8.7 C 0 km/h
3005 24-03-2005 02:06:01 8.6 C 7.05 g/m*3 8.6 C 0 km/h
3006 24-03-2005 02:16:02 8.5 C 7.09 g/m*3 8.5 C 0 km/h
3007 24-03-2005 02:26:02 8.3 C 7 g/m*3 8.3 C 0 km/h
3008 24-03-2005 02:36:02 8.2 C 6.95 g/m*3 8.2 C 0 km/h
3009 24-03-2005 02:47:04 8.1 C 6.91 g/m*3 8.1 C 0 km/h
3010 24-03-2005 02:57:04 8 C 6.94 g/m*3 8 C 0 km/h
3011 24-03-2005 03:07:04 7.9 C 6.98 g/m*3 7.9 C 0 km/h
3012 24-03-2005 03:17:04 7.7 C 6.89 g/m*3 7.7 C 0 km/h
3013 24-03-2005 03:27:04 7.6 C 6.85 g/m*3 7.6 C 0 km/h
3014 24-03-2005 03:37:02 7.5 C 6.8 g/m*3 7.5 C 0 km/h
3015 24-03-2005 03:47:02 7.5 C 6.88 g/m*3 7.5 C 0 km/h
3016 24-03-2005 03:57:02 7.3 C 6.87 g/m*3 7.3 C 0 km/h
3017 24-03-2005 04:07:02 7.1 C 6.79 g/m*3 7.1 C 0 km/h
3018 24-03-2005 04:17:02 7 C 6.74 g/m*3 7 C 0 km/h
3019 24-03-2005 04:27:02 6.9 C 6.77 g/m*3 6.9 C 0 km/h
3020 24-03-2005 04:37:02 6.7 C 6.69 g/m*3 6.7 C 0 km/h
3021 24-03-2005 04:47:02 6.7 C 6.69 g/m*3 6.7 C 0 km/h
3022 24-03-2005 04:57:02 6.8 C 6.73 g/m*3 6.8 C 0 km/h
3023 24-03-2005 05:07:01 6.5 C 6.6 g/m*3 6.5 C 0 km/h
3024 24-03-2005 05:17:02 6.5 C 6.6 g/m*3 6.5 C 0 km/h
3025 24-03-2005 05:27:02 6.7 C 6.76 g/m*3 6.7 C 0 km/h
Sensor: Nr:Datum:Temp:Abs-Feuchte:Windchill:Wind:
Aussen-T/F 3026 24-03-2005 05:37:01 6.5 C 6.67 g/m*3 6.5 C 0 km/h
3027 24-03-2005 05:47:03 6.4 C 6.63 g/m*3 6.4 C 0 km/h
3028 24-03-2005 05:57:03 6.3 C 6.59 g/m*3 6.3 C 0 km/h
3029 24-03-2005 06:07:03 6.4 C 6.63 g/m*3 6.4 C 0 km/h
3030 24-03-2005 06:17:02 6.4 C 6.71 g/m*3 6.4 C 0 km/h
3031 24-03-2005 06:27:02 6.2 C 6.55 g/m*3 6.2 C 0 km/h
3032 24-03-2005 06:37:02 6 C 6.46 g/m*3 6 C 0 km/h
3033 24-03-2005 06:47:01 6 C 6.46 g/m*3 6 C 0 km/h
3034 24-03-2005 06:57:01 6.1 C 6.5 g/m*3 6.1 C 0 km/h
3035 24-03-2005 07:07:02 6.2 C 6.55 g/m*3 6.2 C 0 km/h
3036 24-03-2005 07:17:01 6.3 C 6.59 g/m*3 6.3 C 0 km/h
3037 24-03-2005 07:27:02 6.5 C 6.67 g/m*3 6.5 C 0 km/h
3038 24-03-2005 07:37:01 6.9 C 6.85 g/m*3 6.9 C 0 km/h
3039 24-03-2005 07:47:01 7.2 C 6.91 g/m*3 7.2 C 0 km/h
3040 24-03-2005 07:57:01 7.7 C 7.05 g/m*3 7.7 C 0 km/h
3041 24-03-2005 08:07:01 7.8 C 6.94 g/m*3 7.8 C 0 km/h
3042 24-03-2005 08:17:01 7.8 C 6.86 g/m*3 7.8 C 0 km/h
3043 24-03-2005 08:27:01 8.1 C 6.82 g/m*3 8.1 C 0 km/h
3044 24-03-2005 08:37:01 8.3 C 6.91 g/m*3 8.3 C 0 km/h
3045 24-03-2005 08:47:01 8.4 C 6.96 g/m*3 8.4 C 0 km/h
3046 24-03-2005 08:57:01 8.5 C 6.92 g/m*3 8.5 C 0 km/h
3047 24-03-2005 09:07:02 9.2 C 7.14 g/m*3 9.2 C 0 km/h
3048 24-03-2005 09:17:02 9.7 C 7.1 g/m*3 9.7 C 0 km/h
3049 24-03-2005 09:27:02 10.1 C 7.19 g/m*3 10.1 C 0 km/h
3050 24-03-2005 09:37:02 10.7 C 7.56 g/m*3 10.7 C 0 km/h
Sensor: Nr:Datum:Temp:Abs-Feuchte:Windchill:Wind:
Aussen-T/F 3051 24-03-2005 09:47:02 11.8 C 7.79 g/m*3 11.8 C 0 km/h
3052 24-03-2005 09:57:02 12.8 C 7.95 g/m*3 12.8 C 0 km/h
3053 24-03-2005 10:07:02 13.4 C 7.67 g/m*3 13.4 C 0 km/h
3054 24-03-2005 10:17:01 13.5 C 7.6 g/m*3 13.5 C 0 km/h
3055 24-03-2005 10:27:01 13.9 C 7.67 g/m*3 13.9 C 0 km/h
3056 24-03-2005 10:37:02 13.9 C 7.67 g/m*3 13.9 C 0 km/h
3057 24-03-2005 10:47:01 14.2 C 7.57 g/m*3 14.2 C 0 km/h
3058 24-03-2005 10:57:01 14.8 C 7.6 g/m*3 14.8 C 0 km/h
3059 24-03-2005 11:07:01 14.8 C 7.6 g/m*3 14.8 C 0 km/h
3060 24-03-2005 11:17:02 15.4 C 7.62 g/m*3 15.4 C 0 km/h
3061 24-03-2005 11:27:02 15.7 C 7.63 g/m*3 15.7 C 0 km/h
3062 24-03-2005 11:37:02 15.8 C 7.54 g/m*3 15.8 C 0 km/h
3063 24-03-2005 11:47:02 16 C 7.36 g/m*3 16 C 0 km/h
3064 24-03-2005 11:57:02 16.9 C 7.77 g/m*3 16.9 C 0 km/h
3065 24-03-2005 12:07:02 16.9 C 7.62 g/m*3 16.9 C 0 km/h
3066 24-03-2005 12:17:02 16.8 C 7.43 g/m*3 16.8 C 0 km/h
3067 24-03-2005 12:27:02 17 C 7.38 g/m*3 17 C 0 km/h
3068 24-03-2005 12:37:02 17.2 C 7.47 g/m*3 17.2 C 0 km/h
3069 24-03-2005 12:47:01 17.1 C 7.28 g/m*3 17.1 C 0 km/h
3070 24-03-2005 12:57:01 17.1 C 7.28 g/m*3 17.1 C 0 km/h
3071 24-03-2005 13:07:02 17.2 C 7.32 g/m*3 17.2 C 0 km/h
3072 24-03-2005 13:17:02 17.4 C 7.41 g/m*3 17.4 C 0 km/h
3073 24-03-2005 13:27:02 17.6 C 7.5 g/m*3 17.6 C 0 km/h
3074 24-03-2005 13:37:02 17.6 C 7.5 g/m*3 17.6 C 0 km/h
3075 24-03-2005 13:47:02 18.1 C 7.57 g/m*3 18.1 C 0 km/h
Sensor: Nr:Datum:Temp:Abs-Feuchte:Windchill:Wind:
Aussen-T/F 3076 24-03-2005 13:57:02 18.5 C 7.59 g/m*3 18.5 C 0 km/h
3077 24-03-2005 14:07:03 18.5 C 7.44 g/m*3 18.5 C 0 km/h
3078 24-03-2005 14:17:02 18.4 C 7.39 g/m*3 18.4 C 0 km/h
3079 24-03-2005 14:27:02 18.5 C 7.59 g/m*3 18.5 C 0 km/h
3080 24-03-2005 14:37:02 18.5 C 7.44 g/m*3 18.5 C 0 km/h
3081 24-03-2005 14:47:01 18.2 C 7.46 g/m*3 18.2 C 0 km/h
3082 24-03-2005 14:57:01 17.9 C 7.63 g/m*3 17.9 C 0 km/h
3083 24-03-2005 15:07:02 17.5 C 7.6 g/m*3 17.5 C 0 km/h
3084 24-03-2005 15:17:02 17.7 C 7.69 g/m*3 17.7 C 0 km/h
3085 24-03-2005 15:27:03 17.9 C 7.79 g/m*3 17.9 C 0 km/h
3086 24-03-2005 15:37:01 17.9 C 7.79 g/m*3 17.9 C 0 km/h
3087 24-03-2005 15:47:01 17.7 C 7.69 g/m*3 17.7 C 0 km/h
3088 24-03-2005 15:57:01 17.6 C 7.8 g/m*3 17.6 C 0 km/h
3089 24-03-2005 16:07:02 17 C 7.81 g/m*3 17 C 0 km/h
3090 24-03-2005 16:17:02 16.6 C 7.77 g/m*3 16.6 C 0 km/h
3091 24-03-2005 16:27:02 16.5 C 7.86 g/m*3 16.5 C 0 km/h
3092 24-03-2005 16:37:02 16.6 C 7.91 g/m*3 16.6 C 0 km/h
3093 24-03-2005 16:47:01 16.6 C 7.91 g/m*3 16.6 C 0 km/h
3094 24-03-2005 16:57:01 16.5 C 8 g/m*3 16.5 C 0 km/h
3095 24-03-2005 17:07:01 16.6 C 8.05 g/m*3 16.6 C 0 km/h
3096 24-03-2005 17:17:01 16.4 C 8.1 g/m*3 16.4 C 0 km/h
3097 24-03-2005 17:27:01 15.9 C 8.26 g/m*3 15.9 C 0 km/h
3098 24-03-2005 17:37:01 15.2 C 8.57 g/m*3 15.2 C 0 km/h
3099 24-03-2005 17:47:01 14.7 C 8.81 g/m*3 14.7 C 0 km/h
3100 24-03-2005 17:57:01 14.2 C 9.04 g/m*3 14.2 C 0 km/h
Sensor: Nr:Datum:Temp:Abs-Feuchte:Windchill:Wind:
Aussen-T/F 3101 24-03-2005 18:07:02 14.2 C 9.04 g/m*3 14.2 C 0 km/h
3102 24-03-2005 18:17:01 14.2 C 8.91 g/m*3 14.2 C 0 km/h
3103 24-03-2005 18:27:01 14.3 C 8.97 g/m*3 14.3 C 0 km/h
3104 24-03-2005 18:37:01 14.4 C 8.78 g/m*3 14.4 C 0 km/h
3105 24-03-2005 18:47:01 14.4 C 8.65 g/m*3 14.4 C 0 km/h
3106 24-03-2005 18:57:01 14.2 C 8.67 g/m*3 14.2 C 0 km/h
3107 24-03-2005 19:07:04 14.2 C 8.67 g/m*3 14.2 C 0 km/h
3108 24-03-2005 19:17:05 14.2 C 8.55 g/m*3 14.2 C 0 km/h
3109 24-03-2005 19:27:05 14.2 C 8.67 g/m*3 14.2 C 0 km/h
3110 24-03-2005 19:37:02 14.1 C 8.62 g/m*3 14.1 C 0 km/h
3111 24-03-2005 19:47:02 14 C 8.56 g/m*3 14 C 0 km/h
3112 24-03-2005 19:57:02 13.9 C 8.75 g/m*3 13.9 C 0 km/h
3113 24-03-2005 20:07:04 13.7 C 8.64 g/m*3 13.7 C 0 km/h
3114 24-03-2005 20:17:02 13.7 C 8.64 g/m*3 13.7 C 0 km/h
3115 24-03-2005 20:27:02 13.2 C 8.38 g/m*3 13.2 C 0 km/h
3116 24-03-2005 20:37:02 13.1 C 8.44 g/m*3 13.1 C 0 km/h
3117 24-03-2005 20:47:01 13.1 C 8.44 g/m*3 13.1 C 0 km/h
3118 24-03-2005 20:57:01 13 C 8.51 g/m*3 13 C 0 km/h
3119 24-03-2005 21:07:01 13 C 8.51 g/m*3 13 C 0 km/h
3120 24-03-2005 21:17:02 12.8 C 8.51 g/m*3 12.8 C 0 km/h
3121 24-03-2005 21:27:02 12.7 C 8.46 g/m*3 12.7 C 0 km/h
3122 24-03-2005 21:37:01 12.8 C 8.62 g/m*3 12.8 C 0 km/h
3123 24-03-2005 21:47:01 12.9 C 8.57 g/m*3 12.9 C 0 km/h
3124 24-03-2005 21:57:01 12.9 C 8.68 g/m*3 12.9 C 0 km/h
3125 24-03-2005 22:07:02 12.9 C 8.68 g/m*3 12.9 C 0 km/h
Sensor: Nr:Datum:Temp:Abs-Feuchte:Windchill:Wind:
Aussen-T/F 3126 24-03-2005 22:17:02 12.9 C 8.68 g/m*3 12.9 C 0 km/h
3127 24-03-2005 22:27:02 12.8 C 8.62 g/m*3 12.8 C 0 km/h
3128 24-03-2005 22:37:01 12.7 C 8.68 g/m*3 12.7 C 0 km/h
3129 24-03-2005 22:47:01 12.7 C 8.91 g/m*3 12.7 C 0 km/h
3130 24-03-2005 22:57:01 12.7 C 8.91 g/m*3 12.7 C 0 km/h
3131 24-03-2005 23:07:02 12.7 C 8.91 g/m*3 12.7 C 0 km/h
3132 24-03-2005 23:17:02 12.6 C 8.85 g/m*3 12.6 C 0 km/h
3133 24-03-2005 23:27:02 12.4 C 9.29 g/m*3 12.4 C 0 km/h
3134 24-03-2005 23:37:01 12.3 C 9.45 g/m*3 12.3 C 0 km/h
3135 24-03-2005 23:47:01 12.1 C 9.44 g/m*3 12.1 C 0 km/h
3136 24-03-2005 23:57:01 12.1 C 9.54 g/m*3 12.1 C 0 km/h
3137 25-03-2005 00:07:01 12 C 9.59 g/m*3 12 C 0 km/h
3138 25-03-2005 00:17:03 11.9 C 9.64 g/m*3 11.9 C 0 km/h
3139 25-03-2005 00:27:04 11.9 C 9.64 g/m*3 11.9 C 0 km/h
3140 25-03-2005 00:37:02 11.8 C 9.68 g/m*3 11.8 C 0 km/h
3141 25-03-2005 00:47:03 11.7 C 9.62 g/m*3 11.7 C 0 km/h
3142 25-03-2005 00:57:03 11.7 C 9.62 g/m*3 11.7 C 0 km/h
3143 25-03-2005 01:07:03 11.7 C 9.62 g/m*3 11.7 C 0 km/h
3144 25-03-2005 01:17:02 11.7 C 9.62 g/m*3 11.7 C 0 km/h
3145 25-03-2005 01:27:02 11.7 C 9.62 g/m*3 11.7 C 0 km/h
3146 25-03-2005 01:37:03 11.8 C 9.79 g/m*3 11.8 C 0 km/h
3147 25-03-2005 01:47:02 12 C 9.91 g/m*3 12 C 0 km/h
3148 25-03-2005 01:57:02 11.7 C 9.73 g/m*3 11.7 C 0 km/h
3149 25-03-2005 02:07:02 11.5 C 9.61 g/m*3 11.5 C 0 km/h
3150 25-03-2005 02:17:02 11.4 C 9.55 g/m*3 11.4 C 0 km/h
Sensor: Nr:Datum:Temp:Abs-Feuchte:Windchill:Wind:
Aussen-T/F 3151 25-03-2005 02:27:02 11.2 C 9.43 g/m*3 11.2 C 0 km/h
3152 25-03-2005 02:37:02 11.2 C 9.43 g/m*3 11.2 C 0 km/h
3153 25-03-2005 02:48:03 11.1 C 9.37 g/m*3 11.1 C 0 km/h
3154 25-03-2005 02:58:03 11.2 C 9.53 g/m*3 11.2 C 0 km/h
3155 25-03-2005 03:08:04 11.1 C 9.47 g/m*3 11.1 C 0 km/h
3156 25-03-2005 03:18:04 11.1 C 9.47 g/m*3 11.1 C 0 km/h
3157 25-03-2005 03:28:04 11.1 C 9.47 g/m*3 11.1 C 0 km/h
3158 25-03-2005 03:38:03 11 C 9.41 g/m*3 11 C 0 km/h
3159 25-03-2005 03:48:03 11 C 9.41 g/m*3 11 C 0 km/h
3160 25-03-2005 03:58:03 10.8 C 9.29 g/m*3 10.8 C 0 km/h
3161 25-03-2005 04:08:02 10.8 C 9.29 g/m*3 10.8 C 0 km/h
3162 25-03-2005 04:18:02 10.7 C 9.23 g/m*3 10.7 C 0 km/h
3163 25-03-2005 04:28:02 10.6 C 9.17 g/m*3 10.6 C 0 km/h
3164 25-03-2005 04:38:02 10.6 C 9.17 g/m*3 10.6 C 0 km/h
3165 25-03-2005 04:48:02 10.5 C 9.12 g/m*3 10.5 C 0 km/h
3166 25-03-2005 04:58:02 10.5 C 9.12 g/m*3 10.5 C 0 km/h
3167 25-03-2005 05:08:02 10.5 C 9.12 g/m*3 10.5 C 0 km/h
3168 25-03-2005 05:18:02 10.5 C 9.12 g/m*3 10.5 C 0 km/h
3169 25-03-2005 05:28:02 10.4 C 9.06 g/m*3 10.4 C 0 km/h
3170 25-03-2005 05:38:01 10.4 C 9.06 g/m*3 10.4 C 0 km/h
3171 25-03-2005 05:48:01 10.4 C 9.06 g/m*3 10.4 C 0 km/h
3172 25-03-2005 05:58:01 10.4 C 9.06 g/m*3 10.4 C 0 km/h
3173 25-03-2005 06:08:02 10.4 C 9.06 g/m*3 10.4 C 0 km/h
3174 25-03-2005 06:18:02 10.5 C 9.12 g/m*3 10.5 C 0 km/h
3175 25-03-2005 06:28:03 10.5 C 9.12 g/m*3 10.5 C 0 km/h
Sensor: Nr:Datum:Temp:Abs-Feuchte:Windchill:Wind:
Aussen-T/F 3176 25-03-2005 06:38:01 10.5 C 9.12 g/m*3 10.5 C 0 km/h
3177 25-03-2005 06:48:01 10.5 C 9.12 g/m*3 10.5 C 0 km/h
3178 25-03-2005 06:58:01 10.6 C 9.17 g/m*3 10.6 C 0 km/h
3179 25-03-2005 07:08:02 10.7 C 9.23 g/m*3 10.7 C 0 km/h
3180 25-03-2005 07:18:02 10.6 C 9.17 g/m*3 10.6 C 0 km/h
3181 25-03-2005 07:28:02 10.6 C 9.08 g/m*3 10.6 C 0 km/h
3182 25-03-2005 07:38:01 10.7 C 9.04 g/m*3 10.7 C 0 km/h
3183 25-03-2005 07:48:01 10.7 C 8.94 g/m*3 10.7 C 0 km/h
3184 25-03-2005 07:58:01 10.8 C 8.99 g/m*3 10.8 C 0 km/h
3185 25-03-2005 08:08:01 10.9 C 8.95 g/m*3 10.9 C 0 km/h
3186 25-03-2005 08:18:01 11.1 C 8.96 g/m*3 11.1 C 0 km/h
3187 25-03-2005 08:28:01 11.2 C 9.02 g/m*3 11.2 C 0 km/h
3188 25-03-2005 08:38:01 11.3 C 8.98 g/m*3 11.3 C 0 km/h
3189 25-03-2005 08:48:02 11.4 C 8.93 g/m*3 11.4 C 0 km/h
3190 25-03-2005 08:58:02 11.5 C 8.99 g/m*3 11.5 C 0 km/h
3191 25-03-2005 09:08:02 11.7 C 8.89 g/m*3 11.7 C 0 km/h
3192 25-03-2005 09:18:02 11.9 C 8.9 g/m*3 11.9 C 0 km/h
3193 25-03-2005 09:28:02 12.2 C 8.85 g/m*3 12.2 C 0 km/h
3194 25-03-2005 09:38:02 12.8 C 8.96 g/m*3 12.8 C 0 km/h
3195 25-03-2005 09:48:02 13.3 C 8.66 g/m*3 13.3 C 0 km/h
3196 25-03-2005 09:58:02 13.5 C 8.54 g/m*3 13.5 C 0 km/h
3197 25-03-2005 10:08:02 13.4 C 8.49 g/m*3 13.4 C 0 km/h
3198 25-03-2005 10:18:02 13.2 C 8.5 g/m*3 13.2 C 0 km/h
3199 25-03-2005 10:28:02 13.5 C 8.42 g/m*3 13.5 C 0 km/h
3200 25-03-2005 10:38:03 13.6 C 8.47 g/m*3 13.6 C 0 km/h
Sensor: Nr:Datum:Temp:Abs-Feuchte:Windchill:Wind:
Aussen-T/F 3201 25-03-2005 10:48:01 13.5 C 8.19 g/m*3 13.5 C 0 km/h
3202 25-03-2005 10:58:01 13.7 C 7.82 g/m*3 13.7 C 0 km/h
3203 25-03-2005 11:08:02 14 C 7.48 g/m*3 14 C 0 km/h
3204 25-03-2005 11:18:02 14 C 7.24 g/m*3 14 C 0 km/h
3205 25-03-2005 11:28:02 14.3 C 7.62 g/m*3 14.3 C 0 km/h
3206 25-03-2005 11:38:01 14.2 C 7.57 g/m*3 14.2 C 0 km/h
3207 25-03-2005 11:48:02 14.1 C 7.28 g/m*3 14.1 C 0 km/h
3208 25-03-2005 11:58:02 14.3 C 7.37 g/m*3 14.3 C 0 km/h
3209 25-03-2005 12:08:02 14.1 C 7.04 g/m*3 14.1 C 0 km/h
3210 25-03-2005 12:18:02 14.3 C 7 g/m*3 14.3 C 0 km/h
3211 25-03-2005 12:28:03 14.9 C 7.65 g/m*3 14.9 C 0 km/h
3212 25-03-2005 12:38:02 16.8 C 7.72 g/m*3 16.8 C 0 km/h
3213 25-03-2005 12:48:02 16.9 C 6.9 g/m*3 16.9 C 0 km/h
3214 25-03-2005 12:58:02 16.3 C 6.94 g/m*3 16.3 C 0 km/h
3215 25-03-2005 13:08:02 17.1 C 7.28 g/m*3 17.1 C 0 km/h
3216 25-03-2005 13:18:02 17.8 C 7.44 g/m*3 17.8 C 0 km/h
3217 25-03-2005 13:28:02 17.3 C 7.07 g/m*3 17.3 C 0 km/h
3218 25-03-2005 13:38:01 17 C 7.09 g/m*3 17 C 0 km/h
3219 25-03-2005 13:48:01 17.8 C 7.44 g/m*3 17.8 C 0 km/h
3220 25-03-2005 13:58:01 18.5 C 7.28 g/m*3 18.5 C 0 km/h
3221 25-03-2005 14:08:01 18.1 C 6.64 g/m*3 18.1 C 0 km/h
3222 25-03-2005 14:18:01 18 C 6.91 g/m*3 18 C 0 km/h
3223 25-03-2005 14:28:01 17.8 C 6.53 g/m*3 17.8 C 0 km/h
3224 25-03-2005 14:38:02 18.1 C 6.8 g/m*3 18.1 C 0 km/h
3225 25-03-2005 14:48:01 18.2 C 6.53 g/m*3 18.2 C 0 km/h
Sensor: Nr:Datum:Temp:Abs-Feuchte:Windchill:Wind:
Aussen-T/F 3226 25-03-2005 14:58:01 18.1 C 6.64 g/m*3 18.1 C 0 km/h
3227 25-03-2005 15:08:01 18.1 C 6.49 g/m*3 18.1 C 0 km/h
3228 25-03-2005 15:18:02 17.7 C 6.49 g/m*3 17.7 C 0 km/h
3229 25-03-2005 15:28:02 18.3 C 6.41 g/m*3 18.3 C 0 km/h
3230 25-03-2005 15:38:02 17.1 C 6.11 g/m*3 17.1 C 0 km/h
3231 25-03-2005 15:48:01 17 C 6.51 g/m*3 17 C 0 km/h
3232 25-03-2005 15:58:01 17.8 C 6.53 g/m*3 17.8 C 0 km/h
3233 25-03-2005 16:08:02 17.7 C 6.49 g/m*3 17.7 C 0 km/h
3234 25-03-2005 16:18:02 18 C 6.45 g/m*3 18 C 0 km/h
3235 25-03-2005 16:28:02 18.4 C 6.61 g/m*3 18.4 C 0 km/h
3236 25-03-2005 16:38:02 18.5 C 6.65 g/m*3 18.5 C 0 km/h
3237 25-03-2005 16:48:02 18.8 C 6.76 g/m*3